<?xml version="1.0" encoding="UTF-8" standalone="no" ?>
<gpx xmlns="http://www.topografix.com/GPX/1/1" xmlns:xsi="http://www.w3.org/2001/XMLSchema-instance" xsi:schemaLocation="http://www.topografix.com/GPX/1/1 http://www.topografix.com/GPX/1/1/gpx.xsd" version="1.1" creator="VisuGPX - https://www.visugpx.com">
  <metadata>
    <name>Brochon chamboeuf chamerey</name>
  </metadata>
  <trk>
    <name><![CDATA[Brochon chamboeuf chamerey]]></name>
    <extensions>
      <line xmlns="http://www.topografix.com/GPX/gpx_style/0/2">
        <color>0000FF</color>
        <width>4</width>
      </line>
    </extensions>
    <trkseg>
      <trkpt lat="47.24056" lon="4.9653">
        <ele>328</ele>
        <time>2021-03-28T08:07:16.000Z</time>
      </trkpt>
      <trkpt lat="47.24052" lon="4.96549">
        <ele>365</ele>
        <time>2021-03-28T08:07:23.000Z</time>
      </trkpt>
      <trkpt lat="47.24046" lon="4.9656">
        <ele>372</ele>
        <time>2021-03-28T08:07:52.000Z</time>
      </trkpt>
      <trkpt lat="47.24054" lon="4.96553">
        <ele>367</ele>
        <time>2021-03-28T08:09:40.000Z</time>
      </trkpt>
      <trkpt lat="47.24055" lon="4.96532">
        <ele>363</ele>
        <time>2021-03-28T08:10:06.000Z</time>
      </trkpt>
      <trkpt lat="47.24049" lon="4.96511">
        <ele>364</ele>
        <time>2021-03-28T08:10:10.000Z</time>
      </trkpt>
      <trkpt lat="47.24046" lon="4.96496">
        <ele>366</ele>
        <time>2021-03-28T08:10:15.000Z</time>
      </trkpt>
      <trkpt lat="47.24045" lon="4.96481">
        <ele>374</ele>
        <time>2021-03-28T08:10:47.000Z</time>
      </trkpt>
      <trkpt lat="47.2404" lon="4.96461">
        <ele>374</ele>
        <time>2021-03-28T08:10:59.000Z</time>
      </trkpt>
      <trkpt lat="47.24035" lon="4.96446">
        <ele>377</ele>
        <time>2021-03-28T08:11:05.000Z</time>
      </trkpt>
      <trkpt lat="47.24036" lon="4.96431">
        <ele>376</ele>
        <time>2021-03-28T08:11:17.000Z</time>
      </trkpt>
      <trkpt lat="47.24032" lon="4.96419">
        <ele>376</ele>
        <time>2021-03-28T08:11:32.000Z</time>
      </trkpt>
      <trkpt lat="47.24037" lon="4.96405">
        <ele>379</ele>
        <time>2021-03-28T08:11:43.000Z</time>
      </trkpt>
      <trkpt lat="47.24042" lon="4.96393">
        <ele>378</ele>
        <time>2021-03-28T08:11:50.000Z</time>
      </trkpt>
      <trkpt lat="47.24046" lon="4.9638">
        <ele>385</ele>
        <time>2021-03-28T08:11:59.000Z</time>
      </trkpt>
      <trkpt lat="47.24052" lon="4.96364">
        <ele>389</ele>
        <time>2021-03-28T08:12:08.000Z</time>
      </trkpt>
      <trkpt lat="47.24048" lon="4.96344">
        <ele>390</ele>
        <time>2021-03-28T08:12:17.000Z</time>
      </trkpt>
      <trkpt lat="47.24056" lon="4.9633">
        <ele>395</ele>
        <time>2021-03-28T08:12:26.000Z</time>
      </trkpt>
      <trkpt lat="47.24054" lon="4.96316">
        <ele>395</ele>
        <time>2021-03-28T08:12:29.000Z</time>
      </trkpt>
      <trkpt lat="47.24049" lon="4.96296">
        <ele>398</ele>
        <time>2021-03-28T08:12:35.000Z</time>
      </trkpt>
      <trkpt lat="47.2405" lon="4.96282">
        <ele>399</ele>
        <time>2021-03-28T08:12:50.000Z</time>
      </trkpt>
      <trkpt lat="47.24049" lon="4.96268">
        <ele>398</ele>
        <time>2021-03-28T08:12:59.000Z</time>
      </trkpt>
      <trkpt lat="47.24044" lon="4.96256">
        <ele>399</ele>
        <time>2021-03-28T08:13:09.000Z</time>
      </trkpt>
      <trkpt lat="47.24042" lon="4.96243">
        <ele>402</ele>
        <time>2021-03-28T08:13:38.000Z</time>
      </trkpt>
      <trkpt lat="47.24042" lon="4.96229">
        <ele>402</ele>
        <time>2021-03-28T08:13:43.000Z</time>
      </trkpt>
      <trkpt lat="47.24045" lon="4.96216">
        <ele>398</ele>
        <time>2021-03-28T08:13:48.000Z</time>
      </trkpt>
      <trkpt lat="47.24049" lon="4.96203">
        <ele>399</ele>
        <time>2021-03-28T08:13:54.000Z</time>
      </trkpt>
      <trkpt lat="47.24052" lon="4.96188">
        <ele>399</ele>
        <time>2021-03-28T08:14:00.000Z</time>
      </trkpt>
      <trkpt lat="47.24046" lon="4.96175">
        <ele>396</ele>
        <time>2021-03-28T08:14:08.000Z</time>
      </trkpt>
      <trkpt lat="47.24047" lon="4.96161">
        <ele>397</ele>
        <time>2021-03-28T08:14:15.000Z</time>
      </trkpt>
      <trkpt lat="47.24054" lon="4.96153">
        <ele>393</ele>
        <time>2021-03-28T08:14:22.000Z</time>
      </trkpt>
      <trkpt lat="47.24053" lon="4.96139">
        <ele>400</ele>
        <time>2021-03-28T08:14:31.000Z</time>
      </trkpt>
      <trkpt lat="47.2405" lon="4.96127">
        <ele>401</ele>
        <time>2021-03-28T08:14:45.000Z</time>
      </trkpt>
      <trkpt lat="47.24046" lon="4.96115">
        <ele>402</ele>
        <time>2021-03-28T08:14:58.000Z</time>
      </trkpt>
      <trkpt lat="47.24043" lon="4.961">
        <ele>400</ele>
        <time>2021-03-28T08:15:01.000Z</time>
      </trkpt>
      <trkpt lat="47.24044" lon="4.96085">
        <ele>400</ele>
        <time>2021-03-28T08:15:06.000Z</time>
      </trkpt>
      <trkpt lat="47.24044" lon="4.9607">
        <ele>400</ele>
        <time>2021-03-28T08:15:09.000Z</time>
      </trkpt>
      <trkpt lat="47.24041" lon="4.96055">
        <ele>402</ele>
        <time>2021-03-28T08:15:11.000Z</time>
      </trkpt>
      <trkpt lat="47.24047" lon="4.96043">
        <ele>405</ele>
        <time>2021-03-28T08:15:16.000Z</time>
      </trkpt>
      <trkpt lat="47.24047" lon="4.96028">
        <ele>400</ele>
        <time>2021-03-28T08:15:26.000Z</time>
      </trkpt>
      <trkpt lat="47.24053" lon="4.96016">
        <ele>398</ele>
        <time>2021-03-28T08:15:31.000Z</time>
      </trkpt>
      <trkpt lat="47.24058" lon="4.96006">
        <ele>404</ele>
        <time>2021-03-28T08:15:37.000Z</time>
      </trkpt>
      <trkpt lat="47.24063" lon="4.95994">
        <ele>406</ele>
        <time>2021-03-28T08:15:42.000Z</time>
      </trkpt>
      <trkpt lat="47.24057" lon="4.9598">
        <ele>408</ele>
        <time>2021-03-28T08:15:49.000Z</time>
      </trkpt>
      <trkpt lat="47.2406" lon="4.95966">
        <ele>413</ele>
        <time>2021-03-28T08:15:59.000Z</time>
      </trkpt>
      <trkpt lat="47.24068" lon="4.95959">
        <ele>414</ele>
        <time>2021-03-28T08:16:05.000Z</time>
      </trkpt>
      <trkpt lat="47.2407" lon="4.95944">
        <ele>413</ele>
        <time>2021-03-28T08:16:18.000Z</time>
      </trkpt>
      <trkpt lat="47.24074" lon="4.95932">
        <ele>412</ele>
        <time>2021-03-28T08:16:22.000Z</time>
      </trkpt>
      <trkpt lat="47.24085" lon="4.95924">
        <ele>415</ele>
        <time>2021-03-28T08:16:26.000Z</time>
      </trkpt>
      <trkpt lat="47.24085" lon="4.95911">
        <ele>417</ele>
        <time>2021-03-28T08:16:39.000Z</time>
      </trkpt>
      <trkpt lat="47.24079" lon="4.95899">
        <ele>414</ele>
        <time>2021-03-28T08:16:46.000Z</time>
      </trkpt>
      <trkpt lat="47.24069" lon="4.95893">
        <ele>430</ele>
        <time>2021-03-28T08:22:15.000Z</time>
      </trkpt>
      <trkpt lat="47.24056" lon="4.95888">
        <ele>433</ele>
        <time>2021-03-28T08:23:51.000Z</time>
      </trkpt>
      <trkpt lat="47.24046" lon="4.9589">
        <ele>435</ele>
        <time>2021-03-28T08:23:59.000Z</time>
      </trkpt>
      <trkpt lat="47.24037" lon="4.9588">
        <ele>437</ele>
        <time>2021-03-28T08:24:08.000Z</time>
      </trkpt>
      <trkpt lat="47.24028" lon="4.95882">
        <ele>440</ele>
        <time>2021-03-28T08:24:23.000Z</time>
      </trkpt>
      <trkpt lat="47.24029" lon="4.95883">
        <ele>448</ele>
        <time>2021-03-28T08:24:58.000Z</time>
      </trkpt>
      <trkpt lat="47.24023" lon="4.95871">
        <ele>442</ele>
        <time>2021-03-28T08:26:32.000Z</time>
      </trkpt>
      <trkpt lat="47.24016" lon="4.95861">
        <ele>445</ele>
        <time>2021-03-28T08:26:41.000Z</time>
      </trkpt>
      <trkpt lat="47.2401" lon="4.95851">
        <ele>450</ele>
        <time>2021-03-28T08:26:59.000Z</time>
      </trkpt>
      <trkpt lat="47.24005" lon="4.9584">
        <ele>452</ele>
        <time>2021-03-28T08:27:40.000Z</time>
      </trkpt>
      <trkpt lat="47.23996" lon="4.95835">
        <ele>455</ele>
        <time>2021-03-28T08:28:20.000Z</time>
      </trkpt>
      <trkpt lat="47.23986" lon="4.95827">
        <ele>460</ele>
        <time>2021-03-28T08:29:09.000Z</time>
      </trkpt>
      <trkpt lat="47.23985" lon="4.95813">
        <ele>455</ele>
        <time>2021-03-28T08:29:19.000Z</time>
      </trkpt>
      <trkpt lat="47.23982" lon="4.95801">
        <ele>462</ele>
        <time>2021-03-28T08:30:11.000Z</time>
      </trkpt>
      <trkpt lat="47.23974" lon="4.95793">
        <ele>480</ele>
        <time>2021-03-28T08:30:47.000Z</time>
      </trkpt>
      <trkpt lat="47.23969" lon="4.95777">
        <ele>467</ele>
        <time>2021-03-28T08:32:00.000Z</time>
      </trkpt>
      <trkpt lat="47.23965" lon="4.95762">
        <ele>471</ele>
        <time>2021-03-28T08:32:09.000Z</time>
      </trkpt>
      <trkpt lat="47.23958" lon="4.9575">
        <ele>474</ele>
        <time>2021-03-28T08:32:21.000Z</time>
      </trkpt>
      <trkpt lat="47.23951" lon="4.9574">
        <ele>476</ele>
        <time>2021-03-28T08:33:01.000Z</time>
      </trkpt>
      <trkpt lat="47.23944" lon="4.95733">
        <ele>478</ele>
        <time>2021-03-28T08:33:16.000Z</time>
      </trkpt>
      <trkpt lat="47.23933" lon="4.95724">
        <ele>477</ele>
        <time>2021-03-28T08:34:12.000Z</time>
      </trkpt>
      <trkpt lat="47.23925" lon="4.95718">
        <ele>482</ele>
        <time>2021-03-28T08:34:24.000Z</time>
      </trkpt>
      <trkpt lat="47.23919" lon="4.95705">
        <ele>482</ele>
        <time>2021-03-28T08:34:48.000Z</time>
      </trkpt>
      <trkpt lat="47.23913" lon="4.95693">
        <ele>482</ele>
        <time>2021-03-28T08:34:56.000Z</time>
      </trkpt>
      <trkpt lat="47.23914" lon="4.95678">
        <ele>480</ele>
        <time>2021-03-28T08:35:12.000Z</time>
      </trkpt>
      <trkpt lat="47.23924" lon="4.95669">
        <ele>490</ele>
        <time>2021-03-28T08:35:31.000Z</time>
      </trkpt>
      <trkpt lat="47.23931" lon="4.95658">
        <ele>493</ele>
        <time>2021-03-28T08:35:43.000Z</time>
      </trkpt>
      <trkpt lat="47.23937" lon="4.95644">
        <ele>492</ele>
        <time>2021-03-28T08:35:57.000Z</time>
      </trkpt>
      <trkpt lat="47.23944" lon="4.95635">
        <ele>493</ele>
        <time>2021-03-28T08:36:05.000Z</time>
      </trkpt>
      <trkpt lat="47.23951" lon="4.95626">
        <ele>493</ele>
        <time>2021-03-28T08:36:16.000Z</time>
      </trkpt>
      <trkpt lat="47.23959" lon="4.95617">
        <ele>497</ele>
        <time>2021-03-28T08:36:26.000Z</time>
      </trkpt>
      <trkpt lat="47.23967" lon="4.9561">
        <ele>496</ele>
        <time>2021-03-28T08:36:40.000Z</time>
      </trkpt>
      <trkpt lat="47.23975" lon="4.95603">
        <ele>497</ele>
        <time>2021-03-28T08:36:55.000Z</time>
      </trkpt>
      <trkpt lat="47.23984" lon="4.95591">
        <ele>493</ele>
        <time>2021-03-28T08:37:07.000Z</time>
      </trkpt>
      <trkpt lat="47.23989" lon="4.9558">
        <ele>489</ele>
        <time>2021-03-28T08:37:23.000Z</time>
      </trkpt>
      <trkpt lat="47.23996" lon="4.9557">
        <ele>492</ele>
        <time>2021-03-28T08:37:35.000Z</time>
      </trkpt>
      <trkpt lat="47.24002" lon="4.95558">
        <ele>494</ele>
        <time>2021-03-28T08:37:47.000Z</time>
      </trkpt>
      <trkpt lat="47.23999" lon="4.95544">
        <ele>490</ele>
        <time>2021-03-28T08:38:05.000Z</time>
      </trkpt>
      <trkpt lat="47.23994" lon="4.95525">
        <ele>483</ele>
        <time>2021-03-28T08:38:28.000Z</time>
      </trkpt>
      <trkpt lat="47.23984" lon="4.95499">
        <ele>488</ele>
        <time>2021-03-28T08:38:39.000Z</time>
      </trkpt>
      <trkpt lat="47.23978" lon="4.95484">
        <ele>485</ele>
        <time>2021-03-28T08:38:48.000Z</time>
      </trkpt>
      <trkpt lat="47.23972" lon="4.9547">
        <ele>488</ele>
        <time>2021-03-28T08:39:00.000Z</time>
      </trkpt>
      <trkpt lat="47.23965" lon="4.95461">
        <ele>492</ele>
        <time>2021-03-28T08:39:09.000Z</time>
      </trkpt>
      <trkpt lat="47.23956" lon="4.9546">
        <ele>497</ele>
        <time>2021-03-28T08:39:21.000Z</time>
      </trkpt>
      <trkpt lat="47.23946" lon="4.95465">
        <ele>504</ele>
        <time>2021-03-28T08:39:58.000Z</time>
      </trkpt>
      <trkpt lat="47.23938" lon="4.95476">
        <ele>507</ele>
        <time>2021-03-28T08:40:10.000Z</time>
      </trkpt>
      <trkpt lat="47.23927" lon="4.95485">
        <ele>505</ele>
        <time>2021-03-28T08:40:25.000Z</time>
      </trkpt>
      <trkpt lat="47.23917" lon="4.95492">
        <ele>509</ele>
        <time>2021-03-28T08:40:55.000Z</time>
      </trkpt>
      <trkpt lat="47.23907" lon="4.95497">
        <ele>506</ele>
        <time>2021-03-28T08:41:03.000Z</time>
      </trkpt>
      <trkpt lat="47.239" lon="4.95506">
        <ele>507</ele>
        <time>2021-03-28T08:41:12.000Z</time>
      </trkpt>
      <trkpt lat="47.23893" lon="4.95518">
        <ele>505</ele>
        <time>2021-03-28T08:41:21.000Z</time>
      </trkpt>
      <trkpt lat="47.23884" lon="4.95527">
        <ele>503</ele>
        <time>2021-03-28T08:41:30.000Z</time>
      </trkpt>
      <trkpt lat="47.23875" lon="4.95535">
        <ele>502</ele>
        <time>2021-03-28T08:41:39.000Z</time>
      </trkpt>
      <trkpt lat="47.23865" lon="4.9554">
        <ele>498</ele>
        <time>2021-03-28T08:41:49.000Z</time>
      </trkpt>
      <trkpt lat="47.23855" lon="4.95544">
        <ele>497</ele>
        <time>2021-03-28T08:41:57.000Z</time>
      </trkpt>
      <trkpt lat="47.23846" lon="4.9555">
        <ele>498</ele>
        <time>2021-03-28T08:42:08.000Z</time>
      </trkpt>
      <trkpt lat="47.23836" lon="4.95552">
        <ele>494</ele>
        <time>2021-03-28T08:42:18.000Z</time>
      </trkpt>
      <trkpt lat="47.23827" lon="4.95554">
        <ele>497</ele>
        <time>2021-03-28T08:42:27.000Z</time>
      </trkpt>
      <trkpt lat="47.23818" lon="4.95565">
        <ele>497</ele>
        <time>2021-03-28T08:42:35.000Z</time>
      </trkpt>
      <trkpt lat="47.23807" lon="4.9557">
        <ele>494</ele>
        <time>2021-03-28T08:42:45.000Z</time>
      </trkpt>
      <trkpt lat="47.23798" lon="4.95576">
        <ele>492</ele>
        <time>2021-03-28T08:42:56.000Z</time>
      </trkpt>
      <trkpt lat="47.23788" lon="4.9558">
        <ele>492</ele>
        <time>2021-03-28T08:43:05.000Z</time>
      </trkpt>
      <trkpt lat="47.23779" lon="4.95584">
        <ele>493</ele>
        <time>2021-03-28T08:43:14.000Z</time>
      </trkpt>
      <trkpt lat="47.23768" lon="4.9559">
        <ele>493</ele>
        <time>2021-03-28T08:43:25.000Z</time>
      </trkpt>
      <trkpt lat="47.23758" lon="4.95594">
        <ele>497</ele>
        <time>2021-03-28T08:43:33.000Z</time>
      </trkpt>
      <trkpt lat="47.23747" lon="4.95593">
        <ele>500</ele>
        <time>2021-03-28T08:43:45.000Z</time>
      </trkpt>
      <trkpt lat="47.23738" lon="4.95594">
        <ele>499</ele>
        <time>2021-03-28T08:43:55.000Z</time>
      </trkpt>
      <trkpt lat="47.23727" lon="4.95587">
        <ele>501</ele>
        <time>2021-03-28T08:44:07.000Z</time>
      </trkpt>
      <trkpt lat="47.23718" lon="4.95583">
        <ele>501</ele>
        <time>2021-03-28T08:44:15.000Z</time>
      </trkpt>
      <trkpt lat="47.23709" lon="4.95577">
        <ele>496</ele>
        <time>2021-03-28T08:44:23.000Z</time>
      </trkpt>
      <trkpt lat="47.237" lon="4.95573">
        <ele>498</ele>
        <time>2021-03-28T08:44:31.000Z</time>
      </trkpt>
      <trkpt lat="47.23692" lon="4.95577">
        <ele>497</ele>
        <time>2021-03-28T08:44:53.000Z</time>
      </trkpt>
      <trkpt lat="47.23682" lon="4.95576">
        <ele>497</ele>
        <time>2021-03-28T08:45:00.000Z</time>
      </trkpt>
      <trkpt lat="47.23673" lon="4.95571">
        <ele>494</ele>
        <time>2021-03-28T08:45:08.000Z</time>
      </trkpt>
      <trkpt lat="47.23664" lon="4.95572">
        <ele>493</ele>
        <time>2021-03-28T08:45:15.000Z</time>
      </trkpt>
      <trkpt lat="47.23654" lon="4.95568">
        <ele>495</ele>
        <time>2021-03-28T08:45:26.000Z</time>
      </trkpt>
      <trkpt lat="47.23648" lon="4.95557">
        <ele>501</ele>
        <time>2021-03-28T08:45:36.000Z</time>
      </trkpt>
      <trkpt lat="47.23637" lon="4.9556">
        <ele>498</ele>
        <time>2021-03-28T08:45:46.000Z</time>
      </trkpt>
      <trkpt lat="47.23627" lon="4.9556">
        <ele>492</ele>
        <time>2021-03-28T08:45:58.000Z</time>
      </trkpt>
      <trkpt lat="47.23617" lon="4.95558">
        <ele>491</ele>
        <time>2021-03-28T08:46:14.000Z</time>
      </trkpt>
      <trkpt lat="47.23607" lon="4.95557">
        <ele>495</ele>
        <time>2021-03-28T08:46:26.000Z</time>
      </trkpt>
      <trkpt lat="47.23596" lon="4.95558">
        <ele>492</ele>
        <time>2021-03-28T08:46:32.000Z</time>
      </trkpt>
      <trkpt lat="47.23587" lon="4.95559">
        <ele>492</ele>
        <time>2021-03-28T08:46:44.000Z</time>
      </trkpt>
      <trkpt lat="47.23575" lon="4.95557">
        <ele>494</ele>
        <time>2021-03-28T08:46:53.000Z</time>
      </trkpt>
      <trkpt lat="47.23564" lon="4.95557">
        <ele>493</ele>
        <time>2021-03-28T08:47:02.000Z</time>
      </trkpt>
      <trkpt lat="47.23553" lon="4.95556">
        <ele>497</ele>
        <time>2021-03-28T08:47:13.000Z</time>
      </trkpt>
      <trkpt lat="47.23541" lon="4.95553">
        <ele>499</ele>
        <time>2021-03-28T08:47:25.000Z</time>
      </trkpt>
      <trkpt lat="47.23531" lon="4.95549">
        <ele>500</ele>
        <time>2021-03-28T08:47:31.000Z</time>
      </trkpt>
      <trkpt lat="47.23521" lon="4.95549">
        <ele>503</ele>
        <time>2021-03-28T08:47:43.000Z</time>
      </trkpt>
      <trkpt lat="47.23513" lon="4.95541">
        <ele>499</ele>
        <time>2021-03-28T08:47:55.000Z</time>
      </trkpt>
      <trkpt lat="47.23503" lon="4.95539">
        <ele>499</ele>
        <time>2021-03-28T08:48:03.000Z</time>
      </trkpt>
      <trkpt lat="47.23494" lon="4.95536">
        <ele>497</ele>
        <time>2021-03-28T08:48:16.000Z</time>
      </trkpt>
      <trkpt lat="47.23482" lon="4.95538">
        <ele>499</ele>
        <time>2021-03-28T08:48:34.000Z</time>
      </trkpt>
      <trkpt lat="47.23471" lon="4.95536">
        <ele>498</ele>
        <time>2021-03-28T08:48:43.000Z</time>
      </trkpt>
      <trkpt lat="47.23461" lon="4.95535">
        <ele>496</ele>
        <time>2021-03-28T08:48:50.000Z</time>
      </trkpt>
      <trkpt lat="47.23451" lon="4.95536">
        <ele>500</ele>
        <time>2021-03-28T08:49:01.000Z</time>
      </trkpt>
      <trkpt lat="47.23441" lon="4.95534">
        <ele>499</ele>
        <time>2021-03-28T08:49:13.000Z</time>
      </trkpt>
      <trkpt lat="47.2343" lon="4.9553">
        <ele>495</ele>
        <time>2021-03-28T08:49:19.000Z</time>
      </trkpt>
      <trkpt lat="47.23419" lon="4.9553">
        <ele>499</ele>
        <time>2021-03-28T08:49:28.000Z</time>
      </trkpt>
      <trkpt lat="47.23409" lon="4.95531">
        <ele>497</ele>
        <time>2021-03-28T08:49:46.000Z</time>
      </trkpt>
      <trkpt lat="47.23398" lon="4.95535">
        <ele>497</ele>
        <time>2021-03-28T08:49:58.000Z</time>
      </trkpt>
      <trkpt lat="47.2339" lon="4.95528">
        <ele>498</ele>
        <time>2021-03-28T08:50:28.000Z</time>
      </trkpt>
      <trkpt lat="47.23375" lon="4.95527">
        <ele>497</ele>
        <time>2021-03-28T08:50:35.000Z</time>
      </trkpt>
      <trkpt lat="47.23366" lon="4.95524">
        <ele>498</ele>
        <time>2021-03-28T08:50:43.000Z</time>
      </trkpt>
      <trkpt lat="47.23357" lon="4.95519">
        <ele>496</ele>
        <time>2021-03-28T08:50:52.000Z</time>
      </trkpt>
      <trkpt lat="47.23346" lon="4.9552">
        <ele>497</ele>
        <time>2021-03-28T08:51:00.000Z</time>
      </trkpt>
      <trkpt lat="47.23336" lon="4.9552">
        <ele>497</ele>
        <time>2021-03-28T08:51:13.000Z</time>
      </trkpt>
      <trkpt lat="47.23326" lon="4.95518">
        <ele>497</ele>
        <time>2021-03-28T08:51:31.000Z</time>
      </trkpt>
      <trkpt lat="47.23313" lon="4.95515">
        <ele>499</ele>
        <time>2021-03-28T08:51:52.000Z</time>
      </trkpt>
      <trkpt lat="47.23301" lon="4.95513">
        <ele>497</ele>
        <time>2021-03-28T08:51:58.000Z</time>
      </trkpt>
      <trkpt lat="47.23288" lon="4.95512">
        <ele>497</ele>
        <time>2021-03-28T08:52:04.000Z</time>
      </trkpt>
      <trkpt lat="47.23279" lon="4.95514">
        <ele>497</ele>
        <time>2021-03-28T08:52:13.000Z</time>
      </trkpt>
      <trkpt lat="47.23268" lon="4.95514">
        <ele>499</ele>
        <time>2021-03-28T08:52:28.000Z</time>
      </trkpt>
      <trkpt lat="47.23256" lon="4.95512">
        <ele>493</ele>
        <time>2021-03-28T08:52:40.000Z</time>
      </trkpt>
      <trkpt lat="47.23248" lon="4.9552">
        <ele>494</ele>
        <time>2021-03-28T08:52:49.000Z</time>
      </trkpt>
      <trkpt lat="47.23239" lon="4.95521">
        <ele>493</ele>
        <time>2021-03-28T08:52:57.000Z</time>
      </trkpt>
      <trkpt lat="47.23229" lon="4.95523">
        <ele>495</ele>
        <time>2021-03-28T08:53:08.000Z</time>
      </trkpt>
      <trkpt lat="47.23218" lon="4.9552">
        <ele>496</ele>
        <time>2021-03-28T08:53:22.000Z</time>
      </trkpt>
      <trkpt lat="47.23204" lon="4.9552">
        <ele>493</ele>
        <time>2021-03-28T08:53:30.000Z</time>
      </trkpt>
      <trkpt lat="47.23194" lon="4.9552">
        <ele>495</ele>
        <time>2021-03-28T08:53:35.000Z</time>
      </trkpt>
      <trkpt lat="47.23183" lon="4.95515">
        <ele>490</ele>
        <time>2021-03-28T08:53:43.000Z</time>
      </trkpt>
      <trkpt lat="47.23171" lon="4.95509">
        <ele>493</ele>
        <time>2021-03-28T08:54:14.000Z</time>
      </trkpt>
      <trkpt lat="47.23159" lon="4.95505">
        <ele>490</ele>
        <time>2021-03-28T08:54:19.000Z</time>
      </trkpt>
      <trkpt lat="47.2315" lon="4.95502">
        <ele>492</ele>
        <time>2021-03-28T08:54:26.000Z</time>
      </trkpt>
      <trkpt lat="47.23139" lon="4.955">
        <ele>488</ele>
        <time>2021-03-28T08:54:34.000Z</time>
      </trkpt>
      <trkpt lat="47.23129" lon="4.95494">
        <ele>489</ele>
        <time>2021-03-28T08:54:42.000Z</time>
      </trkpt>
      <trkpt lat="47.23125" lon="4.95482">
        <ele>488</ele>
        <time>2021-03-28T08:54:55.000Z</time>
      </trkpt>
      <trkpt lat="47.23116" lon="4.95474">
        <ele>487</ele>
        <time>2021-03-28T08:55:06.000Z</time>
      </trkpt>
      <trkpt lat="47.23109" lon="4.95465">
        <ele>489</ele>
        <time>2021-03-28T08:55:17.000Z</time>
      </trkpt>
      <trkpt lat="47.23103" lon="4.95451">
        <ele>488</ele>
        <time>2021-03-28T08:55:30.000Z</time>
      </trkpt>
      <trkpt lat="47.23099" lon="4.95438">
        <ele>488</ele>
        <time>2021-03-28T08:55:39.000Z</time>
      </trkpt>
      <trkpt lat="47.23097" lon="4.95424">
        <ele>491</ele>
        <time>2021-03-28T08:55:49.000Z</time>
      </trkpt>
      <trkpt lat="47.23094" lon="4.95408">
        <ele>490</ele>
        <time>2021-03-28T08:56:00.000Z</time>
      </trkpt>
      <trkpt lat="47.23096" lon="4.95393">
        <ele>490</ele>
        <time>2021-03-28T08:56:11.000Z</time>
      </trkpt>
      <trkpt lat="47.23093" lon="4.9538">
        <ele>490</ele>
        <time>2021-03-28T08:56:34.000Z</time>
      </trkpt>
      <trkpt lat="47.23095" lon="4.95364">
        <ele>489</ele>
        <time>2021-03-28T08:56:43.000Z</time>
      </trkpt>
      <trkpt lat="47.23098" lon="4.9535">
        <ele>489</ele>
        <time>2021-03-28T08:56:53.000Z</time>
      </trkpt>
      <trkpt lat="47.23099" lon="4.95335">
        <ele>488</ele>
        <time>2021-03-28T08:57:05.000Z</time>
      </trkpt>
      <trkpt lat="47.23101" lon="4.95318">
        <ele>489</ele>
        <time>2021-03-28T08:57:16.000Z</time>
      </trkpt>
      <trkpt lat="47.23103" lon="4.95299">
        <ele>494</ele>
        <time>2021-03-28T08:57:49.000Z</time>
      </trkpt>
      <trkpt lat="47.23106" lon="4.95283">
        <ele>495</ele>
        <time>2021-03-28T08:57:56.000Z</time>
      </trkpt>
      <trkpt lat="47.23106" lon="4.95268">
        <ele>494</ele>
        <time>2021-03-28T08:58:05.000Z</time>
      </trkpt>
      <trkpt lat="47.23107" lon="4.95251">
        <ele>492</ele>
        <time>2021-03-28T08:58:15.000Z</time>
      </trkpt>
      <trkpt lat="47.23106" lon="4.95235">
        <ele>494</ele>
        <time>2021-03-28T08:58:23.000Z</time>
      </trkpt>
      <trkpt lat="47.23104" lon="4.95217">
        <ele>492</ele>
        <time>2021-03-28T08:58:32.000Z</time>
      </trkpt>
      <trkpt lat="47.23108" lon="4.95204">
        <ele>492</ele>
        <time>2021-03-28T08:58:40.000Z</time>
      </trkpt>
      <trkpt lat="47.23109" lon="4.95189">
        <ele>494</ele>
        <time>2021-03-28T08:58:52.000Z</time>
      </trkpt>
      <trkpt lat="47.23109" lon="4.95175">
        <ele>496</ele>
        <time>2021-03-28T08:59:01.000Z</time>
      </trkpt>
      <trkpt lat="47.23108" lon="4.95162">
        <ele>500</ele>
        <time>2021-03-28T08:59:09.000Z</time>
      </trkpt>
      <trkpt lat="47.23103" lon="4.95147">
        <ele>500</ele>
        <time>2021-03-28T08:59:17.000Z</time>
      </trkpt>
      <trkpt lat="47.23102" lon="4.9513">
        <ele>501</ele>
        <time>2021-03-28T08:59:29.000Z</time>
      </trkpt>
      <trkpt lat="47.23104" lon="4.95117">
        <ele>496</ele>
        <time>2021-03-28T08:59:38.000Z</time>
      </trkpt>
      <trkpt lat="47.23103" lon="4.95099">
        <ele>498</ele>
        <time>2021-03-28T08:59:48.000Z</time>
      </trkpt>
      <trkpt lat="47.23102" lon="4.95082">
        <ele>500</ele>
        <time>2021-03-28T08:59:57.000Z</time>
      </trkpt>
      <trkpt lat="47.231" lon="4.95068">
        <ele>503</ele>
        <time>2021-03-28T09:00:06.000Z</time>
      </trkpt>
      <trkpt lat="47.23101" lon="4.95051">
        <ele>499</ele>
        <time>2021-03-28T09:00:18.000Z</time>
      </trkpt>
      <trkpt lat="47.23104" lon="4.95036">
        <ele>499</ele>
        <time>2021-03-28T09:00:27.000Z</time>
      </trkpt>
      <trkpt lat="47.23109" lon="4.95023">
        <ele>499</ele>
        <time>2021-03-28T09:00:39.000Z</time>
      </trkpt>
      <trkpt lat="47.23111" lon="4.95005">
        <ele>498</ele>
        <time>2021-03-28T09:00:48.000Z</time>
      </trkpt>
      <trkpt lat="47.2311" lon="4.94991">
        <ele>500</ele>
        <time>2021-03-28T09:01:04.000Z</time>
      </trkpt>
      <trkpt lat="47.23109" lon="4.94976">
        <ele>496</ele>
        <time>2021-03-28T09:01:13.000Z</time>
      </trkpt>
      <trkpt lat="47.23111" lon="4.94962">
        <ele>493</ele>
        <time>2021-03-28T09:01:21.000Z</time>
      </trkpt>
      <trkpt lat="47.23117" lon="4.94949">
        <ele>495</ele>
        <time>2021-03-28T09:01:29.000Z</time>
      </trkpt>
      <trkpt lat="47.23122" lon="4.94935">
        <ele>496</ele>
        <time>2021-03-28T09:01:40.000Z</time>
      </trkpt>
      <trkpt lat="47.23131" lon="4.94922">
        <ele>497</ele>
        <time>2021-03-28T09:01:52.000Z</time>
      </trkpt>
      <trkpt lat="47.2313" lon="4.94909">
        <ele>501</ele>
        <time>2021-03-28T09:02:20.000Z</time>
      </trkpt>
      <trkpt lat="47.23122" lon="4.94895">
        <ele>502</ele>
        <time>2021-03-28T09:02:44.000Z</time>
      </trkpt>
      <trkpt lat="47.23114" lon="4.94888">
        <ele>496</ele>
        <time>2021-03-28T09:03:02.000Z</time>
      </trkpt>
      <trkpt lat="47.2311" lon="4.94879">
        <ele>451.6</ele>
      </trkpt>
      <trkpt lat="47.23106" lon="4.94871">
        <ele>493</ele>
        <time>2021-03-28T09:07:34.000Z</time>
      </trkpt>
      <trkpt lat="47.23097" lon="4.94864">
        <ele>495</ele>
        <time>2021-03-28T09:07:43.000Z</time>
      </trkpt>
      <trkpt lat="47.23089" lon="4.94855">
        <ele>500</ele>
        <time>2021-03-28T09:08:07.000Z</time>
      </trkpt>
      <trkpt lat="47.23081" lon="4.94842">
        <ele>497</ele>
        <time>2021-03-28T09:08:25.000Z</time>
      </trkpt>
      <trkpt lat="47.23073" lon="4.94834">
        <ele>499</ele>
        <time>2021-03-28T09:08:34.000Z</time>
      </trkpt>
      <trkpt lat="47.23067" lon="4.94824">
        <ele>499</ele>
        <time>2021-03-28T09:08:43.000Z</time>
      </trkpt>
      <trkpt lat="47.23061" lon="4.94814">
        <ele>498</ele>
        <time>2021-03-28T09:08:54.000Z</time>
      </trkpt>
      <trkpt lat="47.23065" lon="4.94801">
        <ele>502</ele>
        <time>2021-03-28T09:09:28.000Z</time>
      </trkpt>
      <trkpt lat="47.23074" lon="4.94793">
        <ele>503</ele>
        <time>2021-03-28T09:09:37.000Z</time>
      </trkpt>
      <trkpt lat="47.23083" lon="4.94787">
        <ele>501</ele>
        <time>2021-03-28T09:09:55.000Z</time>
      </trkpt>
      <trkpt lat="47.23092" lon="4.94788">
        <ele>501</ele>
        <time>2021-03-28T09:10:12.000Z</time>
      </trkpt>
      <trkpt lat="47.23101" lon="4.94787">
        <ele>500</ele>
        <time>2021-03-28T09:10:21.000Z</time>
      </trkpt>
      <trkpt lat="47.23107" lon="4.94776">
        <ele>503</ele>
        <time>2021-03-28T09:10:45.000Z</time>
      </trkpt>
      <trkpt lat="47.23108" lon="4.94763">
        <ele>504</ele>
        <time>2021-03-28T09:10:52.000Z</time>
      </trkpt>
      <trkpt lat="47.23109" lon="4.94749">
        <ele>503</ele>
        <time>2021-03-28T09:11:00.000Z</time>
      </trkpt>
      <trkpt lat="47.23103" lon="4.94739">
        <ele>502</ele>
        <time>2021-03-28T09:11:09.000Z</time>
      </trkpt>
      <trkpt lat="47.23098" lon="4.94726">
        <ele>504</ele>
        <time>2021-03-28T09:11:18.000Z</time>
      </trkpt>
      <trkpt lat="47.23089" lon="4.94718">
        <ele>505</ele>
        <time>2021-03-28T09:11:27.000Z</time>
      </trkpt>
      <trkpt lat="47.23081" lon="4.94707">
        <ele>507</ele>
        <time>2021-03-28T09:11:41.000Z</time>
      </trkpt>
      <trkpt lat="47.23074" lon="4.94697">
        <ele>505</ele>
        <time>2021-03-28T09:11:53.000Z</time>
      </trkpt>
      <trkpt lat="47.23068" lon="4.94685">
        <ele>507</ele>
        <time>2021-03-28T09:12:47.000Z</time>
      </trkpt>
      <trkpt lat="47.23066" lon="4.94667">
        <ele>504</ele>
        <time>2021-03-28T09:12:59.000Z</time>
      </trkpt>
      <trkpt lat="47.23062" lon="4.94652">
        <ele>504</ele>
        <time>2021-03-28T09:13:08.000Z</time>
      </trkpt>
      <trkpt lat="47.23056" lon="4.94636">
        <ele>505</ele>
        <time>2021-03-28T09:13:20.000Z</time>
      </trkpt>
      <trkpt lat="47.23052" lon="4.94621">
        <ele>500</ele>
        <time>2021-03-28T09:13:29.000Z</time>
      </trkpt>
      <trkpt lat="47.23048" lon="4.94608">
        <ele>504</ele>
        <time>2021-03-28T09:13:44.000Z</time>
      </trkpt>
      <trkpt lat="47.23045" lon="4.94592">
        <ele>505</ele>
        <time>2021-03-28T09:13:54.000Z</time>
      </trkpt>
      <trkpt lat="47.23044" lon="4.94578">
        <ele>506</ele>
        <time>2021-03-28T09:14:03.000Z</time>
      </trkpt>
      <trkpt lat="47.23035" lon="4.94567">
        <ele>509</ele>
        <time>2021-03-28T09:14:12.000Z</time>
      </trkpt>
      <trkpt lat="47.23027" lon="4.94556">
        <ele>508</ele>
        <time>2021-03-28T09:14:22.000Z</time>
      </trkpt>
      <trkpt lat="47.23024" lon="4.94541">
        <ele>506</ele>
        <time>2021-03-28T09:14:33.000Z</time>
      </trkpt>
      <trkpt lat="47.2302" lon="4.94525">
        <ele>508</ele>
        <time>2021-03-28T09:14:45.000Z</time>
      </trkpt>
      <trkpt lat="47.23014" lon="4.94511">
        <ele>504</ele>
        <time>2021-03-28T09:14:54.000Z</time>
      </trkpt>
      <trkpt lat="47.23007" lon="4.945">
        <ele>460.8</ele>
      </trkpt>
      <trkpt lat="47.23001" lon="4.94491">
        <ele>460.7</ele>
      </trkpt>
      <trkpt lat="47.22995" lon="4.94481">
        <ele>461.2</ele>
      </trkpt>
      <trkpt lat="47.22994" lon="4.94464">
        <ele>462.3</ele>
      </trkpt>
      <trkpt lat="47.22994" lon="4.94451">
        <ele>509</ele>
        <time>2021-03-28T09:18:19.000Z</time>
      </trkpt>
      <trkpt lat="47.22991" lon="4.94434">
        <ele>507</ele>
        <time>2021-03-28T09:18:49.000Z</time>
      </trkpt>
      <trkpt lat="47.22986" lon="4.94413">
        <ele>512</ele>
        <time>2021-03-28T09:19:04.000Z</time>
      </trkpt>
      <trkpt lat="47.22982" lon="4.94401">
        <ele>510</ele>
        <time>2021-03-28T09:19:16.000Z</time>
      </trkpt>
      <trkpt lat="47.22974" lon="4.94391">
        <ele>510</ele>
        <time>2021-03-28T09:19:25.000Z</time>
      </trkpt>
      <trkpt lat="47.22966" lon="4.94382">
        <ele>508</ele>
        <time>2021-03-28T09:19:37.000Z</time>
      </trkpt>
      <trkpt lat="47.2296" lon="4.9437">
        <ele>510</ele>
        <time>2021-03-28T09:19:46.000Z</time>
      </trkpt>
      <trkpt lat="47.22956" lon="4.94355">
        <ele>511</ele>
        <time>2021-03-28T09:19:55.000Z</time>
      </trkpt>
      <trkpt lat="47.22951" lon="4.94344">
        <ele>508</ele>
        <time>2021-03-28T09:20:04.000Z</time>
      </trkpt>
      <trkpt lat="47.22949" lon="4.94328">
        <ele>510</ele>
        <time>2021-03-28T09:20:13.000Z</time>
      </trkpt>
      <trkpt lat="47.22942" lon="4.94318">
        <ele>509</ele>
        <time>2021-03-28T09:20:23.000Z</time>
      </trkpt>
      <trkpt lat="47.22939" lon="4.94302">
        <ele>511</ele>
        <time>2021-03-28T09:20:31.000Z</time>
      </trkpt>
      <trkpt lat="47.22935" lon="4.94288">
        <ele>510</ele>
        <time>2021-03-28T09:20:52.000Z</time>
      </trkpt>
      <trkpt lat="47.22933" lon="4.94273">
        <ele>511</ele>
        <time>2021-03-28T09:21:10.000Z</time>
      </trkpt>
      <trkpt lat="47.22931" lon="4.94259">
        <ele>511</ele>
        <time>2021-03-28T09:21:19.000Z</time>
      </trkpt>
      <trkpt lat="47.22931" lon="4.94245">
        <ele>512</ele>
        <time>2021-03-28T09:21:28.000Z</time>
      </trkpt>
      <trkpt lat="47.22932" lon="4.94231">
        <ele>514</ele>
        <time>2021-03-28T09:21:42.000Z</time>
      </trkpt>
      <trkpt lat="47.22931" lon="4.94218">
        <ele>515</ele>
        <time>2021-03-28T09:21:50.000Z</time>
      </trkpt>
      <trkpt lat="47.22935" lon="4.94204">
        <ele>514</ele>
        <time>2021-03-28T09:22:27.000Z</time>
      </trkpt>
      <trkpt lat="47.22929" lon="4.94193">
        <ele>514</ele>
        <time>2021-03-28T09:24:22.000Z</time>
      </trkpt>
      <trkpt lat="47.22931" lon="4.94177">
        <ele>515</ele>
        <time>2021-03-28T09:24:37.000Z</time>
      </trkpt>
      <trkpt lat="47.22927" lon="4.94161">
        <ele>508</ele>
        <time>2021-03-28T09:24:49.000Z</time>
      </trkpt>
      <trkpt lat="47.22928" lon="4.94148">
        <ele>515</ele>
        <time>2021-03-28T09:24:58.000Z</time>
      </trkpt>
      <trkpt lat="47.22928" lon="4.94132">
        <ele>511</ele>
        <time>2021-03-28T09:25:10.000Z</time>
      </trkpt>
      <trkpt lat="47.22927" lon="4.94118">
        <ele>516</ele>
        <time>2021-03-28T09:25:19.000Z</time>
      </trkpt>
      <trkpt lat="47.22927" lon="4.941">
        <ele>513</ele>
        <time>2021-03-28T09:25:38.000Z</time>
      </trkpt>
      <trkpt lat="47.22931" lon="4.94087">
        <ele>516</ele>
        <time>2021-03-28T09:25:47.000Z</time>
      </trkpt>
      <trkpt lat="47.22933" lon="4.94073">
        <ele>515</ele>
        <time>2021-03-28T09:25:53.000Z</time>
      </trkpt>
      <trkpt lat="47.22936" lon="4.9406">
        <ele>510</ele>
        <time>2021-03-28T09:26:05.000Z</time>
      </trkpt>
      <trkpt lat="47.2294" lon="4.94043">
        <ele>511</ele>
        <time>2021-03-28T09:26:31.000Z</time>
      </trkpt>
      <trkpt lat="47.22947" lon="4.94033">
        <ele>512</ele>
        <time>2021-03-28T09:26:40.000Z</time>
      </trkpt>
      <trkpt lat="47.22946" lon="4.94019">
        <ele>516</ele>
        <time>2021-03-28T09:26:59.000Z</time>
      </trkpt>
      <trkpt lat="47.22952" lon="4.94005">
        <ele>518</ele>
        <time>2021-03-28T09:27:36.000Z</time>
      </trkpt>
      <trkpt lat="47.22957" lon="4.93993">
        <ele>519</ele>
        <time>2021-03-28T09:27:51.000Z</time>
      </trkpt>
      <trkpt lat="47.22965" lon="4.93987">
        <ele>517</ele>
        <time>2021-03-28T09:28:12.000Z</time>
      </trkpt>
      <trkpt lat="47.22974" lon="4.93982">
        <ele>516</ele>
        <time>2021-03-28T09:28:27.000Z</time>
      </trkpt>
      <trkpt lat="47.2298" lon="4.93972">
        <ele>519</ele>
        <time>2021-03-28T09:28:45.000Z</time>
      </trkpt>
      <trkpt lat="47.22989" lon="4.93966">
        <ele>516</ele>
        <time>2021-03-28T09:28:54.000Z</time>
      </trkpt>
      <trkpt lat="47.22996" lon="4.93957">
        <ele>517</ele>
        <time>2021-03-28T09:29:16.000Z</time>
      </trkpt>
      <trkpt lat="47.23004" lon="4.9395">
        <ele>516</ele>
        <time>2021-03-28T09:29:25.000Z</time>
      </trkpt>
      <trkpt lat="47.2301" lon="4.93937">
        <ele>516</ele>
        <time>2021-03-28T09:29:40.000Z</time>
      </trkpt>
      <trkpt lat="47.23019" lon="4.93933">
        <ele>517</ele>
        <time>2021-03-28T09:29:51.000Z</time>
      </trkpt>
      <trkpt lat="47.23026" lon="4.93918">
        <ele>517</ele>
        <time>2021-03-28T09:29:57.000Z</time>
      </trkpt>
      <trkpt lat="47.23034" lon="4.9391">
        <ele>524</ele>
        <time>2021-03-28T09:30:06.000Z</time>
      </trkpt>
      <trkpt lat="47.23045" lon="4.93906">
        <ele>520</ele>
        <time>2021-03-28T09:30:16.000Z</time>
      </trkpt>
      <trkpt lat="47.23053" lon="4.93895">
        <ele>524</ele>
        <time>2021-03-28T09:30:28.000Z</time>
      </trkpt>
      <trkpt lat="47.23058" lon="4.93883">
        <ele>521</ele>
        <time>2021-03-28T09:30:42.000Z</time>
      </trkpt>
      <trkpt lat="47.23063" lon="4.93871">
        <ele>525</ele>
        <time>2021-03-28T09:31:04.000Z</time>
      </trkpt>
      <trkpt lat="47.2307" lon="4.93859">
        <ele>524</ele>
        <time>2021-03-28T09:31:14.000Z</time>
      </trkpt>
      <trkpt lat="47.23077" lon="4.93847">
        <ele>523</ele>
        <time>2021-03-28T09:31:23.000Z</time>
      </trkpt>
      <trkpt lat="47.23084" lon="4.93839">
        <ele>525</ele>
        <time>2021-03-28T09:31:29.000Z</time>
      </trkpt>
      <trkpt lat="47.23092" lon="4.93831">
        <ele>525</ele>
        <time>2021-03-28T09:31:43.000Z</time>
      </trkpt>
      <trkpt lat="47.23101" lon="4.93823">
        <ele>525</ele>
        <time>2021-03-28T09:31:55.000Z</time>
      </trkpt>
      <trkpt lat="47.2311" lon="4.93817">
        <ele>524</ele>
        <time>2021-03-28T09:32:10.000Z</time>
      </trkpt>
      <trkpt lat="47.23119" lon="4.9381">
        <ele>523</ele>
        <time>2021-03-28T09:32:20.000Z</time>
      </trkpt>
      <trkpt lat="47.23129" lon="4.93805">
        <ele>525</ele>
        <time>2021-03-28T09:32:26.000Z</time>
      </trkpt>
      <trkpt lat="47.23139" lon="4.93808">
        <ele>526</ele>
        <time>2021-03-28T09:32:39.000Z</time>
      </trkpt>
      <trkpt lat="47.23148" lon="4.93803">
        <ele>523</ele>
        <time>2021-03-28T09:32:44.000Z</time>
      </trkpt>
      <trkpt lat="47.23156" lon="4.93797">
        <ele>527</ele>
        <time>2021-03-28T09:32:50.000Z</time>
      </trkpt>
      <trkpt lat="47.23165" lon="4.9379">
        <ele>526</ele>
        <time>2021-03-28T09:32:58.000Z</time>
      </trkpt>
      <trkpt lat="47.23174" lon="4.93784">
        <ele>528</ele>
        <time>2021-03-28T09:33:04.000Z</time>
      </trkpt>
      <trkpt lat="47.23183" lon="4.93784">
        <ele>525</ele>
        <time>2021-03-28T09:33:11.000Z</time>
      </trkpt>
      <trkpt lat="47.2319" lon="4.93775">
        <ele>528</ele>
        <time>2021-03-28T09:33:28.000Z</time>
      </trkpt>
      <trkpt lat="47.23196" lon="4.93763">
        <ele>528</ele>
        <time>2021-03-28T09:33:41.000Z</time>
      </trkpt>
      <trkpt lat="47.23202" lon="4.93751">
        <ele>530</ele>
        <time>2021-03-28T09:33:46.000Z</time>
      </trkpt>
      <trkpt lat="47.23213" lon="4.93741">
        <ele>527</ele>
        <time>2021-03-28T09:33:55.000Z</time>
      </trkpt>
      <trkpt lat="47.23222" lon="4.93734">
        <ele>520</ele>
        <time>2021-03-28T09:34:01.000Z</time>
      </trkpt>
      <trkpt lat="47.2323" lon="4.93729">
        <ele>526</ele>
        <time>2021-03-28T09:34:10.000Z</time>
      </trkpt>
      <trkpt lat="47.2324" lon="4.93722">
        <ele>524</ele>
        <time>2021-03-28T09:34:19.000Z</time>
      </trkpt>
      <trkpt lat="47.23251" lon="4.93725">
        <ele>527</ele>
        <time>2021-03-28T09:34:35.000Z</time>
      </trkpt>
      <trkpt lat="47.23261" lon="4.93728">
        <ele>529</ele>
        <time>2021-03-28T09:34:57.000Z</time>
      </trkpt>
      <trkpt lat="47.2327" lon="4.93731">
        <ele>526</ele>
        <time>2021-03-28T09:35:03.000Z</time>
      </trkpt>
      <trkpt lat="47.23281" lon="4.93732">
        <ele>526</ele>
        <time>2021-03-28T09:35:11.000Z</time>
      </trkpt>
      <trkpt lat="47.2329" lon="4.93735">
        <ele>524</ele>
        <time>2021-03-28T09:35:24.000Z</time>
      </trkpt>
      <trkpt lat="47.23294" lon="4.93738">
        <ele>539</ele>
        <time>2021-03-28T09:38:40.000Z</time>
      </trkpt>
      <trkpt lat="47.23295" lon="4.93723">
        <ele>537</ele>
        <time>2021-03-28T09:39:00.000Z</time>
      </trkpt>
      <trkpt lat="47.23299" lon="4.93708">
        <ele>531</ele>
        <time>2021-03-28T09:39:11.000Z</time>
      </trkpt>
      <trkpt lat="47.23303" lon="4.93693">
        <ele>533</ele>
        <time>2021-03-28T09:39:18.000Z</time>
      </trkpt>
      <trkpt lat="47.23304" lon="4.93679">
        <ele>538</ele>
        <time>2021-03-28T09:39:27.000Z</time>
      </trkpt>
      <trkpt lat="47.23311" lon="4.93666">
        <ele>540</ele>
        <time>2021-03-28T09:39:50.000Z</time>
      </trkpt>
      <trkpt lat="47.23314" lon="4.93652">
        <ele>540</ele>
        <time>2021-03-28T09:39:58.000Z</time>
      </trkpt>
      <trkpt lat="47.23317" lon="4.93636">
        <ele>541</ele>
        <time>2021-03-28T09:40:05.000Z</time>
      </trkpt>
      <trkpt lat="47.23321" lon="4.93623">
        <ele>534</ele>
        <time>2021-03-28T09:40:10.000Z</time>
      </trkpt>
      <trkpt lat="47.23324" lon="4.9361">
        <ele>547</ele>
        <time>2021-03-28T09:40:18.000Z</time>
      </trkpt>
      <trkpt lat="47.23327" lon="4.93595">
        <ele>553</ele>
        <time>2021-03-28T09:40:29.000Z</time>
      </trkpt>
      <trkpt lat="47.2333" lon="4.93579">
        <ele>553</ele>
        <time>2021-03-28T09:40:40.000Z</time>
      </trkpt>
      <trkpt lat="47.23335" lon="4.93566">
        <ele>548</ele>
        <time>2021-03-28T09:40:51.000Z</time>
      </trkpt>
      <trkpt lat="47.23341" lon="4.93554">
        <ele>547</ele>
        <time>2021-03-28T09:41:01.000Z</time>
      </trkpt>
      <trkpt lat="47.23347" lon="4.93541">
        <ele>542</ele>
        <time>2021-03-28T09:41:13.000Z</time>
      </trkpt>
      <trkpt lat="47.23348" lon="4.93525">
        <ele>541</ele>
        <time>2021-03-28T09:41:26.000Z</time>
      </trkpt>
      <trkpt lat="47.23354" lon="4.93514">
        <ele>540</ele>
        <time>2021-03-28T09:41:32.000Z</time>
      </trkpt>
      <trkpt lat="47.23357" lon="4.93502">
        <ele>546</ele>
        <time>2021-03-28T09:41:41.000Z</time>
      </trkpt>
      <trkpt lat="47.2336" lon="4.93484">
        <ele>548</ele>
        <time>2021-03-28T09:41:55.000Z</time>
      </trkpt>
      <trkpt lat="47.23364" lon="4.93468">
        <ele>543</ele>
        <time>2021-03-28T09:42:04.000Z</time>
      </trkpt>
      <trkpt lat="47.23368" lon="4.93451">
        <ele>550</ele>
        <time>2021-03-28T09:42:28.000Z</time>
      </trkpt>
      <trkpt lat="47.23371" lon="4.9343">
        <ele>550</ele>
        <time>2021-03-28T09:42:37.000Z</time>
      </trkpt>
      <trkpt lat="47.23376" lon="4.93417">
        <ele>551</ele>
        <time>2021-03-28T09:42:45.000Z</time>
      </trkpt>
      <trkpt lat="47.23382" lon="4.93402">
        <ele>549</ele>
        <time>2021-03-28T09:42:58.000Z</time>
      </trkpt>
      <trkpt lat="47.23388" lon="4.93389">
        <ele>551</ele>
        <time>2021-03-28T09:43:07.000Z</time>
      </trkpt>
      <trkpt lat="47.23397" lon="4.93382">
        <ele>551</ele>
        <time>2021-03-28T09:43:42.000Z</time>
      </trkpt>
      <trkpt lat="47.23406" lon="4.93384">
        <ele>552</ele>
        <time>2021-03-28T09:43:56.000Z</time>
      </trkpt>
      <trkpt lat="47.2341" lon="4.93369">
        <ele>547</ele>
        <time>2021-03-28T09:44:30.000Z</time>
      </trkpt>
      <trkpt lat="47.23416" lon="4.93356">
        <ele>547</ele>
        <time>2021-03-28T09:44:36.000Z</time>
      </trkpt>
      <trkpt lat="47.23417" lon="4.93341">
        <ele>549</ele>
        <time>2021-03-28T09:45:15.000Z</time>
      </trkpt>
      <trkpt lat="47.23422" lon="4.93329">
        <ele>552</ele>
        <time>2021-03-28T09:45:22.000Z</time>
      </trkpt>
      <trkpt lat="47.23427" lon="4.93317">
        <ele>554</ele>
        <time>2021-03-28T09:45:34.000Z</time>
      </trkpt>
      <trkpt lat="47.2343" lon="4.93304">
        <ele>554</ele>
        <time>2021-03-28T09:45:49.000Z</time>
      </trkpt>
      <trkpt lat="47.23433" lon="4.9329">
        <ele>554</ele>
        <time>2021-03-28T09:46:07.000Z</time>
      </trkpt>
      <trkpt lat="47.23439" lon="4.9328">
        <ele>555</ele>
        <time>2021-03-28T09:46:17.000Z</time>
      </trkpt>
      <trkpt lat="47.23442" lon="4.93267">
        <ele>543</ele>
        <time>2021-03-28T09:46:32.000Z</time>
      </trkpt>
      <trkpt lat="47.2344" lon="4.9325">
        <ele>553</ele>
        <time>2021-03-28T09:46:44.000Z</time>
      </trkpt>
      <trkpt lat="47.23443" lon="4.93237">
        <ele>553</ele>
        <time>2021-03-28T09:47:06.000Z</time>
      </trkpt>
      <trkpt lat="47.23443" lon="4.93223">
        <ele>553</ele>
        <time>2021-03-28T09:47:15.000Z</time>
      </trkpt>
      <trkpt lat="47.23439" lon="4.9321">
        <ele>555</ele>
        <time>2021-03-28T09:47:27.000Z</time>
      </trkpt>
      <trkpt lat="47.23447" lon="4.93193">
        <ele>555</ele>
        <time>2021-03-28T09:47:57.000Z</time>
      </trkpt>
      <trkpt lat="47.23457" lon="4.93187">
        <ele>551</ele>
        <time>2021-03-28T09:48:05.000Z</time>
      </trkpt>
      <trkpt lat="47.23465" lon="4.93177">
        <ele>556</ele>
        <time>2021-03-28T09:48:17.000Z</time>
      </trkpt>
      <trkpt lat="47.23472" lon="4.93163">
        <ele>554</ele>
        <time>2021-03-28T09:48:34.000Z</time>
      </trkpt>
      <trkpt lat="47.23477" lon="4.93153">
        <ele>554</ele>
        <time>2021-03-28T09:48:56.000Z</time>
      </trkpt>
      <trkpt lat="47.2347" lon="4.93142">
        <ele>558</ele>
        <time>2021-03-28T09:49:11.000Z</time>
      </trkpt>
      <trkpt lat="47.23467" lon="4.93125">
        <ele>565</ele>
        <time>2021-03-28T09:49:22.000Z</time>
      </trkpt>
      <trkpt lat="47.23459" lon="4.93115">
        <ele>564</ele>
        <time>2021-03-28T09:49:28.000Z</time>
      </trkpt>
      <trkpt lat="47.23454" lon="4.93105">
        <ele>562</ele>
        <time>2021-03-28T09:49:38.000Z</time>
      </trkpt>
      <trkpt lat="47.23446" lon="4.93095">
        <ele>559</ele>
        <time>2021-03-28T09:49:47.000Z</time>
      </trkpt>
      <trkpt lat="47.23442" lon="4.93083">
        <ele>561</ele>
        <time>2021-03-28T09:50:00.000Z</time>
      </trkpt>
      <trkpt lat="47.23437" lon="4.93072">
        <ele>558</ele>
        <time>2021-03-28T09:50:08.000Z</time>
      </trkpt>
      <trkpt lat="47.23427" lon="4.93059">
        <ele>555</ele>
        <time>2021-03-28T09:50:47.000Z</time>
      </trkpt>
      <trkpt lat="47.23422" lon="4.93048">
        <ele>552</ele>
        <time>2021-03-28T09:50:52.000Z</time>
      </trkpt>
      <trkpt lat="47.23417" lon="4.93033">
        <ele>554</ele>
        <time>2021-03-28T09:50:58.000Z</time>
      </trkpt>
      <trkpt lat="47.23411" lon="4.93018">
        <ele>551</ele>
        <time>2021-03-28T09:51:08.000Z</time>
      </trkpt>
      <trkpt lat="47.23404" lon="4.93009">
        <ele>546</ele>
        <time>2021-03-28T09:51:22.000Z</time>
      </trkpt>
      <trkpt lat="47.23402" lon="4.92995">
        <ele>547</ele>
        <time>2021-03-28T09:51:51.000Z</time>
      </trkpt>
      <trkpt lat="47.23397" lon="4.92984">
        <ele>544</ele>
        <time>2021-03-28T09:53:57.000Z</time>
      </trkpt>
      <trkpt lat="47.23392" lon="4.92972">
        <ele>545</ele>
        <time>2021-03-28T09:54:43.000Z</time>
      </trkpt>
      <trkpt lat="47.23383" lon="4.92967">
        <ele>547</ele>
        <time>2021-03-28T09:54:49.000Z</time>
      </trkpt>
      <trkpt lat="47.23371" lon="4.92968">
        <ele>544</ele>
        <time>2021-03-28T09:54:57.000Z</time>
      </trkpt>
      <trkpt lat="47.23362" lon="4.92958">
        <ele>540</ele>
        <time>2021-03-28T09:55:09.000Z</time>
      </trkpt>
      <trkpt lat="47.23355" lon="4.92949">
        <ele>537</ele>
        <time>2021-03-28T09:55:17.000Z</time>
      </trkpt>
      <trkpt lat="47.23351" lon="4.92934">
        <ele>535</ele>
        <time>2021-03-28T09:55:29.000Z</time>
      </trkpt>
      <trkpt lat="47.23344" lon="4.92925">
        <ele>535</ele>
        <time>2021-03-28T09:55:36.000Z</time>
      </trkpt>
      <trkpt lat="47.23339" lon="4.92912">
        <ele>536</ele>
        <time>2021-03-28T09:55:40.000Z</time>
      </trkpt>
      <trkpt lat="47.23332" lon="4.92902">
        <ele>488.3</ele>
      </trkpt>
      <trkpt lat="47.2333" lon="4.92888">
        <ele>523</ele>
        <time>2021-03-28T09:57:39.000Z</time>
      </trkpt>
      <trkpt lat="47.2333" lon="4.92869">
        <ele>526</ele>
        <time>2021-03-28T09:57:49.000Z</time>
      </trkpt>
      <trkpt lat="47.23326" lon="4.92857">
        <ele>527</ele>
        <time>2021-03-28T09:58:05.000Z</time>
      </trkpt>
      <trkpt lat="47.23329" lon="4.92843">
        <ele>533</ele>
        <time>2021-03-28T09:58:24.000Z</time>
      </trkpt>
      <trkpt lat="47.23324" lon="4.92832">
        <ele>544</ele>
        <time>2021-03-28T09:59:40.000Z</time>
      </trkpt>
      <trkpt lat="47.23328" lon="4.9282">
        <ele>540</ele>
        <time>2021-03-28T09:59:51.000Z</time>
      </trkpt>
      <trkpt lat="47.2333" lon="4.92806">
        <ele>547</ele>
        <time>2021-03-28T10:00:58.000Z</time>
      </trkpt>
      <trkpt lat="47.23327" lon="4.92789">
        <ele>553</ele>
        <time>2021-03-28T10:01:13.000Z</time>
      </trkpt>
      <trkpt lat="47.23332" lon="4.92774">
        <ele>555</ele>
        <time>2021-03-28T10:01:22.000Z</time>
      </trkpt>
      <trkpt lat="47.23331" lon="4.92759">
        <ele>554</ele>
        <time>2021-03-28T10:01:30.000Z</time>
      </trkpt>
      <trkpt lat="47.23332" lon="4.92746">
        <ele>550</ele>
        <time>2021-03-28T10:01:54.000Z</time>
      </trkpt>
      <trkpt lat="47.2333" lon="4.92727">
        <ele>551</ele>
        <time>2021-03-28T10:02:04.000Z</time>
      </trkpt>
      <trkpt lat="47.23332" lon="4.92711">
        <ele>554</ele>
        <time>2021-03-28T10:02:10.000Z</time>
      </trkpt>
      <trkpt lat="47.23332" lon="4.92694">
        <ele>553</ele>
        <time>2021-03-28T10:02:16.000Z</time>
      </trkpt>
      <trkpt lat="47.23336" lon="4.92682">
        <ele>554</ele>
        <time>2021-03-28T10:02:25.000Z</time>
      </trkpt>
      <trkpt lat="47.23336" lon="4.92668">
        <ele>558</ele>
        <time>2021-03-28T10:02:42.000Z</time>
      </trkpt>
      <trkpt lat="47.23336" lon="4.92654">
        <ele>555</ele>
        <time>2021-03-28T10:02:51.000Z</time>
      </trkpt>
      <trkpt lat="47.23332" lon="4.92641">
        <ele>558</ele>
        <time>2021-03-28T10:02:59.000Z</time>
      </trkpt>
      <trkpt lat="47.23332" lon="4.92626">
        <ele>563</ele>
        <time>2021-03-28T10:03:09.000Z</time>
      </trkpt>
      <trkpt lat="47.23334" lon="4.92612">
        <ele>557</ele>
        <time>2021-03-28T10:03:25.000Z</time>
      </trkpt>
      <trkpt lat="47.23336" lon="4.92599">
        <ele>553</ele>
        <time>2021-03-28T10:03:36.000Z</time>
      </trkpt>
      <trkpt lat="47.23336" lon="4.92581">
        <ele>553</ele>
        <time>2021-03-28T10:04:11.000Z</time>
      </trkpt>
      <trkpt lat="47.23337" lon="4.92566">
        <ele>551</ele>
        <time>2021-03-28T10:04:17.000Z</time>
      </trkpt>
      <trkpt lat="47.23339" lon="4.92552">
        <ele>555</ele>
        <time>2021-03-28T10:04:25.000Z</time>
      </trkpt>
      <trkpt lat="47.23339" lon="4.92539">
        <ele>555</ele>
        <time>2021-03-28T10:04:32.000Z</time>
      </trkpt>
      <trkpt lat="47.23338" lon="4.92524">
        <ele>557</ele>
        <time>2021-03-28T10:04:38.000Z</time>
      </trkpt>
      <trkpt lat="47.2334" lon="4.92509">
        <ele>557</ele>
        <time>2021-03-28T10:05:04.000Z</time>
      </trkpt>
      <trkpt lat="47.2334" lon="4.92494">
        <ele>553</ele>
        <time>2021-03-28T10:05:11.000Z</time>
      </trkpt>
      <trkpt lat="47.2334" lon="4.9248">
        <ele>553</ele>
        <time>2021-03-28T10:05:21.000Z</time>
      </trkpt>
      <trkpt lat="47.23339" lon="4.92461">
        <ele>554</ele>
        <time>2021-03-28T10:05:30.000Z</time>
      </trkpt>
      <trkpt lat="47.23342" lon="4.92444">
        <ele>556</ele>
        <time>2021-03-28T10:05:42.000Z</time>
      </trkpt>
      <trkpt lat="47.23344" lon="4.92427">
        <ele>554</ele>
        <time>2021-03-28T10:05:52.000Z</time>
      </trkpt>
      <trkpt lat="47.23344" lon="4.92412">
        <ele>556</ele>
        <time>2021-03-28T10:06:02.000Z</time>
      </trkpt>
      <trkpt lat="47.23342" lon="4.92398">
        <ele>555</ele>
        <time>2021-03-28T10:06:12.000Z</time>
      </trkpt>
      <trkpt lat="47.23343" lon="4.92385">
        <ele>555</ele>
        <time>2021-03-28T10:06:18.000Z</time>
      </trkpt>
      <trkpt lat="47.23344" lon="4.92368">
        <ele>552</ele>
        <time>2021-03-28T10:06:33.000Z</time>
      </trkpt>
      <trkpt lat="47.23345" lon="4.92354">
        <ele>550</ele>
        <time>2021-03-28T10:06:58.000Z</time>
      </trkpt>
      <trkpt lat="47.23345" lon="4.92338">
        <ele>545</ele>
        <time>2021-03-28T10:07:04.000Z</time>
      </trkpt>
      <trkpt lat="47.23346" lon="4.92324">
        <ele>546</ele>
        <time>2021-03-28T10:07:10.000Z</time>
      </trkpt>
      <trkpt lat="47.23346" lon="4.92311">
        <ele>547</ele>
        <time>2021-03-28T10:07:18.000Z</time>
      </trkpt>
      <trkpt lat="47.23347" lon="4.92295">
        <ele>546</ele>
        <time>2021-03-28T10:07:26.000Z</time>
      </trkpt>
      <trkpt lat="47.23346" lon="4.92278">
        <ele>550</ele>
        <time>2021-03-28T10:07:35.000Z</time>
      </trkpt>
      <trkpt lat="47.23347" lon="4.92262">
        <ele>550</ele>
        <time>2021-03-28T10:07:44.000Z</time>
      </trkpt>
      <trkpt lat="47.23347" lon="4.92248">
        <ele>544</ele>
        <time>2021-03-28T10:07:58.000Z</time>
      </trkpt>
      <trkpt lat="47.23345" lon="4.92235">
        <ele>545</ele>
        <time>2021-03-28T10:08:08.000Z</time>
      </trkpt>
      <trkpt lat="47.23348" lon="4.92222">
        <ele>541</ele>
        <time>2021-03-28T10:08:25.000Z</time>
      </trkpt>
      <trkpt lat="47.2335" lon="4.92208">
        <ele>543</ele>
        <time>2021-03-28T10:08:37.000Z</time>
      </trkpt>
      <trkpt lat="47.23351" lon="4.92191">
        <ele>531</ele>
        <time>2021-03-28T10:09:57.000Z</time>
      </trkpt>
      <trkpt lat="47.23348" lon="4.92177">
        <ele>530</ele>
        <time>2021-03-28T10:10:03.000Z</time>
      </trkpt>
      <trkpt lat="47.23346" lon="4.92164">
        <ele>528</ele>
        <time>2021-03-28T10:10:09.000Z</time>
      </trkpt>
      <trkpt lat="47.23347" lon="4.92149">
        <ele>523</ele>
        <time>2021-03-28T10:10:18.000Z</time>
      </trkpt>
      <trkpt lat="47.23349" lon="4.92135">
        <ele>523</ele>
        <time>2021-03-28T10:10:32.000Z</time>
      </trkpt>
      <trkpt lat="47.23353" lon="4.92119">
        <ele>524</ele>
        <time>2021-03-28T10:10:45.000Z</time>
      </trkpt>
      <trkpt lat="47.23359" lon="4.92108">
        <ele>528</ele>
        <time>2021-03-28T10:10:55.000Z</time>
      </trkpt>
      <trkpt lat="47.23368" lon="4.92102">
        <ele>531</ele>
        <time>2021-03-28T10:11:02.000Z</time>
      </trkpt>
      <trkpt lat="47.23372" lon="4.9209">
        <ele>530</ele>
        <time>2021-03-28T10:11:12.000Z</time>
      </trkpt>
      <trkpt lat="47.23379" lon="4.92078">
        <ele>534</ele>
        <time>2021-03-28T10:11:21.000Z</time>
      </trkpt>
      <trkpt lat="47.23388" lon="4.92074">
        <ele>533</ele>
        <time>2021-03-28T10:11:26.000Z</time>
      </trkpt>
      <trkpt lat="47.23391" lon="4.92061">
        <ele>533</ele>
        <time>2021-03-28T10:11:31.000Z</time>
      </trkpt>
      <trkpt lat="47.23394" lon="4.92047">
        <ele>534</ele>
        <time>2021-03-28T10:11:37.000Z</time>
      </trkpt>
      <trkpt lat="47.23402" lon="4.9204">
        <ele>537</ele>
        <time>2021-03-28T10:11:46.000Z</time>
      </trkpt>
      <trkpt lat="47.2341" lon="4.92029">
        <ele>527</ele>
        <time>2021-03-28T10:12:01.000Z</time>
      </trkpt>
      <trkpt lat="47.23411" lon="4.92016">
        <ele>528</ele>
        <time>2021-03-28T10:12:08.000Z</time>
      </trkpt>
      <trkpt lat="47.23418" lon="4.92006">
        <ele>532</ele>
        <time>2021-03-28T10:12:19.000Z</time>
      </trkpt>
      <trkpt lat="47.23424" lon="4.91993">
        <ele>535</ele>
        <time>2021-03-28T10:12:30.000Z</time>
      </trkpt>
      <trkpt lat="47.23431" lon="4.91984">
        <ele>534</ele>
        <time>2021-03-28T10:12:41.000Z</time>
      </trkpt>
      <trkpt lat="47.23438" lon="4.91974">
        <ele>536</ele>
        <time>2021-03-28T10:12:46.000Z</time>
      </trkpt>
      <trkpt lat="47.23446" lon="4.91966">
        <ele>538</ele>
        <time>2021-03-28T10:12:56.000Z</time>
      </trkpt>
      <trkpt lat="47.2345" lon="4.91953">
        <ele>539</ele>
        <time>2021-03-28T10:13:10.000Z</time>
      </trkpt>
      <trkpt lat="47.23458" lon="4.91946">
        <ele>541</ele>
        <time>2021-03-28T10:13:15.000Z</time>
      </trkpt>
      <trkpt lat="47.23467" lon="4.91939">
        <ele>543</ele>
        <time>2021-03-28T10:13:25.000Z</time>
      </trkpt>
      <trkpt lat="47.23477" lon="4.91935">
        <ele>547</ele>
        <time>2021-03-28T10:13:33.000Z</time>
      </trkpt>
      <trkpt lat="47.23486" lon="4.91929">
        <ele>552</ele>
        <time>2021-03-28T10:13:38.000Z</time>
      </trkpt>
      <trkpt lat="47.23494" lon="4.91919">
        <ele>549</ele>
        <time>2021-03-28T10:13:48.000Z</time>
      </trkpt>
      <trkpt lat="47.23495" lon="4.91903">
        <ele>550</ele>
        <time>2021-03-28T10:13:55.000Z</time>
      </trkpt>
      <trkpt lat="47.23488" lon="4.91893">
        <ele>541</ele>
        <time>2021-03-28T10:14:02.000Z</time>
      </trkpt>
      <trkpt lat="47.23489" lon="4.91878">
        <ele>542</ele>
        <time>2021-03-28T10:14:16.000Z</time>
      </trkpt>
      <trkpt lat="47.23491" lon="4.91865">
        <ele>544</ele>
        <time>2021-03-28T10:14:25.000Z</time>
      </trkpt>
      <trkpt lat="47.23494" lon="4.91852">
        <ele>544</ele>
        <time>2021-03-28T10:14:35.000Z</time>
      </trkpt>
      <trkpt lat="47.23498" lon="4.9184">
        <ele>543</ele>
        <time>2021-03-28T10:14:43.000Z</time>
      </trkpt>
      <trkpt lat="47.23505" lon="4.91828">
        <ele>541</ele>
        <time>2021-03-28T10:14:52.000Z</time>
      </trkpt>
      <trkpt lat="47.23502" lon="4.91814">
        <ele>541</ele>
        <time>2021-03-28T10:15:00.000Z</time>
      </trkpt>
      <trkpt lat="47.23502" lon="4.91801">
        <ele>540</ele>
        <time>2021-03-28T10:15:14.000Z</time>
      </trkpt>
      <trkpt lat="47.23499" lon="4.91787">
        <ele>538</ele>
        <time>2021-03-28T10:15:22.000Z</time>
      </trkpt>
      <trkpt lat="47.23499" lon="4.91774">
        <ele>536</ele>
        <time>2021-03-28T10:15:28.000Z</time>
      </trkpt>
      <trkpt lat="47.23502" lon="4.9176">
        <ele>536</ele>
        <time>2021-03-28T10:15:35.000Z</time>
      </trkpt>
      <trkpt lat="47.23504" lon="4.91746">
        <ele>537</ele>
        <time>2021-03-28T10:15:43.000Z</time>
      </trkpt>
      <trkpt lat="47.23504" lon="4.91733">
        <ele>537</ele>
        <time>2021-03-28T10:15:54.000Z</time>
      </trkpt>
      <trkpt lat="47.23502" lon="4.91718">
        <ele>537</ele>
        <time>2021-03-28T10:16:07.000Z</time>
      </trkpt>
      <trkpt lat="47.23494" lon="4.91708">
        <ele>540</ele>
        <time>2021-03-28T10:16:22.000Z</time>
      </trkpt>
      <trkpt lat="47.23489" lon="4.91694">
        <ele>542</ele>
        <time>2021-03-28T10:16:31.000Z</time>
      </trkpt>
      <trkpt lat="47.2348" lon="4.91689">
        <ele>538</ele>
        <time>2021-03-28T10:16:40.000Z</time>
      </trkpt>
      <trkpt lat="47.23475" lon="4.91677">
        <ele>541</ele>
        <time>2021-03-28T10:16:47.000Z</time>
      </trkpt>
      <trkpt lat="47.23472" lon="4.91662">
        <ele>545</ele>
        <time>2021-03-28T10:16:55.000Z</time>
      </trkpt>
      <trkpt lat="47.23467" lon="4.9165">
        <ele>546</ele>
        <time>2021-03-28T10:17:13.000Z</time>
      </trkpt>
      <trkpt lat="47.23457" lon="4.91644">
        <ele>536</ele>
        <time>2021-03-28T10:18:42.000Z</time>
      </trkpt>
      <trkpt lat="47.23452" lon="4.91633">
        <ele>540</ele>
        <time>2021-03-28T10:19:51.000Z</time>
      </trkpt>
      <trkpt lat="47.23445" lon="4.91625">
        <ele>540</ele>
        <time>2021-03-28T10:19:59.000Z</time>
      </trkpt>
      <trkpt lat="47.23441" lon="4.91612">
        <ele>540</ele>
        <time>2021-03-28T10:20:27.000Z</time>
      </trkpt>
      <trkpt lat="47.23431" lon="4.91602">
        <ele>539</ele>
        <time>2021-03-28T10:20:39.000Z</time>
      </trkpt>
      <trkpt lat="47.23424" lon="4.91592">
        <ele>538</ele>
        <time>2021-03-28T10:20:48.000Z</time>
      </trkpt>
      <trkpt lat="47.23419" lon="4.9158">
        <ele>540</ele>
        <time>2021-03-28T10:20:56.000Z</time>
      </trkpt>
      <trkpt lat="47.23411" lon="4.9157">
        <ele>540</ele>
        <time>2021-03-28T10:21:05.000Z</time>
      </trkpt>
      <trkpt lat="47.23403" lon="4.91556">
        <ele>538</ele>
        <time>2021-03-28T10:21:17.000Z</time>
      </trkpt>
      <trkpt lat="47.23398" lon="4.91545">
        <ele>540</ele>
        <time>2021-03-28T10:21:25.000Z</time>
      </trkpt>
      <trkpt lat="47.23394" lon="4.91533">
        <ele>542</ele>
        <time>2021-03-28T10:21:32.000Z</time>
      </trkpt>
      <trkpt lat="47.23389" lon="4.91518">
        <ele>541</ele>
        <time>2021-03-28T10:21:40.000Z</time>
      </trkpt>
      <trkpt lat="47.23385" lon="4.91503">
        <ele>541</ele>
        <time>2021-03-28T10:21:49.000Z</time>
      </trkpt>
      <trkpt lat="47.23379" lon="4.91481">
        <ele>540</ele>
        <time>2021-03-28T10:22:03.000Z</time>
      </trkpt>
      <trkpt lat="47.23374" lon="4.91467">
        <ele>541</ele>
        <time>2021-03-28T10:22:12.000Z</time>
      </trkpt>
      <trkpt lat="47.2337" lon="4.91452">
        <ele>542</ele>
        <time>2021-03-28T10:22:21.000Z</time>
      </trkpt>
      <trkpt lat="47.23364" lon="4.91438">
        <ele>541</ele>
        <time>2021-03-28T10:22:32.000Z</time>
      </trkpt>
      <trkpt lat="47.23359" lon="4.9142">
        <ele>542</ele>
        <time>2021-03-28T10:22:43.000Z</time>
      </trkpt>
      <trkpt lat="47.23355" lon="4.91407">
        <ele>541</ele>
        <time>2021-03-28T10:22:53.000Z</time>
      </trkpt>
      <trkpt lat="47.23347" lon="4.91396">
        <ele>541</ele>
        <time>2021-03-28T10:23:02.000Z</time>
      </trkpt>
      <trkpt lat="47.23339" lon="4.91388">
        <ele>541</ele>
        <time>2021-03-28T10:23:11.000Z</time>
      </trkpt>
      <trkpt lat="47.23332" lon="4.91375">
        <ele>540</ele>
        <time>2021-03-28T10:23:20.000Z</time>
      </trkpt>
      <trkpt lat="47.23325" lon="4.91363">
        <ele>541</ele>
        <time>2021-03-28T10:23:29.000Z</time>
      </trkpt>
      <trkpt lat="47.23315" lon="4.91356">
        <ele>541</ele>
        <time>2021-03-28T10:23:38.000Z</time>
      </trkpt>
      <trkpt lat="47.23309" lon="4.91347">
        <ele>539</ele>
        <time>2021-03-28T10:23:47.000Z</time>
      </trkpt>
      <trkpt lat="47.23299" lon="4.91338">
        <ele>541</ele>
        <time>2021-03-28T10:23:55.000Z</time>
      </trkpt>
      <trkpt lat="47.23291" lon="4.91331">
        <ele>541</ele>
        <time>2021-03-28T10:24:03.000Z</time>
      </trkpt>
      <trkpt lat="47.23284" lon="4.91322">
        <ele>541</ele>
        <time>2021-03-28T10:24:11.000Z</time>
      </trkpt>
      <trkpt lat="47.23276" lon="4.91312">
        <ele>542</ele>
        <time>2021-03-28T10:24:21.000Z</time>
      </trkpt>
      <trkpt lat="47.23267" lon="4.91304">
        <ele>546</ele>
        <time>2021-03-28T10:24:30.000Z</time>
      </trkpt>
      <trkpt lat="47.23259" lon="4.91292">
        <ele>545</ele>
        <time>2021-03-28T10:24:40.000Z</time>
      </trkpt>
      <trkpt lat="47.23252" lon="4.91281">
        <ele>544</ele>
        <time>2021-03-28T10:24:48.000Z</time>
      </trkpt>
      <trkpt lat="47.23247" lon="4.91269">
        <ele>547</ele>
        <time>2021-03-28T10:24:57.000Z</time>
      </trkpt>
      <trkpt lat="47.23241" lon="4.91255">
        <ele>548</ele>
        <time>2021-03-28T10:25:06.000Z</time>
      </trkpt>
      <trkpt lat="47.23235" lon="4.91242">
        <ele>549</ele>
        <time>2021-03-28T10:25:15.000Z</time>
      </trkpt>
      <trkpt lat="47.2323" lon="4.91228">
        <ele>550</ele>
        <time>2021-03-28T10:25:26.000Z</time>
      </trkpt>
      <trkpt lat="47.23223" lon="4.91213">
        <ele>553</ele>
        <time>2021-03-28T10:25:38.000Z</time>
      </trkpt>
      <trkpt lat="47.23217" lon="4.912">
        <ele>553</ele>
        <time>2021-03-28T10:25:47.000Z</time>
      </trkpt>
      <trkpt lat="47.2321" lon="4.91185">
        <ele>554</ele>
        <time>2021-03-28T10:25:56.000Z</time>
      </trkpt>
      <trkpt lat="47.23204" lon="4.91174">
        <ele>551</ele>
        <time>2021-03-28T10:26:02.000Z</time>
      </trkpt>
      <trkpt lat="47.23199" lon="4.91158">
        <ele>550</ele>
        <time>2021-03-28T10:26:14.000Z</time>
      </trkpt>
      <trkpt lat="47.23194" lon="4.9114">
        <ele>552</ele>
        <time>2021-03-28T10:26:23.000Z</time>
      </trkpt>
      <trkpt lat="47.23185" lon="4.9112">
        <ele>550</ele>
        <time>2021-03-28T10:26:33.000Z</time>
      </trkpt>
      <trkpt lat="47.23174" lon="4.91114">
        <ele>552</ele>
        <time>2021-03-28T10:26:41.000Z</time>
      </trkpt>
      <trkpt lat="47.2317" lon="4.91101">
        <ele>553</ele>
        <time>2021-03-28T10:26:47.000Z</time>
      </trkpt>
      <trkpt lat="47.23167" lon="4.91087">
        <ele>551</ele>
        <time>2021-03-28T10:26:59.000Z</time>
      </trkpt>
      <trkpt lat="47.23159" lon="4.91073">
        <ele>550</ele>
        <time>2021-03-28T10:27:05.000Z</time>
      </trkpt>
      <trkpt lat="47.23157" lon="4.9106">
        <ele>551</ele>
        <time>2021-03-28T10:27:08.000Z</time>
      </trkpt>
      <trkpt lat="47.23156" lon="4.91043">
        <ele>548</ele>
        <time>2021-03-28T10:27:27.000Z</time>
      </trkpt>
      <trkpt lat="47.23149" lon="4.9103">
        <ele>545</ele>
        <time>2021-03-28T10:27:33.000Z</time>
      </trkpt>
      <trkpt lat="47.23144" lon="4.91018">
        <ele>542</ele>
        <time>2021-03-28T10:27:42.000Z</time>
      </trkpt>
      <trkpt lat="47.23141" lon="4.91005">
        <ele>542</ele>
        <time>2021-03-28T10:27:48.000Z</time>
      </trkpt>
      <trkpt lat="47.23137" lon="4.90992">
        <ele>543</ele>
        <time>2021-03-28T10:27:56.000Z</time>
      </trkpt>
      <trkpt lat="47.23133" lon="4.90976">
        <ele>542</ele>
        <time>2021-03-28T10:28:02.000Z</time>
      </trkpt>
      <trkpt lat="47.23127" lon="4.90964">
        <ele>539</ele>
        <time>2021-03-28T10:28:06.000Z</time>
      </trkpt>
      <trkpt lat="47.23124" lon="4.90946">
        <ele>540</ele>
        <time>2021-03-28T10:28:21.000Z</time>
      </trkpt>
      <trkpt lat="47.23122" lon="4.90933">
        <ele>540</ele>
        <time>2021-03-28T10:28:27.000Z</time>
      </trkpt>
      <trkpt lat="47.23118" lon="4.90919">
        <ele>542</ele>
        <time>2021-03-28T10:28:33.000Z</time>
      </trkpt>
      <trkpt lat="47.23115" lon="4.90901">
        <ele>540</ele>
        <time>2021-03-28T10:28:40.000Z</time>
      </trkpt>
      <trkpt lat="47.23113" lon="4.90882">
        <ele>541</ele>
        <time>2021-03-28T10:28:49.000Z</time>
      </trkpt>
      <trkpt lat="47.23113" lon="4.90868">
        <ele>541</ele>
        <time>2021-03-28T10:28:54.000Z</time>
      </trkpt>
      <trkpt lat="47.23117" lon="4.90855">
        <ele>546</ele>
        <time>2021-03-28T10:29:13.000Z</time>
      </trkpt>
      <trkpt lat="47.23119" lon="4.90838">
        <ele>545</ele>
        <time>2021-03-28T10:29:22.000Z</time>
      </trkpt>
      <trkpt lat="47.23124" lon="4.90823">
        <ele>538</ele>
        <time>2021-03-28T10:29:30.000Z</time>
      </trkpt>
      <trkpt lat="47.23125" lon="4.90808">
        <ele>541</ele>
        <time>2021-03-28T10:29:38.000Z</time>
      </trkpt>
      <trkpt lat="47.23129" lon="4.90793">
        <ele>541</ele>
        <time>2021-03-28T10:29:47.000Z</time>
      </trkpt>
      <trkpt lat="47.23129" lon="4.90779">
        <ele>543</ele>
        <time>2021-03-28T10:29:59.000Z</time>
      </trkpt>
      <trkpt lat="47.23129" lon="4.90764">
        <ele>542</ele>
        <time>2021-03-28T10:30:06.000Z</time>
      </trkpt>
      <trkpt lat="47.23125" lon="4.90749">
        <ele>538</ele>
        <time>2021-03-28T10:30:12.000Z</time>
      </trkpt>
      <trkpt lat="47.23127" lon="4.90732">
        <ele>541</ele>
        <time>2021-03-28T10:30:27.000Z</time>
      </trkpt>
      <trkpt lat="47.23127" lon="4.90718">
        <ele>541</ele>
        <time>2021-03-28T10:30:36.000Z</time>
      </trkpt>
      <trkpt lat="47.2313" lon="4.90703">
        <ele>544</ele>
        <time>2021-03-28T10:30:45.000Z</time>
      </trkpt>
      <trkpt lat="47.23129" lon="4.90689">
        <ele>544</ele>
        <time>2021-03-28T10:30:54.000Z</time>
      </trkpt>
      <trkpt lat="47.23127" lon="4.90668">
        <ele>545</ele>
        <time>2021-03-28T10:31:03.000Z</time>
      </trkpt>
      <trkpt lat="47.23132" lon="4.90656">
        <ele>539</ele>
        <time>2021-03-28T10:31:09.000Z</time>
      </trkpt>
      <trkpt lat="47.23127" lon="4.90638">
        <ele>497.5</ele>
      </trkpt>
      <trkpt lat="47.23128" lon="4.9062">
        <ele>497.6</ele>
      </trkpt>
      <trkpt lat="47.23131" lon="4.90613">
        <ele>497.9</ele>
      </trkpt>
      <trkpt lat="47.23132" lon="4.90596">
        <ele>532</ele>
        <time>2021-03-28T10:31:42.000Z</time>
      </trkpt>
      <trkpt lat="47.23134" lon="4.90581">
        <ele>530</ele>
        <time>2021-03-28T10:31:49.000Z</time>
      </trkpt>
      <trkpt lat="47.23132" lon="4.90568">
        <ele>530</ele>
        <time>2021-03-28T10:31:55.000Z</time>
      </trkpt>
      <trkpt lat="47.23128" lon="4.90554">
        <ele>528</ele>
        <time>2021-03-28T10:32:02.000Z</time>
      </trkpt>
      <trkpt lat="47.23131" lon="4.90539">
        <ele>536</ele>
        <time>2021-03-28T10:32:11.000Z</time>
      </trkpt>
      <trkpt lat="47.23129" lon="4.90521">
        <ele>542</ele>
        <time>2021-03-28T10:32:20.000Z</time>
      </trkpt>
      <trkpt lat="47.23128" lon="4.9051">
        <ele>496.3</ele>
      </trkpt>
      <trkpt lat="47.23128" lon="4.90498">
        <ele>496.1</ele>
      </trkpt>
      <trkpt lat="47.23129" lon="4.90475">
        <ele>548</ele>
        <time>2021-03-28T10:32:47.000Z</time>
      </trkpt>
      <trkpt lat="47.23129" lon="4.90458">
        <ele>546</ele>
        <time>2021-03-28T10:32:56.000Z</time>
      </trkpt>
      <trkpt lat="47.23129" lon="4.90453">
        <ele>527</ele>
        <time>2021-03-28T10:37:06.000Z</time>
      </trkpt>
      <trkpt lat="47.23137" lon="4.90448">
        <ele>526</ele>
        <time>2021-03-28T10:37:12.000Z</time>
      </trkpt>
      <trkpt lat="47.23146" lon="4.90444">
        <ele>531</ele>
        <time>2021-03-28T10:37:52.000Z</time>
      </trkpt>
      <trkpt lat="47.23149" lon="4.90426">
        <ele>537</ele>
        <time>2021-03-28T10:38:18.000Z</time>
      </trkpt>
      <trkpt lat="47.23156" lon="4.90407">
        <ele>532</ele>
        <time>2021-03-28T10:38:30.000Z</time>
      </trkpt>
      <trkpt lat="47.23162" lon="4.90392">
        <ele>534</ele>
        <time>2021-03-28T10:38:36.000Z</time>
      </trkpt>
      <trkpt lat="47.23167" lon="4.90378">
        <ele>538</ele>
        <time>2021-03-28T10:38:45.000Z</time>
      </trkpt>
      <trkpt lat="47.23175" lon="4.90368">
        <ele>532</ele>
        <time>2021-03-28T10:38:56.000Z</time>
      </trkpt>
      <trkpt lat="47.23181" lon="4.90355">
        <ele>534</ele>
        <time>2021-03-28T10:39:11.000Z</time>
      </trkpt>
      <trkpt lat="47.2319" lon="4.90346">
        <ele>539</ele>
        <time>2021-03-28T10:39:26.000Z</time>
      </trkpt>
      <trkpt lat="47.23198" lon="4.90341">
        <ele>541</ele>
        <time>2021-03-28T10:39:35.000Z</time>
      </trkpt>
      <trkpt lat="47.23208" lon="4.90336">
        <ele>537</ele>
        <time>2021-03-28T10:39:44.000Z</time>
      </trkpt>
      <trkpt lat="47.23216" lon="4.90329">
        <ele>540</ele>
        <time>2021-03-28T10:39:56.000Z</time>
      </trkpt>
      <trkpt lat="47.23225" lon="4.90333">
        <ele>538</ele>
        <time>2021-03-28T10:40:08.000Z</time>
      </trkpt>
      <trkpt lat="47.23236" lon="4.90341">
        <ele>541</ele>
        <time>2021-03-28T10:40:17.000Z</time>
      </trkpt>
      <trkpt lat="47.23244" lon="4.90348">
        <ele>539</ele>
        <time>2021-03-28T10:40:24.000Z</time>
      </trkpt>
      <trkpt lat="47.23256" lon="4.90354">
        <ele>535</ele>
        <time>2021-03-28T10:40:36.000Z</time>
      </trkpt>
      <trkpt lat="47.23264" lon="4.90362">
        <ele>538</ele>
        <time>2021-03-28T10:40:50.000Z</time>
      </trkpt>
      <trkpt lat="47.23274" lon="4.90366">
        <ele>537</ele>
        <time>2021-03-28T10:41:02.000Z</time>
      </trkpt>
      <trkpt lat="47.23286" lon="4.90371">
        <ele>534</ele>
        <time>2021-03-28T10:41:13.000Z</time>
      </trkpt>
      <trkpt lat="47.23299" lon="4.90375">
        <ele>534</ele>
        <time>2021-03-28T10:41:25.000Z</time>
      </trkpt>
      <trkpt lat="47.2331" lon="4.9038">
        <ele>535</ele>
        <time>2021-03-28T10:41:30.000Z</time>
      </trkpt>
      <trkpt lat="47.23322" lon="4.90384">
        <ele>536</ele>
        <time>2021-03-28T10:41:36.000Z</time>
      </trkpt>
      <trkpt lat="47.23331" lon="4.90392">
        <ele>536</ele>
        <time>2021-03-28T10:41:48.000Z</time>
      </trkpt>
      <trkpt lat="47.23338" lon="4.90404">
        <ele>526</ele>
        <time>2021-03-28T10:41:55.000Z</time>
      </trkpt>
      <trkpt lat="47.23349" lon="4.90408">
        <ele>526</ele>
        <time>2021-03-28T10:42:04.000Z</time>
      </trkpt>
      <trkpt lat="47.23358" lon="4.90411">
        <ele>520</ele>
        <time>2021-03-28T10:42:12.000Z</time>
      </trkpt>
      <trkpt lat="47.23369" lon="4.90415">
        <ele>521</ele>
        <time>2021-03-28T10:42:21.000Z</time>
      </trkpt>
      <trkpt lat="47.23378" lon="4.90416">
        <ele>523</ele>
        <time>2021-03-28T10:42:28.000Z</time>
      </trkpt>
      <trkpt lat="47.23389" lon="4.9042">
        <ele>520</ele>
        <time>2021-03-28T10:42:36.000Z</time>
      </trkpt>
      <trkpt lat="47.23402" lon="4.90427">
        <ele>521</ele>
        <time>2021-03-28T10:42:48.000Z</time>
      </trkpt>
      <trkpt lat="47.23412" lon="4.90431">
        <ele>521</ele>
        <time>2021-03-28T10:43:02.000Z</time>
      </trkpt>
      <trkpt lat="47.23424" lon="4.90432">
        <ele>523</ele>
        <time>2021-03-28T10:43:08.000Z</time>
      </trkpt>
      <trkpt lat="47.23437" lon="4.90432">
        <ele>528</ele>
        <time>2021-03-28T10:43:16.000Z</time>
      </trkpt>
      <trkpt lat="47.23446" lon="4.90428">
        <ele>528</ele>
        <time>2021-03-28T10:43:25.000Z</time>
      </trkpt>
      <trkpt lat="47.23455" lon="4.90431">
        <ele>528</ele>
        <time>2021-03-28T10:43:36.000Z</time>
      </trkpt>
      <trkpt lat="47.23466" lon="4.90432">
        <ele>535</ele>
        <time>2021-03-28T10:43:42.000Z</time>
      </trkpt>
      <trkpt lat="47.23479" lon="4.90436">
        <ele>538</ele>
        <time>2021-03-28T10:43:51.000Z</time>
      </trkpt>
      <trkpt lat="47.23491" lon="4.90439">
        <ele>536</ele>
        <time>2021-03-28T10:44:03.000Z</time>
      </trkpt>
      <trkpt lat="47.23504" lon="4.9044">
        <ele>539</ele>
        <time>2021-03-28T10:44:12.000Z</time>
      </trkpt>
      <trkpt lat="47.23516" lon="4.90444">
        <ele>538</ele>
        <time>2021-03-28T10:44:21.000Z</time>
      </trkpt>
      <trkpt lat="47.23526" lon="4.90443">
        <ele>535</ele>
        <time>2021-03-28T10:44:27.000Z</time>
      </trkpt>
      <trkpt lat="47.23537" lon="4.90448">
        <ele>535</ele>
        <time>2021-03-28T10:44:41.000Z</time>
      </trkpt>
      <trkpt lat="47.23549" lon="4.9045">
        <ele>536</ele>
        <time>2021-03-28T10:44:50.000Z</time>
      </trkpt>
      <trkpt lat="47.23558" lon="4.90452">
        <ele>533</ele>
        <time>2021-03-28T10:44:59.000Z</time>
      </trkpt>
      <trkpt lat="47.23569" lon="4.90456">
        <ele>534</ele>
        <time>2021-03-28T10:45:08.000Z</time>
      </trkpt>
      <trkpt lat="47.23581" lon="4.90457">
        <ele>531</ele>
        <time>2021-03-28T10:45:19.000Z</time>
      </trkpt>
      <trkpt lat="47.23593" lon="4.90459">
        <ele>535</ele>
        <time>2021-03-28T10:45:28.000Z</time>
      </trkpt>
      <trkpt lat="47.23604" lon="4.9046">
        <ele>536</ele>
        <time>2021-03-28T10:45:36.000Z</time>
      </trkpt>
      <trkpt lat="47.23617" lon="4.90462">
        <ele>530</ele>
        <time>2021-03-28T10:45:47.000Z</time>
      </trkpt>
      <trkpt lat="47.23628" lon="4.90466">
        <ele>528</ele>
        <time>2021-03-28T10:45:59.000Z</time>
      </trkpt>
      <trkpt lat="47.23639" lon="4.90461">
        <ele>527</ele>
        <time>2021-03-28T10:46:08.000Z</time>
      </trkpt>
      <trkpt lat="47.23646" lon="4.90445">
        <ele>527</ele>
        <time>2021-03-28T10:46:14.000Z</time>
      </trkpt>
      <trkpt lat="47.23649" lon="4.90432">
        <ele>529</ele>
        <time>2021-03-28T10:46:24.000Z</time>
      </trkpt>
      <trkpt lat="47.23654" lon="4.90416">
        <ele>535</ele>
        <time>2021-03-28T10:46:36.000Z</time>
      </trkpt>
      <trkpt lat="47.23653" lon="4.90402">
        <ele>533</ele>
        <time>2021-03-28T10:46:42.000Z</time>
      </trkpt>
      <trkpt lat="47.23653" lon="4.90388">
        <ele>528</ele>
        <time>2021-03-28T10:46:48.000Z</time>
      </trkpt>
      <trkpt lat="47.23658" lon="4.90369">
        <ele>522</ele>
        <time>2021-03-28T10:47:00.000Z</time>
      </trkpt>
      <trkpt lat="47.23663" lon="4.90355">
        <ele>519</ele>
        <time>2021-03-28T10:47:14.000Z</time>
      </trkpt>
      <trkpt lat="47.23661" lon="4.90338">
        <ele>522</ele>
        <time>2021-03-28T10:47:23.000Z</time>
      </trkpt>
      <trkpt lat="47.23658" lon="4.90322">
        <ele>523</ele>
        <time>2021-03-28T10:47:31.000Z</time>
      </trkpt>
      <trkpt lat="47.23656" lon="4.90309">
        <ele>523</ele>
        <time>2021-03-28T10:47:38.000Z</time>
      </trkpt>
      <trkpt lat="47.23653" lon="4.90294">
        <ele>525</ele>
        <time>2021-03-28T10:47:44.000Z</time>
      </trkpt>
      <trkpt lat="47.23652" lon="4.90275">
        <ele>525</ele>
        <time>2021-03-28T10:47:53.000Z</time>
      </trkpt>
      <trkpt lat="47.2365" lon="4.90261">
        <ele>525</ele>
        <time>2021-03-28T10:48:02.000Z</time>
      </trkpt>
      <trkpt lat="47.23648" lon="4.90247">
        <ele>525</ele>
        <time>2021-03-28T10:48:09.000Z</time>
      </trkpt>
      <trkpt lat="47.23649" lon="4.90229">
        <ele>521</ele>
        <time>2021-03-28T10:48:17.000Z</time>
      </trkpt>
      <trkpt lat="47.23649" lon="4.90215">
        <ele>518</ele>
        <time>2021-03-28T10:48:29.000Z</time>
      </trkpt>
      <trkpt lat="47.23648" lon="4.90199">
        <ele>509</ele>
        <time>2021-03-28T10:48:41.000Z</time>
      </trkpt>
      <trkpt lat="47.23648" lon="4.90183">
        <ele>508</ele>
        <time>2021-03-28T10:48:50.000Z</time>
      </trkpt>
      <trkpt lat="47.23649" lon="4.90164">
        <ele>508</ele>
        <time>2021-03-28T10:48:59.000Z</time>
      </trkpt>
      <trkpt lat="47.23651" lon="4.90149">
        <ele>508</ele>
        <time>2021-03-28T10:49:08.000Z</time>
      </trkpt>
      <trkpt lat="47.23654" lon="4.90134">
        <ele>510</ele>
        <time>2021-03-28T10:49:16.000Z</time>
      </trkpt>
      <trkpt lat="47.23656" lon="4.90121">
        <ele>511</ele>
        <time>2021-03-28T10:49:24.000Z</time>
      </trkpt>
      <trkpt lat="47.23662" lon="4.90106">
        <ele>508</ele>
        <time>2021-03-28T10:49:33.000Z</time>
      </trkpt>
      <trkpt lat="47.23667" lon="4.90094">
        <ele>508</ele>
        <time>2021-03-28T10:49:42.000Z</time>
      </trkpt>
      <trkpt lat="47.23677" lon="4.90085">
        <ele>508</ele>
        <time>2021-03-28T10:49:54.000Z</time>
      </trkpt>
      <trkpt lat="47.23687" lon="4.90076">
        <ele>510</ele>
        <time>2021-03-28T10:50:03.000Z</time>
      </trkpt>
      <trkpt lat="47.23698" lon="4.90069">
        <ele>511</ele>
        <time>2021-03-28T10:50:12.000Z</time>
      </trkpt>
      <trkpt lat="47.23705" lon="4.90057">
        <ele>513</ele>
        <time>2021-03-28T10:50:24.000Z</time>
      </trkpt>
      <trkpt lat="47.2371" lon="4.90042">
        <ele>513</ele>
        <time>2021-03-28T10:50:33.000Z</time>
      </trkpt>
      <trkpt lat="47.23715" lon="4.9003">
        <ele>512</ele>
        <time>2021-03-28T10:50:42.000Z</time>
      </trkpt>
      <trkpt lat="47.23723" lon="4.90019">
        <ele>512</ele>
        <time>2021-03-28T10:50:51.000Z</time>
      </trkpt>
      <trkpt lat="47.23729" lon="4.90004">
        <ele>516</ele>
        <time>2021-03-28T10:51:00.000Z</time>
      </trkpt>
      <trkpt lat="47.23736" lon="4.89992">
        <ele>516</ele>
        <time>2021-03-28T10:51:09.000Z</time>
      </trkpt>
      <trkpt lat="47.23746" lon="4.89983">
        <ele>514</ele>
        <time>2021-03-28T10:51:21.000Z</time>
      </trkpt>
      <trkpt lat="47.23758" lon="4.89977">
        <ele>514</ele>
        <time>2021-03-28T10:51:30.000Z</time>
      </trkpt>
      <trkpt lat="47.23769" lon="4.89978">
        <ele>514</ele>
        <time>2021-03-28T10:51:40.000Z</time>
      </trkpt>
      <trkpt lat="47.23779" lon="4.89971">
        <ele>512</ele>
        <time>2021-03-28T10:51:49.000Z</time>
      </trkpt>
      <trkpt lat="47.23792" lon="4.89968">
        <ele>514</ele>
        <time>2021-03-28T10:51:58.000Z</time>
      </trkpt>
      <trkpt lat="47.23802" lon="4.89969">
        <ele>514</ele>
        <time>2021-03-28T10:52:07.000Z</time>
      </trkpt>
      <trkpt lat="47.23812" lon="4.89967">
        <ele>517</ele>
        <time>2021-03-28T10:52:16.000Z</time>
      </trkpt>
      <trkpt lat="47.23824" lon="4.89962">
        <ele>518</ele>
        <time>2021-03-28T10:52:28.000Z</time>
      </trkpt>
      <trkpt lat="47.23836" lon="4.89963">
        <ele>513</ele>
        <time>2021-03-28T10:52:37.000Z</time>
      </trkpt>
      <trkpt lat="47.23846" lon="4.89966">
        <ele>512</ele>
        <time>2021-03-28T10:52:46.000Z</time>
      </trkpt>
      <trkpt lat="47.23857" lon="4.89967">
        <ele>516</ele>
        <time>2021-03-28T10:52:58.000Z</time>
      </trkpt>
      <trkpt lat="47.23867" lon="4.89972">
        <ele>516</ele>
        <time>2021-03-28T10:53:07.000Z</time>
      </trkpt>
      <trkpt lat="47.23875" lon="4.8998">
        <ele>512</ele>
        <time>2021-03-28T10:53:16.000Z</time>
      </trkpt>
      <trkpt lat="47.23887" lon="4.89982">
        <ele>514</ele>
        <time>2021-03-28T10:53:22.000Z</time>
      </trkpt>
      <trkpt lat="47.23898" lon="4.89975">
        <ele>515</ele>
        <time>2021-03-28T10:53:28.000Z</time>
      </trkpt>
      <trkpt lat="47.23909" lon="4.89974">
        <ele>514</ele>
        <time>2021-03-28T10:53:40.000Z</time>
      </trkpt>
      <trkpt lat="47.23921" lon="4.89977">
        <ele>518</ele>
        <time>2021-03-28T10:54:04.000Z</time>
      </trkpt>
      <trkpt lat="47.23933" lon="4.89979">
        <ele>520</ele>
        <time>2021-03-28T10:54:10.000Z</time>
      </trkpt>
      <trkpt lat="47.23946" lon="4.8998">
        <ele>519</ele>
        <time>2021-03-28T10:54:17.000Z</time>
      </trkpt>
      <trkpt lat="47.23957" lon="4.89987">
        <ele>521</ele>
        <time>2021-03-28T10:54:26.000Z</time>
      </trkpt>
      <trkpt lat="47.23966" lon="4.89991">
        <ele>521</ele>
        <time>2021-03-28T10:54:35.000Z</time>
      </trkpt>
      <trkpt lat="47.23978" lon="4.89995">
        <ele>519</ele>
        <time>2021-03-28T10:54:44.000Z</time>
      </trkpt>
      <trkpt lat="47.23994" lon="4.89997">
        <ele>517</ele>
        <time>2021-03-28T10:54:56.000Z</time>
      </trkpt>
      <trkpt lat="47.24002" lon="4.90004">
        <ele>515</ele>
        <time>2021-03-28T10:55:05.000Z</time>
      </trkpt>
      <trkpt lat="47.24012" lon="4.90015">
        <ele>517</ele>
        <time>2021-03-28T10:55:14.000Z</time>
      </trkpt>
      <trkpt lat="47.24024" lon="4.90017">
        <ele>521</ele>
        <time>2021-03-28T10:55:22.000Z</time>
      </trkpt>
      <trkpt lat="47.24033" lon="4.9002">
        <ele>521</ele>
        <time>2021-03-28T10:55:28.000Z</time>
      </trkpt>
      <trkpt lat="47.24043" lon="4.90029">
        <ele>524</ele>
        <time>2021-03-28T10:55:37.000Z</time>
      </trkpt>
      <trkpt lat="47.2405" lon="4.90039">
        <ele>520</ele>
        <time>2021-03-28T10:55:49.000Z</time>
      </trkpt>
      <trkpt lat="47.2406" lon="4.9005">
        <ele>517</ele>
        <time>2021-03-28T10:56:01.000Z</time>
      </trkpt>
      <trkpt lat="47.24065" lon="4.90062">
        <ele>517</ele>
        <time>2021-03-28T10:56:07.000Z</time>
      </trkpt>
      <trkpt lat="47.2408" lon="4.90069">
        <ele>519</ele>
        <time>2021-03-28T10:56:16.000Z</time>
      </trkpt>
      <trkpt lat="47.24092" lon="4.90077">
        <ele>517</ele>
        <time>2021-03-28T10:56:25.000Z</time>
      </trkpt>
      <trkpt lat="47.24094" lon="4.90092">
        <ele>521</ele>
        <time>2021-03-28T10:56:34.000Z</time>
      </trkpt>
      <trkpt lat="47.24102" lon="4.90106">
        <ele>528</ele>
        <time>2021-03-28T10:56:46.000Z</time>
      </trkpt>
      <trkpt lat="47.24117" lon="4.90108">
        <ele>528</ele>
        <time>2021-03-28T10:56:53.000Z</time>
      </trkpt>
      <trkpt lat="47.24126" lon="4.90108">
        <ele>525</ele>
        <time>2021-03-28T10:56:59.000Z</time>
      </trkpt>
      <trkpt lat="47.24137" lon="4.9012">
        <ele>523</ele>
        <time>2021-03-28T10:57:14.000Z</time>
      </trkpt>
      <trkpt lat="47.24146" lon="4.90124">
        <ele>527</ele>
        <time>2021-03-28T10:57:20.000Z</time>
      </trkpt>
      <trkpt lat="47.24154" lon="4.90136">
        <ele>526</ele>
        <time>2021-03-28T10:57:26.000Z</time>
      </trkpt>
      <trkpt lat="47.24161" lon="4.9015">
        <ele>525</ele>
        <time>2021-03-28T10:57:38.000Z</time>
      </trkpt>
      <trkpt lat="47.24169" lon="4.90163">
        <ele>523</ele>
        <time>2021-03-28T10:57:47.000Z</time>
      </trkpt>
      <trkpt lat="47.24177" lon="4.90173">
        <ele>523</ele>
        <time>2021-03-28T10:57:56.000Z</time>
      </trkpt>
      <trkpt lat="47.24186" lon="4.90184">
        <ele>526</ele>
        <time>2021-03-28T10:58:02.000Z</time>
      </trkpt>
      <trkpt lat="47.24191" lon="4.90199">
        <ele>522</ele>
        <time>2021-03-28T10:58:11.000Z</time>
      </trkpt>
      <trkpt lat="47.24197" lon="4.90212">
        <ele>518</ele>
        <time>2021-03-28T10:58:23.000Z</time>
      </trkpt>
      <trkpt lat="47.24204" lon="4.90225">
        <ele>519</ele>
        <time>2021-03-28T10:58:32.000Z</time>
      </trkpt>
      <trkpt lat="47.2421" lon="4.90236">
        <ele>519</ele>
        <time>2021-03-28T10:58:38.000Z</time>
      </trkpt>
      <trkpt lat="47.24216" lon="4.90253">
        <ele>521</ele>
        <time>2021-03-28T10:58:49.000Z</time>
      </trkpt>
      <trkpt lat="47.24229" lon="4.90261">
        <ele>518</ele>
        <time>2021-03-28T10:58:58.000Z</time>
      </trkpt>
      <trkpt lat="47.24233" lon="4.90276">
        <ele>518</ele>
        <time>2021-03-28T10:59:07.000Z</time>
      </trkpt>
      <trkpt lat="47.24239" lon="4.90292">
        <ele>519</ele>
        <time>2021-03-28T10:59:16.000Z</time>
      </trkpt>
      <trkpt lat="47.24247" lon="4.90303">
        <ele>518</ele>
        <time>2021-03-28T10:59:25.000Z</time>
      </trkpt>
      <trkpt lat="47.24254" lon="4.90314">
        <ele>521</ele>
        <time>2021-03-28T10:59:34.000Z</time>
      </trkpt>
      <trkpt lat="47.2426" lon="4.90326">
        <ele>523</ele>
        <time>2021-03-28T10:59:42.000Z</time>
      </trkpt>
      <trkpt lat="47.24266" lon="4.90338">
        <ele>527</ele>
        <time>2021-03-28T10:59:51.000Z</time>
      </trkpt>
      <trkpt lat="47.24273" lon="4.90351">
        <ele>521</ele>
        <time>2021-03-28T11:00:00.000Z</time>
      </trkpt>
      <trkpt lat="47.24278" lon="4.90364">
        <ele>517</ele>
        <time>2021-03-28T11:00:08.000Z</time>
      </trkpt>
      <trkpt lat="47.24285" lon="4.90371">
        <ele>514</ele>
        <time>2021-03-28T11:00:15.000Z</time>
      </trkpt>
      <trkpt lat="47.24294" lon="4.90382">
        <ele>516</ele>
        <time>2021-03-28T11:00:24.000Z</time>
      </trkpt>
      <trkpt lat="47.24304" lon="4.90392">
        <ele>515</ele>
        <time>2021-03-28T11:00:34.000Z</time>
      </trkpt>
      <trkpt lat="47.24312" lon="4.90403">
        <ele>517</ele>
        <time>2021-03-28T11:00:46.000Z</time>
      </trkpt>
      <trkpt lat="47.2432" lon="4.90411">
        <ele>515</ele>
        <time>2021-03-28T11:00:55.000Z</time>
      </trkpt>
      <trkpt lat="47.24326" lon="4.90421">
        <ele>515</ele>
        <time>2021-03-28T11:01:03.000Z</time>
      </trkpt>
      <trkpt lat="47.24335" lon="4.9043">
        <ele>516</ele>
        <time>2021-03-28T11:01:11.000Z</time>
      </trkpt>
      <trkpt lat="47.24345" lon="4.90439">
        <ele>517</ele>
        <time>2021-03-28T11:01:20.000Z</time>
      </trkpt>
      <trkpt lat="47.24353" lon="4.90444">
        <ele>516</ele>
        <time>2021-03-28T11:01:26.000Z</time>
      </trkpt>
      <trkpt lat="47.24361" lon="4.90454">
        <ele>515</ele>
        <time>2021-03-28T11:01:34.000Z</time>
      </trkpt>
      <trkpt lat="47.24372" lon="4.90464">
        <ele>516</ele>
        <time>2021-03-28T11:01:42.000Z</time>
      </trkpt>
      <trkpt lat="47.2438" lon="4.90474">
        <ele>517</ele>
        <time>2021-03-28T11:01:51.000Z</time>
      </trkpt>
      <trkpt lat="47.2439" lon="4.9048">
        <ele>519</ele>
        <time>2021-03-28T11:02:00.000Z</time>
      </trkpt>
      <trkpt lat="47.24398" lon="4.90487">
        <ele>521</ele>
        <time>2021-03-28T11:02:07.000Z</time>
      </trkpt>
      <trkpt lat="47.24406" lon="4.90499">
        <ele>515</ele>
        <time>2021-03-28T11:02:19.000Z</time>
      </trkpt>
      <trkpt lat="47.24414" lon="4.90504">
        <ele>513</ele>
        <time>2021-03-28T11:02:25.000Z</time>
      </trkpt>
      <trkpt lat="47.24423" lon="4.90508">
        <ele>512</ele>
        <time>2021-03-28T11:02:31.000Z</time>
      </trkpt>
      <trkpt lat="47.24429" lon="4.9052">
        <ele>519</ele>
        <time>2021-03-28T11:02:40.000Z</time>
      </trkpt>
      <trkpt lat="47.24437" lon="4.9053">
        <ele>513</ele>
        <time>2021-03-28T11:02:52.000Z</time>
      </trkpt>
      <trkpt lat="47.24447" lon="4.90536">
        <ele>513</ele>
        <time>2021-03-28T11:03:01.000Z</time>
      </trkpt>
      <trkpt lat="47.24458" lon="4.90545">
        <ele>515</ele>
        <time>2021-03-28T11:03:10.000Z</time>
      </trkpt>
      <trkpt lat="47.24466" lon="4.90555">
        <ele>517</ele>
        <time>2021-03-28T11:03:19.000Z</time>
      </trkpt>
      <trkpt lat="47.24475" lon="4.90564">
        <ele>516</ele>
        <time>2021-03-28T11:03:28.000Z</time>
      </trkpt>
      <trkpt lat="47.24483" lon="4.90573">
        <ele>515</ele>
        <time>2021-03-28T11:03:37.000Z</time>
      </trkpt>
      <trkpt lat="47.24491" lon="4.90581">
        <ele>515</ele>
        <time>2021-03-28T11:03:47.000Z</time>
      </trkpt>
      <trkpt lat="47.24502" lon="4.9059">
        <ele>516</ele>
        <time>2021-03-28T11:03:56.000Z</time>
      </trkpt>
      <trkpt lat="47.2451" lon="4.90597">
        <ele>513</ele>
        <time>2021-03-28T11:04:02.000Z</time>
      </trkpt>
      <trkpt lat="47.24517" lon="4.90609">
        <ele>511</ele>
        <time>2021-03-28T11:04:11.000Z</time>
      </trkpt>
      <trkpt lat="47.24523" lon="4.90623">
        <ele>512</ele>
        <time>2021-03-28T11:04:23.000Z</time>
      </trkpt>
      <trkpt lat="47.24527" lon="4.90636">
        <ele>513</ele>
        <time>2021-03-28T11:04:32.000Z</time>
      </trkpt>
      <trkpt lat="47.24533" lon="4.9065">
        <ele>516</ele>
        <time>2021-03-28T11:04:41.000Z</time>
      </trkpt>
      <trkpt lat="47.24534" lon="4.90666">
        <ele>515</ele>
        <time>2021-03-28T11:04:50.000Z</time>
      </trkpt>
      <trkpt lat="47.24538" lon="4.90681">
        <ele>516</ele>
        <time>2021-03-28T11:05:05.000Z</time>
      </trkpt>
      <trkpt lat="47.24544" lon="4.90692">
        <ele>515</ele>
        <time>2021-03-28T11:05:15.000Z</time>
      </trkpt>
      <trkpt lat="47.24553" lon="4.90698">
        <ele>516</ele>
        <time>2021-03-28T11:05:20.000Z</time>
      </trkpt>
      <trkpt lat="47.24563" lon="4.90702">
        <ele>473.6</ele>
      </trkpt>
      <trkpt lat="47.24571" lon="4.9071">
        <ele>473.8</ele>
      </trkpt>
      <trkpt lat="47.24579" lon="4.9072">
        <ele>474</ele>
      </trkpt>
      <trkpt lat="47.24592" lon="4.9073">
        <ele>474.7</ele>
      </trkpt>
      <trkpt lat="47.24604" lon="4.90738">
        <ele>521</ele>
        <time>2021-03-28T11:56:56.000Z</time>
      </trkpt>
      <trkpt lat="47.24614" lon="4.90743">
        <ele>524</ele>
        <time>2021-03-28T11:57:04.000Z</time>
      </trkpt>
      <trkpt lat="47.24622" lon="4.90753">
        <ele>528</ele>
        <time>2021-03-28T11:57:16.000Z</time>
      </trkpt>
      <trkpt lat="47.2463" lon="4.9076">
        <ele>529</ele>
        <time>2021-03-28T11:57:26.000Z</time>
      </trkpt>
      <trkpt lat="47.24639" lon="4.90769">
        <ele>530</ele>
        <time>2021-03-28T11:57:40.000Z</time>
      </trkpt>
      <trkpt lat="47.24647" lon="4.90778">
        <ele>528</ele>
        <time>2021-03-28T11:57:52.000Z</time>
      </trkpt>
      <trkpt lat="47.24656" lon="4.90787">
        <ele>530</ele>
        <time>2021-03-28T11:58:01.000Z</time>
      </trkpt>
      <trkpt lat="47.24663" lon="4.90797">
        <ele>531</ele>
        <time>2021-03-28T11:58:10.000Z</time>
      </trkpt>
      <trkpt lat="47.24671" lon="4.9081">
        <ele>530</ele>
        <time>2021-03-28T11:58:22.000Z</time>
      </trkpt>
      <trkpt lat="47.2468" lon="4.90818">
        <ele>536</ele>
        <time>2021-03-28T11:58:31.000Z</time>
      </trkpt>
      <trkpt lat="47.24687" lon="4.90829">
        <ele>534</ele>
        <time>2021-03-28T11:58:41.000Z</time>
      </trkpt>
      <trkpt lat="47.24695" lon="4.90842">
        <ele>531</ele>
        <time>2021-03-28T11:58:52.000Z</time>
      </trkpt>
      <trkpt lat="47.247" lon="4.90857">
        <ele>533</ele>
        <time>2021-03-28T11:59:03.000Z</time>
      </trkpt>
      <trkpt lat="47.24708" lon="4.90869">
        <ele>533</ele>
        <time>2021-03-28T11:59:13.000Z</time>
      </trkpt>
      <trkpt lat="47.24714" lon="4.90882">
        <ele>535</ele>
        <time>2021-03-28T11:59:23.000Z</time>
      </trkpt>
      <trkpt lat="47.24719" lon="4.90893">
        <ele>533</ele>
        <time>2021-03-28T11:59:34.000Z</time>
      </trkpt>
      <trkpt lat="47.24728" lon="4.90901">
        <ele>535</ele>
        <time>2021-03-28T11:59:43.000Z</time>
      </trkpt>
      <trkpt lat="47.24735" lon="4.9091">
        <ele>539</ele>
        <time>2021-03-28T11:59:52.000Z</time>
      </trkpt>
      <trkpt lat="47.24745" lon="4.9092">
        <ele>538</ele>
        <time>2021-03-28T12:00:01.000Z</time>
      </trkpt>
      <trkpt lat="47.24752" lon="4.90928">
        <ele>538</ele>
        <time>2021-03-28T12:00:10.000Z</time>
      </trkpt>
      <trkpt lat="47.24762" lon="4.90939">
        <ele>538</ele>
        <time>2021-03-28T12:00:22.000Z</time>
      </trkpt>
      <trkpt lat="47.24769" lon="4.90948">
        <ele>541</ele>
        <time>2021-03-28T12:01:03.000Z</time>
      </trkpt>
      <trkpt lat="47.24777" lon="4.90958">
        <ele>541</ele>
        <time>2021-03-28T12:01:18.000Z</time>
      </trkpt>
      <trkpt lat="47.24785" lon="4.90969">
        <ele>538</ele>
        <time>2021-03-28T12:01:30.000Z</time>
      </trkpt>
      <trkpt lat="47.24792" lon="4.90979">
        <ele>537</ele>
        <time>2021-03-28T12:01:38.000Z</time>
      </trkpt>
      <trkpt lat="47.248" lon="4.9099">
        <ele>541</ele>
        <time>2021-03-28T12:01:47.000Z</time>
      </trkpt>
      <trkpt lat="47.24809" lon="4.90999">
        <ele>540</ele>
        <time>2021-03-28T12:01:55.000Z</time>
      </trkpt>
      <trkpt lat="47.24813" lon="4.91014">
        <ele>540</ele>
        <time>2021-03-28T12:02:05.000Z</time>
      </trkpt>
      <trkpt lat="47.24817" lon="4.91026">
        <ele>538</ele>
        <time>2021-03-28T12:02:12.000Z</time>
      </trkpt>
      <trkpt lat="47.24822" lon="4.91039">
        <ele>539</ele>
        <time>2021-03-28T12:02:23.000Z</time>
      </trkpt>
      <trkpt lat="47.2483" lon="4.91048">
        <ele>535</ele>
        <time>2021-03-28T12:02:35.000Z</time>
      </trkpt>
      <trkpt lat="47.24836" lon="4.91037">
        <ele>535</ele>
        <time>2021-03-28T12:02:46.000Z</time>
      </trkpt>
      <trkpt lat="47.24844" lon="4.91043">
        <ele>535</ele>
        <time>2021-03-28T12:03:14.000Z</time>
      </trkpt>
      <trkpt lat="47.24854" lon="4.91054">
        <ele>532</ele>
        <time>2021-03-28T12:03:20.000Z</time>
      </trkpt>
      <trkpt lat="47.24863" lon="4.91059">
        <ele>536</ele>
        <time>2021-03-28T12:03:26.000Z</time>
      </trkpt>
      <trkpt lat="47.24873" lon="4.9106">
        <ele>539</ele>
        <time>2021-03-28T12:03:49.000Z</time>
      </trkpt>
      <trkpt lat="47.24884" lon="4.91063">
        <ele>537</ele>
        <time>2021-03-28T12:04:41.000Z</time>
      </trkpt>
      <trkpt lat="47.24896" lon="4.91061">
        <ele>530</ele>
        <time>2021-03-28T12:04:50.000Z</time>
      </trkpt>
      <trkpt lat="47.24906" lon="4.91056">
        <ele>534</ele>
        <time>2021-03-28T12:04:56.000Z</time>
      </trkpt>
      <trkpt lat="47.24915" lon="4.9105">
        <ele>535</ele>
        <time>2021-03-28T12:05:05.000Z</time>
      </trkpt>
      <trkpt lat="47.24926" lon="4.91044">
        <ele>531</ele>
        <time>2021-03-28T12:05:14.000Z</time>
      </trkpt>
      <trkpt lat="47.24934" lon="4.91033">
        <ele>531</ele>
        <time>2021-03-28T12:05:25.000Z</time>
      </trkpt>
      <trkpt lat="47.24946" lon="4.91029">
        <ele>534</ele>
        <time>2021-03-28T12:05:34.000Z</time>
      </trkpt>
      <trkpt lat="47.24952" lon="4.91017">
        <ele>536</ele>
        <time>2021-03-28T12:05:43.000Z</time>
      </trkpt>
      <trkpt lat="47.24964" lon="4.91009">
        <ele>537</ele>
        <time>2021-03-28T12:05:53.000Z</time>
      </trkpt>
      <trkpt lat="47.24975" lon="4.91004">
        <ele>531</ele>
        <time>2021-03-28T12:06:02.000Z</time>
      </trkpt>
      <trkpt lat="47.24984" lon="4.91001">
        <ele>531</ele>
        <time>2021-03-28T12:06:11.000Z</time>
      </trkpt>
      <trkpt lat="47.24992" lon="4.91005">
        <ele>529</ele>
        <time>2021-03-28T12:06:21.000Z</time>
      </trkpt>
      <trkpt lat="47.25001" lon="4.91013">
        <ele>536</ele>
        <time>2021-03-28T12:06:30.000Z</time>
      </trkpt>
      <trkpt lat="47.25014" lon="4.91018">
        <ele>533</ele>
        <time>2021-03-28T12:06:36.000Z</time>
      </trkpt>
      <trkpt lat="47.25021" lon="4.91029">
        <ele>532</ele>
        <time>2021-03-28T12:06:58.000Z</time>
      </trkpt>
      <trkpt lat="47.2503" lon="4.91043">
        <ele>532</ele>
        <time>2021-03-28T12:07:07.000Z</time>
      </trkpt>
      <trkpt lat="47.25039" lon="4.9105">
        <ele>532</ele>
        <time>2021-03-28T12:07:13.000Z</time>
      </trkpt>
      <trkpt lat="47.25049" lon="4.91053">
        <ele>531</ele>
        <time>2021-03-28T12:07:34.000Z</time>
      </trkpt>
      <trkpt lat="47.25059" lon="4.91057">
        <ele>526</ele>
        <time>2021-03-28T12:07:43.000Z</time>
      </trkpt>
      <trkpt lat="47.25074" lon="4.91064">
        <ele>526</ele>
        <time>2021-03-28T12:07:50.000Z</time>
      </trkpt>
      <trkpt lat="47.25087" lon="4.91069">
        <ele>530</ele>
        <time>2021-03-28T12:08:01.000Z</time>
      </trkpt>
      <trkpt lat="47.25098" lon="4.91073">
        <ele>527</ele>
        <time>2021-03-28T12:08:10.000Z</time>
      </trkpt>
      <trkpt lat="47.25108" lon="4.91071">
        <ele>526</ele>
        <time>2021-03-28T12:08:22.000Z</time>
      </trkpt>
      <trkpt lat="47.25117" lon="4.91074">
        <ele>526</ele>
        <time>2021-03-28T12:08:37.000Z</time>
      </trkpt>
      <trkpt lat="47.25126" lon="4.91081">
        <ele>523</ele>
        <time>2021-03-28T12:08:45.000Z</time>
      </trkpt>
      <trkpt lat="47.25135" lon="4.91083">
        <ele>519</ele>
        <time>2021-03-28T12:08:52.000Z</time>
      </trkpt>
      <trkpt lat="47.25146" lon="4.91082">
        <ele>518</ele>
        <time>2021-03-28T12:08:58.000Z</time>
      </trkpt>
      <trkpt lat="47.25157" lon="4.9109">
        <ele>519</ele>
        <time>2021-03-28T12:09:07.000Z</time>
      </trkpt>
      <trkpt lat="47.25167" lon="4.91097">
        <ele>517</ele>
        <time>2021-03-28T12:09:16.000Z</time>
      </trkpt>
      <trkpt lat="47.25178" lon="4.91104">
        <ele>517</ele>
        <time>2021-03-28T12:09:28.000Z</time>
      </trkpt>
      <trkpt lat="47.25194" lon="4.9111">
        <ele>512</ele>
        <time>2021-03-28T12:09:58.000Z</time>
      </trkpt>
      <trkpt lat="47.25202" lon="4.91115">
        <ele>514</ele>
        <time>2021-03-28T12:10:08.000Z</time>
      </trkpt>
      <trkpt lat="47.25205" lon="4.91102">
        <ele>513</ele>
        <time>2021-03-28T12:11:37.000Z</time>
      </trkpt>
      <trkpt lat="47.25206" lon="4.91089">
        <ele>512</ele>
        <time>2021-03-28T12:11:48.000Z</time>
      </trkpt>
      <trkpt lat="47.25207" lon="4.91074">
        <ele>515</ele>
        <time>2021-03-28T12:12:02.000Z</time>
      </trkpt>
      <trkpt lat="47.25203" lon="4.9106">
        <ele>518</ele>
        <time>2021-03-28T12:12:35.000Z</time>
      </trkpt>
      <trkpt lat="47.25212" lon="4.91055">
        <ele>515</ele>
        <time>2021-03-28T12:12:55.000Z</time>
      </trkpt>
      <trkpt lat="47.25221" lon="4.91048">
        <ele>512</ele>
        <time>2021-03-28T12:13:03.000Z</time>
      </trkpt>
      <trkpt lat="47.25234" lon="4.91046">
        <ele>512</ele>
        <time>2021-03-28T12:13:26.000Z</time>
      </trkpt>
      <trkpt lat="47.25243" lon="4.91042">
        <ele>513</ele>
        <time>2021-03-28T12:13:33.000Z</time>
      </trkpt>
      <trkpt lat="47.25253" lon="4.91045">
        <ele>518</ele>
        <time>2021-03-28T12:14:24.000Z</time>
      </trkpt>
      <trkpt lat="47.25261" lon="4.9105">
        <ele>525</ele>
        <time>2021-03-28T12:14:36.000Z</time>
      </trkpt>
      <trkpt lat="47.25272" lon="4.91049">
        <ele>526</ele>
        <time>2021-03-28T12:14:44.000Z</time>
      </trkpt>
      <trkpt lat="47.25281" lon="4.91044">
        <ele>523</ele>
        <time>2021-03-28T12:15:06.000Z</time>
      </trkpt>
      <trkpt lat="47.25289" lon="4.91052">
        <ele>528</ele>
        <time>2021-03-28T12:15:39.000Z</time>
      </trkpt>
      <trkpt lat="47.25298" lon="4.91045">
        <ele>535</ele>
        <time>2021-03-28T12:15:48.000Z</time>
      </trkpt>
      <trkpt lat="47.25308" lon="4.91044">
        <ele>537</ele>
        <time>2021-03-28T12:16:01.000Z</time>
      </trkpt>
      <trkpt lat="47.25317" lon="4.91039">
        <ele>538</ele>
        <time>2021-03-28T12:16:24.000Z</time>
      </trkpt>
      <trkpt lat="47.25326" lon="4.91031">
        <ele>537</ele>
        <time>2021-03-28T12:16:37.000Z</time>
      </trkpt>
      <trkpt lat="47.25333" lon="4.91022">
        <ele>535</ele>
        <time>2021-03-28T12:16:49.000Z</time>
      </trkpt>
      <trkpt lat="47.25341" lon="4.91013">
        <ele>531</ele>
        <time>2021-03-28T12:17:14.000Z</time>
      </trkpt>
      <trkpt lat="47.2535" lon="4.91004">
        <ele>536</ele>
        <time>2021-03-28T12:17:28.000Z</time>
      </trkpt>
      <trkpt lat="47.25353" lon="4.9099">
        <ele>544</ele>
        <time>2021-03-28T12:17:46.000Z</time>
      </trkpt>
      <trkpt lat="47.25362" lon="4.90982">
        <ele>543</ele>
        <time>2021-03-28T12:18:13.000Z</time>
      </trkpt>
      <trkpt lat="47.25354" lon="4.90968">
        <ele>540</ele>
        <time>2021-03-28T12:18:31.000Z</time>
      </trkpt>
      <trkpt lat="47.25346" lon="4.90954">
        <ele>542</ele>
        <time>2021-03-28T12:18:45.000Z</time>
      </trkpt>
      <trkpt lat="47.25341" lon="4.90943">
        <ele>540</ele>
        <time>2021-03-28T12:18:53.000Z</time>
      </trkpt>
      <trkpt lat="47.25336" lon="4.90929">
        <ele>538</ele>
        <time>2021-03-28T12:19:02.000Z</time>
      </trkpt>
      <trkpt lat="47.25341" lon="4.90912">
        <ele>537</ele>
        <time>2021-03-28T12:19:15.000Z</time>
      </trkpt>
      <trkpt lat="47.2535" lon="4.90901">
        <ele>540</ele>
        <time>2021-03-28T12:19:27.000Z</time>
      </trkpt>
      <trkpt lat="47.2536" lon="4.90897">
        <ele>546</ele>
        <time>2021-03-28T12:19:39.000Z</time>
      </trkpt>
      <trkpt lat="47.25368" lon="4.90909">
        <ele>552</ele>
        <time>2021-03-28T12:20:08.000Z</time>
      </trkpt>
      <trkpt lat="47.25373" lon="4.90921">
        <ele>552</ele>
        <time>2021-03-28T12:20:17.000Z</time>
      </trkpt>
      <trkpt lat="47.25377" lon="4.90932">
        <ele>550</ele>
        <time>2021-03-28T12:20:28.000Z</time>
      </trkpt>
      <trkpt lat="47.25381" lon="4.90946">
        <ele>547</ele>
        <time>2021-03-28T12:20:46.000Z</time>
      </trkpt>
      <trkpt lat="47.25388" lon="4.90957">
        <ele>551</ele>
        <time>2021-03-28T12:20:55.000Z</time>
      </trkpt>
      <trkpt lat="47.25394" lon="4.90967">
        <ele>549</ele>
        <time>2021-03-28T12:21:04.000Z</time>
      </trkpt>
      <trkpt lat="47.254" lon="4.90982">
        <ele>544</ele>
        <time>2021-03-28T12:21:16.000Z</time>
      </trkpt>
      <trkpt lat="47.25409" lon="4.90995">
        <ele>546</ele>
        <time>2021-03-28T12:21:28.000Z</time>
      </trkpt>
      <trkpt lat="47.25417" lon="4.91006">
        <ele>544</ele>
        <time>2021-03-28T12:21:37.000Z</time>
      </trkpt>
      <trkpt lat="47.25424" lon="4.91017">
        <ele>540</ele>
        <time>2021-03-28T12:21:46.000Z</time>
      </trkpt>
      <trkpt lat="47.2543" lon="4.91027">
        <ele>543</ele>
        <time>2021-03-28T12:21:55.000Z</time>
      </trkpt>
      <trkpt lat="47.25438" lon="4.91036">
        <ele>546</ele>
        <time>2021-03-28T12:22:03.000Z</time>
      </trkpt>
      <trkpt lat="47.25443" lon="4.91049">
        <ele>544</ele>
        <time>2021-03-28T12:22:12.000Z</time>
      </trkpt>
      <trkpt lat="47.25448" lon="4.91062">
        <ele>541</ele>
        <time>2021-03-28T12:22:21.000Z</time>
      </trkpt>
      <trkpt lat="47.25455" lon="4.91072">
        <ele>545</ele>
        <time>2021-03-28T12:22:30.000Z</time>
      </trkpt>
      <trkpt lat="47.25462" lon="4.91083">
        <ele>542</ele>
        <time>2021-03-28T12:22:39.000Z</time>
      </trkpt>
      <trkpt lat="47.25467" lon="4.91095">
        <ele>537</ele>
        <time>2021-03-28T12:22:50.000Z</time>
      </trkpt>
      <trkpt lat="47.25474" lon="4.91106">
        <ele>539</ele>
        <time>2021-03-28T12:22:59.000Z</time>
      </trkpt>
      <trkpt lat="47.25482" lon="4.91117">
        <ele>545</ele>
        <time>2021-03-28T12:23:08.000Z</time>
      </trkpt>
      <trkpt lat="47.25491" lon="4.9113">
        <ele>545</ele>
        <time>2021-03-28T12:23:20.000Z</time>
      </trkpt>
      <trkpt lat="47.25498" lon="4.91142">
        <ele>542</ele>
        <time>2021-03-28T12:23:32.000Z</time>
      </trkpt>
      <trkpt lat="47.25505" lon="4.91152">
        <ele>546</ele>
        <time>2021-03-28T12:23:41.000Z</time>
      </trkpt>
      <trkpt lat="47.25513" lon="4.91162">
        <ele>553</ele>
        <time>2021-03-28T12:23:50.000Z</time>
      </trkpt>
      <trkpt lat="47.25523" lon="4.91165">
        <ele>554</ele>
        <time>2021-03-28T12:23:59.000Z</time>
      </trkpt>
      <trkpt lat="47.2553" lon="4.91155">
        <ele>553</ele>
        <time>2021-03-28T12:24:17.000Z</time>
      </trkpt>
      <trkpt lat="47.25532" lon="4.91141">
        <ele>540</ele>
        <time>2021-03-28T12:24:26.000Z</time>
      </trkpt>
      <trkpt lat="47.25533" lon="4.91127">
        <ele>551</ele>
        <time>2021-03-28T12:24:35.000Z</time>
      </trkpt>
      <trkpt lat="47.25535" lon="4.91111">
        <ele>549</ele>
        <time>2021-03-28T12:24:44.000Z</time>
      </trkpt>
      <trkpt lat="47.25538" lon="4.91091">
        <ele>548</ele>
        <time>2021-03-28T12:24:53.000Z</time>
      </trkpt>
      <trkpt lat="47.25541" lon="4.91075">
        <ele>550</ele>
        <time>2021-03-28T12:25:02.000Z</time>
      </trkpt>
      <trkpt lat="47.25549" lon="4.91063">
        <ele>548</ele>
        <time>2021-03-28T12:25:14.000Z</time>
      </trkpt>
      <trkpt lat="47.25549" lon="4.91049">
        <ele>548</ele>
        <time>2021-03-28T12:25:21.000Z</time>
      </trkpt>
      <trkpt lat="47.25555" lon="4.91038">
        <ele>552</ele>
        <time>2021-03-28T12:25:29.000Z</time>
      </trkpt>
      <trkpt lat="47.25557" lon="4.91022">
        <ele>553</ele>
        <time>2021-03-28T12:25:39.000Z</time>
      </trkpt>
      <trkpt lat="47.25557" lon="4.91009">
        <ele>552</ele>
        <time>2021-03-28T12:25:47.000Z</time>
      </trkpt>
      <trkpt lat="47.25561" lon="4.90994">
        <ele>551</ele>
        <time>2021-03-28T12:25:56.000Z</time>
      </trkpt>
      <trkpt lat="47.25567" lon="4.90979">
        <ele>550</ele>
        <time>2021-03-28T12:26:05.000Z</time>
      </trkpt>
      <trkpt lat="47.25572" lon="4.90963">
        <ele>551</ele>
        <time>2021-03-28T12:26:14.000Z</time>
      </trkpt>
      <trkpt lat="47.25576" lon="4.90949">
        <ele>548</ele>
        <time>2021-03-28T12:26:23.000Z</time>
      </trkpt>
      <trkpt lat="47.25581" lon="4.90936">
        <ele>552</ele>
        <time>2021-03-28T12:26:34.000Z</time>
      </trkpt>
      <trkpt lat="47.25582" lon="4.90918">
        <ele>554</ele>
        <time>2021-03-28T12:26:42.000Z</time>
      </trkpt>
      <trkpt lat="47.25586" lon="4.90903">
        <ele>551</ele>
        <time>2021-03-28T12:26:50.000Z</time>
      </trkpt>
      <trkpt lat="47.25591" lon="4.9089">
        <ele>554</ele>
        <time>2021-03-28T12:27:00.000Z</time>
      </trkpt>
      <trkpt lat="47.25597" lon="4.90876">
        <ele>555</ele>
        <time>2021-03-28T12:27:12.000Z</time>
      </trkpt>
      <trkpt lat="47.25601" lon="4.90862">
        <ele>552</ele>
        <time>2021-03-28T12:27:21.000Z</time>
      </trkpt>
      <trkpt lat="47.25608" lon="4.90849">
        <ele>547</ele>
        <time>2021-03-28T12:27:33.000Z</time>
      </trkpt>
      <trkpt lat="47.25613" lon="4.90837">
        <ele>553</ele>
        <time>2021-03-28T12:27:39.000Z</time>
      </trkpt>
      <trkpt lat="47.25625" lon="4.90833">
        <ele>550</ele>
        <time>2021-03-28T12:29:07.000Z</time>
      </trkpt>
      <trkpt lat="47.25636" lon="4.90827">
        <ele>551</ele>
        <time>2021-03-28T12:29:19.000Z</time>
      </trkpt>
      <trkpt lat="47.25626" lon="4.90842">
        <ele>545</ele>
        <time>2021-03-28T12:49:31.000Z</time>
      </trkpt>
      <trkpt lat="47.25617" lon="4.90844">
        <ele>549</ele>
        <time>2021-03-28T12:49:39.000Z</time>
      </trkpt>
      <trkpt lat="47.25607" lon="4.9084">
        <ele>555</ele>
        <time>2021-03-28T12:50:28.000Z</time>
      </trkpt>
      <trkpt lat="47.25599" lon="4.90848">
        <ele>557</ele>
        <time>2021-03-28T12:50:48.000Z</time>
      </trkpt>
      <trkpt lat="47.25597" lon="4.90863">
        <ele>556</ele>
        <time>2021-03-28T12:50:54.000Z</time>
      </trkpt>
      <trkpt lat="47.25596" lon="4.90878">
        <ele>556</ele>
        <time>2021-03-28T12:51:15.000Z</time>
      </trkpt>
      <trkpt lat="47.25593" lon="4.90894">
        <ele>559</ele>
        <time>2021-03-28T12:51:24.000Z</time>
      </trkpt>
      <trkpt lat="47.25588" lon="4.90905">
        <ele>558</ele>
        <time>2021-03-28T12:51:30.000Z</time>
      </trkpt>
      <trkpt lat="47.25585" lon="4.90923">
        <ele>558</ele>
        <time>2021-03-28T12:51:39.000Z</time>
      </trkpt>
      <trkpt lat="47.25584" lon="4.90933">
        <ele>503</ele>
      </trkpt>
      <trkpt lat="47.25582" lon="4.90943">
        <ele>503</ele>
      </trkpt>
      <trkpt lat="47.25578" lon="4.90952">
        <ele>502.9</ele>
      </trkpt>
      <trkpt lat="47.25572" lon="4.90964">
        <ele>560</ele>
        <time>2021-03-28T12:52:06.000Z</time>
      </trkpt>
      <trkpt lat="47.2557" lon="4.90979">
        <ele>557</ele>
        <time>2021-03-28T12:52:15.000Z</time>
      </trkpt>
      <trkpt lat="47.2557" lon="4.90994">
        <ele>554</ele>
        <time>2021-03-28T12:52:27.000Z</time>
      </trkpt>
      <trkpt lat="47.25566" lon="4.9101">
        <ele>557</ele>
        <time>2021-03-28T12:52:36.000Z</time>
      </trkpt>
      <trkpt lat="47.25566" lon="4.91029">
        <ele>558</ele>
        <time>2021-03-28T12:52:42.000Z</time>
      </trkpt>
      <trkpt lat="47.25564" lon="4.91043">
        <ele>558</ele>
        <time>2021-03-28T12:52:50.000Z</time>
      </trkpt>
      <trkpt lat="47.25561" lon="4.91056">
        <ele>556</ele>
        <time>2021-03-28T12:52:56.000Z</time>
      </trkpt>
      <trkpt lat="47.25555" lon="4.91073">
        <ele>554</ele>
        <time>2021-03-28T12:53:52.000Z</time>
      </trkpt>
      <trkpt lat="47.25552" lon="4.91087">
        <ele>557</ele>
        <time>2021-03-28T12:53:55.000Z</time>
      </trkpt>
      <trkpt lat="47.25549" lon="4.91102">
        <ele>560</ele>
        <time>2021-03-28T12:54:01.000Z</time>
      </trkpt>
      <trkpt lat="47.25545" lon="4.91124">
        <ele>561</ele>
        <time>2021-03-28T12:54:12.000Z</time>
      </trkpt>
      <trkpt lat="47.25542" lon="4.91142">
        <ele>565</ele>
        <time>2021-03-28T12:54:18.000Z</time>
      </trkpt>
      <trkpt lat="47.25534" lon="4.91154">
        <ele>563</ele>
        <time>2021-03-28T12:54:24.000Z</time>
      </trkpt>
      <trkpt lat="47.25526" lon="4.91166">
        <ele>561</ele>
        <time>2021-03-28T12:54:30.000Z</time>
      </trkpt>
      <trkpt lat="47.25522" lon="4.91183">
        <ele>564</ele>
        <time>2021-03-28T12:54:36.000Z</time>
      </trkpt>
      <trkpt lat="47.25521" lon="4.91198">
        <ele>565</ele>
        <time>2021-03-28T12:54:42.000Z</time>
      </trkpt>
      <trkpt lat="47.25517" lon="4.91211">
        <ele>568</ele>
        <time>2021-03-28T12:54:50.000Z</time>
      </trkpt>
      <trkpt lat="47.25512" lon="4.91228">
        <ele>567</ele>
        <time>2021-03-28T12:55:04.000Z</time>
      </trkpt>
      <trkpt lat="47.25505" lon="4.91244">
        <ele>559</ele>
        <time>2021-03-28T12:55:16.000Z</time>
      </trkpt>
      <trkpt lat="47.25501" lon="4.91259">
        <ele>557</ele>
        <time>2021-03-28T12:55:24.000Z</time>
      </trkpt>
      <trkpt lat="47.25494" lon="4.9127">
        <ele>558</ele>
        <time>2021-03-28T12:55:30.000Z</time>
      </trkpt>
      <trkpt lat="47.25496" lon="4.91283">
        <ele>555</ele>
        <time>2021-03-28T12:55:59.000Z</time>
      </trkpt>
      <trkpt lat="47.25487" lon="4.913">
        <ele>542</ele>
        <time>2021-03-28T12:56:20.000Z</time>
      </trkpt>
      <trkpt lat="47.25482" lon="4.91318">
        <ele>554</ele>
        <time>2021-03-28T12:56:29.000Z</time>
      </trkpt>
      <trkpt lat="47.25483" lon="4.91333">
        <ele>553</ele>
        <time>2021-03-28T12:56:35.000Z</time>
      </trkpt>
      <trkpt lat="47.2547" lon="4.91333">
        <ele>554</ele>
        <time>2021-03-28T12:56:41.000Z</time>
      </trkpt>
      <trkpt lat="47.25474" lon="4.91347">
        <ele>560</ele>
        <time>2021-03-28T12:56:50.000Z</time>
      </trkpt>
      <trkpt lat="47.25474" lon="4.91364">
        <ele>561</ele>
        <time>2021-03-28T12:57:05.000Z</time>
      </trkpt>
      <trkpt lat="47.25476" lon="4.91377">
        <ele>563</ele>
        <time>2021-03-28T12:57:14.000Z</time>
      </trkpt>
      <trkpt lat="47.25466" lon="4.91377">
        <ele>559</ele>
        <time>2021-03-28T12:57:24.000Z</time>
      </trkpt>
      <trkpt lat="47.25457" lon="4.91367">
        <ele>559</ele>
        <time>2021-03-28T12:57:34.000Z</time>
      </trkpt>
      <trkpt lat="47.25447" lon="4.91359">
        <ele>559</ele>
        <time>2021-03-28T12:57:46.000Z</time>
      </trkpt>
      <trkpt lat="47.25437" lon="4.91355">
        <ele>558</ele>
        <time>2021-03-28T12:57:49.000Z</time>
      </trkpt>
      <trkpt lat="47.25426" lon="4.91351">
        <ele>560</ele>
        <time>2021-03-28T12:57:52.000Z</time>
      </trkpt>
      <trkpt lat="47.25419" lon="4.91343">
        <ele>562</ele>
        <time>2021-03-28T12:58:07.000Z</time>
      </trkpt>
      <trkpt lat="47.25409" lon="4.91348">
        <ele>562</ele>
        <time>2021-03-28T12:58:29.000Z</time>
      </trkpt>
      <trkpt lat="47.25404" lon="4.91364">
        <ele>555</ele>
        <time>2021-03-28T12:59:08.000Z</time>
      </trkpt>
      <trkpt lat="47.25397" lon="4.91374">
        <ele>558</ele>
        <time>2021-03-28T12:59:20.000Z</time>
      </trkpt>
      <trkpt lat="47.25389" lon="4.91383">
        <ele>549</ele>
        <time>2021-03-28T12:59:26.000Z</time>
      </trkpt>
      <trkpt lat="47.2538" lon="4.91398">
        <ele>547</ele>
        <time>2021-03-28T12:59:32.000Z</time>
      </trkpt>
      <trkpt lat="47.25377" lon="4.91414">
        <ele>546</ele>
        <time>2021-03-28T12:59:38.000Z</time>
      </trkpt>
      <trkpt lat="47.2537" lon="4.91422">
        <ele>548</ele>
        <time>2021-03-28T12:59:43.000Z</time>
      </trkpt>
      <trkpt lat="47.25364" lon="4.91435">
        <ele>552</ele>
        <time>2021-03-28T12:59:58.000Z</time>
      </trkpt>
      <trkpt lat="47.2536" lon="4.91448">
        <ele>553</ele>
        <time>2021-03-28T13:00:14.000Z</time>
      </trkpt>
      <trkpt lat="47.25357" lon="4.91464">
        <ele>556</ele>
        <time>2021-03-28T13:00:21.000Z</time>
      </trkpt>
      <trkpt lat="47.25347" lon="4.91483">
        <ele>555</ele>
        <time>2021-03-28T13:00:27.000Z</time>
      </trkpt>
      <trkpt lat="47.25342" lon="4.91499">
        <ele>554</ele>
        <time>2021-03-28T13:00:32.000Z</time>
      </trkpt>
      <trkpt lat="47.25335" lon="4.91511">
        <ele>557</ele>
        <time>2021-03-28T13:00:45.000Z</time>
      </trkpt>
      <trkpt lat="47.25328" lon="4.91522">
        <ele>551</ele>
        <time>2021-03-28T13:00:57.000Z</time>
      </trkpt>
      <trkpt lat="47.25321" lon="4.91533">
        <ele>551</ele>
        <time>2021-03-28T13:01:02.000Z</time>
      </trkpt>
      <trkpt lat="47.25317" lon="4.91549">
        <ele>552</ele>
        <time>2021-03-28T13:01:08.000Z</time>
      </trkpt>
      <trkpt lat="47.25316" lon="4.91566">
        <ele>554</ele>
        <time>2021-03-28T13:01:14.000Z</time>
      </trkpt>
      <trkpt lat="47.25314" lon="4.91581">
        <ele>557</ele>
        <time>2021-03-28T13:01:20.000Z</time>
      </trkpt>
      <trkpt lat="47.25315" lon="4.91597">
        <ele>560</ele>
        <time>2021-03-28T13:01:26.000Z</time>
      </trkpt>
      <trkpt lat="47.25314" lon="4.91616">
        <ele>559</ele>
        <time>2021-03-28T13:01:35.000Z</time>
      </trkpt>
      <trkpt lat="47.25307" lon="4.91626">
        <ele>561</ele>
        <time>2021-03-28T13:01:43.000Z</time>
      </trkpt>
      <trkpt lat="47.25307" lon="4.91643">
        <ele>562</ele>
        <time>2021-03-28T13:01:53.000Z</time>
      </trkpt>
      <trkpt lat="47.25306" lon="4.91658">
        <ele>564</ele>
        <time>2021-03-28T13:02:05.000Z</time>
      </trkpt>
      <trkpt lat="47.25299" lon="4.91661">
        <ele>556</ele>
        <time>2021-03-28T13:04:09.000Z</time>
      </trkpt>
      <trkpt lat="47.2529" lon="4.91654">
        <ele>556</ele>
        <time>2021-03-28T13:04:27.000Z</time>
      </trkpt>
      <trkpt lat="47.25283" lon="4.91647">
        <ele>555</ele>
        <time>2021-03-28T13:04:37.000Z</time>
      </trkpt>
      <trkpt lat="47.25273" lon="4.91653">
        <ele>560</ele>
        <time>2021-03-28T13:05:20.000Z</time>
      </trkpt>
      <trkpt lat="47.25269" lon="4.91666">
        <ele>563</ele>
        <time>2021-03-28T13:05:29.000Z</time>
      </trkpt>
      <trkpt lat="47.25263" lon="4.91676">
        <ele>559</ele>
        <time>2021-03-28T13:05:41.000Z</time>
      </trkpt>
      <trkpt lat="47.25258" lon="4.91687">
        <ele>559</ele>
        <time>2021-03-28T13:05:50.000Z</time>
      </trkpt>
      <trkpt lat="47.25251" lon="4.91702">
        <ele>508.5</ele>
      </trkpt>
      <trkpt lat="47.25245" lon="4.91711">
        <ele>570</ele>
        <time>2021-03-28T13:06:08.000Z</time>
      </trkpt>
      <trkpt lat="47.25234" lon="4.91719">
        <ele>565</ele>
        <time>2021-03-28T13:06:20.000Z</time>
      </trkpt>
      <trkpt lat="47.25226" lon="4.9173">
        <ele>570</ele>
        <time>2021-03-28T13:06:35.000Z</time>
      </trkpt>
      <trkpt lat="47.25221" lon="4.91745">
        <ele>567</ele>
        <time>2021-03-28T13:06:47.000Z</time>
      </trkpt>
      <trkpt lat="47.25216" lon="4.91756">
        <ele>572</ele>
        <time>2021-03-28T13:06:59.000Z</time>
      </trkpt>
      <trkpt lat="47.25206" lon="4.91765">
        <ele>561</ele>
        <time>2021-03-28T13:07:30.000Z</time>
      </trkpt>
      <trkpt lat="47.25198" lon="4.91775">
        <ele>560</ele>
        <time>2021-03-28T13:07:36.000Z</time>
      </trkpt>
      <trkpt lat="47.25194" lon="4.91789">
        <ele>564</ele>
        <time>2021-03-28T13:07:45.000Z</time>
      </trkpt>
      <trkpt lat="47.25185" lon="4.91804">
        <ele>566</ele>
        <time>2021-03-28T13:07:54.000Z</time>
      </trkpt>
      <trkpt lat="47.25177" lon="4.91818">
        <ele>563</ele>
        <time>2021-03-28T13:08:03.000Z</time>
      </trkpt>
      <trkpt lat="47.2517" lon="4.91827">
        <ele>562</ele>
        <time>2021-03-28T13:08:12.000Z</time>
      </trkpt>
      <trkpt lat="47.25169" lon="4.91842">
        <ele>561</ele>
        <time>2021-03-28T13:08:21.000Z</time>
      </trkpt>
      <trkpt lat="47.25162" lon="4.91853">
        <ele>556</ele>
        <time>2021-03-28T13:08:33.000Z</time>
      </trkpt>
      <trkpt lat="47.25157" lon="4.91865">
        <ele>558</ele>
        <time>2021-03-28T13:08:42.000Z</time>
      </trkpt>
      <trkpt lat="47.25153" lon="4.91878">
        <ele>553</ele>
        <time>2021-03-28T13:08:51.000Z</time>
      </trkpt>
      <trkpt lat="47.25149" lon="4.9189">
        <ele>553</ele>
        <time>2021-03-28T13:09:06.000Z</time>
      </trkpt>
      <trkpt lat="47.25145" lon="4.91906">
        <ele>550</ele>
        <time>2021-03-28T13:09:27.000Z</time>
      </trkpt>
      <trkpt lat="47.25144" lon="4.91921">
        <ele>548</ele>
        <time>2021-03-28T13:09:33.000Z</time>
      </trkpt>
      <trkpt lat="47.25142" lon="4.91939">
        <ele>549</ele>
        <time>2021-03-28T13:09:39.000Z</time>
      </trkpt>
      <trkpt lat="47.25134" lon="4.91954">
        <ele>553</ele>
        <time>2021-03-28T13:09:45.000Z</time>
      </trkpt>
      <trkpt lat="47.25129" lon="4.91968">
        <ele>553</ele>
        <time>2021-03-28T13:09:54.000Z</time>
      </trkpt>
      <trkpt lat="47.25123" lon="4.91984">
        <ele>558</ele>
        <time>2021-03-28T13:10:00.000Z</time>
      </trkpt>
      <trkpt lat="47.25122" lon="4.91999">
        <ele>564</ele>
        <time>2021-03-28T13:10:09.000Z</time>
      </trkpt>
      <trkpt lat="47.25124" lon="4.92012">
        <ele>565</ele>
        <time>2021-03-28T13:10:27.000Z</time>
      </trkpt>
      <trkpt lat="47.25119" lon="4.92031">
        <ele>563</ele>
        <time>2021-03-28T13:10:48.000Z</time>
      </trkpt>
      <trkpt lat="47.25117" lon="4.92051">
        <ele>562</ele>
        <time>2021-03-28T13:10:54.000Z</time>
      </trkpt>
      <trkpt lat="47.2511" lon="4.92066">
        <ele>561</ele>
        <time>2021-03-28T13:11:00.000Z</time>
      </trkpt>
      <trkpt lat="47.25109" lon="4.92084">
        <ele>560</ele>
        <time>2021-03-28T13:11:09.000Z</time>
      </trkpt>
      <trkpt lat="47.25115" lon="4.92101">
        <ele>562</ele>
        <time>2021-03-28T13:11:15.000Z</time>
      </trkpt>
      <trkpt lat="47.25112" lon="4.92114">
        <ele>567</ele>
        <time>2021-03-28T13:11:44.000Z</time>
      </trkpt>
      <trkpt lat="47.25111" lon="4.92132">
        <ele>566</ele>
        <time>2021-03-28T13:11:57.000Z</time>
      </trkpt>
      <trkpt lat="47.25109" lon="4.92149">
        <ele>563</ele>
        <time>2021-03-28T13:12:13.000Z</time>
      </trkpt>
      <trkpt lat="47.25106" lon="4.92167">
        <ele>566</ele>
        <time>2021-03-28T13:12:22.000Z</time>
      </trkpt>
      <trkpt lat="47.25109" lon="4.9218">
        <ele>563</ele>
        <time>2021-03-28T13:12:34.000Z</time>
      </trkpt>
      <trkpt lat="47.25113" lon="4.92196">
        <ele>565</ele>
        <time>2021-03-28T13:12:43.000Z</time>
      </trkpt>
      <trkpt lat="47.25118" lon="4.92211">
        <ele>563</ele>
        <time>2021-03-28T13:12:54.000Z</time>
      </trkpt>
      <trkpt lat="47.25116" lon="4.92224">
        <ele>562</ele>
        <time>2021-03-28T13:13:03.000Z</time>
      </trkpt>
      <trkpt lat="47.25114" lon="4.9224">
        <ele>568</ele>
        <time>2021-03-28T13:13:12.000Z</time>
      </trkpt>
      <trkpt lat="47.25116" lon="4.92254">
        <ele>563</ele>
        <time>2021-03-28T13:13:24.000Z</time>
      </trkpt>
      <trkpt lat="47.25116" lon="4.9227">
        <ele>564</ele>
        <time>2021-03-28T13:13:33.000Z</time>
      </trkpt>
      <trkpt lat="47.25117" lon="4.92289">
        <ele>567</ele>
        <time>2021-03-28T13:13:45.000Z</time>
      </trkpt>
      <trkpt lat="47.25116" lon="4.92303">
        <ele>568</ele>
        <time>2021-03-28T13:13:51.000Z</time>
      </trkpt>
      <trkpt lat="47.2511" lon="4.92315">
        <ele>564</ele>
        <time>2021-03-28T13:13:57.000Z</time>
      </trkpt>
      <trkpt lat="47.25114" lon="4.9233">
        <ele>564</ele>
        <time>2021-03-28T13:14:26.000Z</time>
      </trkpt>
      <trkpt lat="47.25117" lon="4.92348">
        <ele>569</ele>
        <time>2021-03-28T13:14:32.000Z</time>
      </trkpt>
      <trkpt lat="47.25119" lon="4.92367">
        <ele>567</ele>
        <time>2021-03-28T13:14:39.000Z</time>
      </trkpt>
      <trkpt lat="47.25119" lon="4.92386">
        <ele>569</ele>
        <time>2021-03-28T13:14:48.000Z</time>
      </trkpt>
      <trkpt lat="47.25119" lon="4.92402">
        <ele>561</ele>
        <time>2021-03-28T13:15:00.000Z</time>
      </trkpt>
      <trkpt lat="47.25122" lon="4.9242">
        <ele>567</ele>
        <time>2021-03-28T13:15:40.000Z</time>
      </trkpt>
      <trkpt lat="47.2512" lon="4.92438">
        <ele>567</ele>
        <time>2021-03-28T13:15:52.000Z</time>
      </trkpt>
      <trkpt lat="47.25122" lon="4.92453">
        <ele>568</ele>
        <time>2021-03-28T13:15:58.000Z</time>
      </trkpt>
      <trkpt lat="47.25122" lon="4.9247">
        <ele>569</ele>
        <time>2021-03-28T13:16:07.000Z</time>
      </trkpt>
      <trkpt lat="47.25117" lon="4.92487">
        <ele>567</ele>
        <time>2021-03-28T13:16:16.000Z</time>
      </trkpt>
      <trkpt lat="47.2512" lon="4.92502">
        <ele>564</ele>
        <time>2021-03-28T13:16:31.000Z</time>
      </trkpt>
      <trkpt lat="47.25119" lon="4.92519">
        <ele>563</ele>
        <time>2021-03-28T13:16:40.000Z</time>
      </trkpt>
      <trkpt lat="47.25113" lon="4.92529">
        <ele>563</ele>
        <time>2021-03-28T13:16:46.000Z</time>
      </trkpt>
      <trkpt lat="47.25109" lon="4.92543">
        <ele>568</ele>
        <time>2021-03-28T13:16:52.000Z</time>
      </trkpt>
      <trkpt lat="47.25105" lon="4.92557">
        <ele>569</ele>
        <time>2021-03-28T13:17:01.000Z</time>
      </trkpt>
      <trkpt lat="47.25095" lon="4.92559">
        <ele>568</ele>
        <time>2021-03-28T13:17:57.000Z</time>
      </trkpt>
      <trkpt lat="47.25102" lon="4.92572">
        <ele>573</ele>
        <time>2021-03-28T13:19:25.000Z</time>
      </trkpt>
      <trkpt lat="47.25105" lon="4.92586">
        <ele>572</ele>
        <time>2021-03-28T13:19:36.000Z</time>
      </trkpt>
      <trkpt lat="47.25108" lon="4.92605">
        <ele>578</ele>
        <time>2021-03-28T13:20:03.000Z</time>
      </trkpt>
      <trkpt lat="47.2511" lon="4.92623">
        <ele>573</ele>
        <time>2021-03-28T13:20:12.000Z</time>
      </trkpt>
      <trkpt lat="47.25112" lon="4.92636">
        <ele>572</ele>
        <time>2021-03-28T13:20:18.000Z</time>
      </trkpt>
      <trkpt lat="47.25118" lon="4.92652">
        <ele>568</ele>
        <time>2021-03-28T13:20:30.000Z</time>
      </trkpt>
      <trkpt lat="47.25117" lon="4.92665">
        <ele>570</ele>
        <time>2021-03-28T13:20:36.000Z</time>
      </trkpt>
      <trkpt lat="47.25121" lon="4.92684">
        <ele>562</ele>
        <time>2021-03-28T13:20:50.000Z</time>
      </trkpt>
      <trkpt lat="47.25123" lon="4.92699">
        <ele>567</ele>
        <time>2021-03-28T13:20:56.000Z</time>
      </trkpt>
      <trkpt lat="47.25123" lon="4.92713">
        <ele>568</ele>
        <time>2021-03-28T13:21:05.000Z</time>
      </trkpt>
      <trkpt lat="47.25118" lon="4.92727">
        <ele>567</ele>
        <time>2021-03-28T13:21:14.000Z</time>
      </trkpt>
      <trkpt lat="47.25112" lon="4.92741">
        <ele>567</ele>
        <time>2021-03-28T13:21:23.000Z</time>
      </trkpt>
      <trkpt lat="47.25109" lon="4.92757">
        <ele>568</ele>
        <time>2021-03-28T13:21:35.000Z</time>
      </trkpt>
      <trkpt lat="47.25103" lon="4.92774">
        <ele>568</ele>
        <time>2021-03-28T13:21:45.000Z</time>
      </trkpt>
      <trkpt lat="47.25099" lon="4.9279">
        <ele>569</ele>
        <time>2021-03-28T13:21:54.000Z</time>
      </trkpt>
      <trkpt lat="47.25101" lon="4.92804">
        <ele>570</ele>
        <time>2021-03-28T13:22:03.000Z</time>
      </trkpt>
      <trkpt lat="47.25102" lon="4.92818">
        <ele>570</ele>
        <time>2021-03-28T13:22:12.000Z</time>
      </trkpt>
      <trkpt lat="47.25108" lon="4.92828">
        <ele>571</ele>
        <time>2021-03-28T13:22:21.000Z</time>
      </trkpt>
      <trkpt lat="47.25105" lon="4.92842">
        <ele>570</ele>
        <time>2021-03-28T13:22:31.000Z</time>
      </trkpt>
      <trkpt lat="47.25103" lon="4.9286">
        <ele>575</ele>
        <time>2021-03-28T13:22:40.000Z</time>
      </trkpt>
      <trkpt lat="47.25102" lon="4.92874">
        <ele>577</ele>
        <time>2021-03-28T13:22:48.000Z</time>
      </trkpt>
      <trkpt lat="47.25102" lon="4.92888">
        <ele>574</ele>
        <time>2021-03-28T13:23:14.000Z</time>
      </trkpt>
      <trkpt lat="47.25104" lon="4.92903">
        <ele>575</ele>
        <time>2021-03-28T13:23:26.000Z</time>
      </trkpt>
      <trkpt lat="47.25102" lon="4.92918">
        <ele>573</ele>
        <time>2021-03-28T13:23:35.000Z</time>
      </trkpt>
      <trkpt lat="47.25102" lon="4.92936">
        <ele>569</ele>
        <time>2021-03-28T13:23:50.000Z</time>
      </trkpt>
      <trkpt lat="47.251" lon="4.92952">
        <ele>572</ele>
        <time>2021-03-28T13:23:59.000Z</time>
      </trkpt>
      <trkpt lat="47.25099" lon="4.92966">
        <ele>572</ele>
        <time>2021-03-28T13:24:05.000Z</time>
      </trkpt>
      <trkpt lat="47.25102" lon="4.92979">
        <ele>573</ele>
        <time>2021-03-28T13:24:17.000Z</time>
      </trkpt>
      <trkpt lat="47.25102" lon="4.92996">
        <ele>571</ele>
        <time>2021-03-28T13:24:29.000Z</time>
      </trkpt>
      <trkpt lat="47.25105" lon="4.93014">
        <ele>572</ele>
        <time>2021-03-28T13:24:38.000Z</time>
      </trkpt>
      <trkpt lat="47.25106" lon="4.93028">
        <ele>574</ele>
        <time>2021-03-28T13:24:44.000Z</time>
      </trkpt>
      <trkpt lat="47.25108" lon="4.93042">
        <ele>573</ele>
        <time>2021-03-28T13:24:59.000Z</time>
      </trkpt>
      <trkpt lat="47.25104" lon="4.93054">
        <ele>572</ele>
        <time>2021-03-28T13:25:05.000Z</time>
      </trkpt>
      <trkpt lat="47.25104" lon="4.93069">
        <ele>576</ele>
        <time>2021-03-28T13:25:13.000Z</time>
      </trkpt>
      <trkpt lat="47.25101" lon="4.93088">
        <ele>583</ele>
        <time>2021-03-28T13:25:24.000Z</time>
      </trkpt>
      <trkpt lat="47.25099" lon="4.93102">
        <ele>584</ele>
        <time>2021-03-28T13:25:30.000Z</time>
      </trkpt>
      <trkpt lat="47.25099" lon="4.93119">
        <ele>585</ele>
        <time>2021-03-28T13:25:36.000Z</time>
      </trkpt>
      <trkpt lat="47.25097" lon="4.93133">
        <ele>583</ele>
        <time>2021-03-28T13:25:45.000Z</time>
      </trkpt>
      <trkpt lat="47.25097" lon="4.93148">
        <ele>581</ele>
        <time>2021-03-28T13:25:57.000Z</time>
      </trkpt>
      <trkpt lat="47.25094" lon="4.93162">
        <ele>581</ele>
        <time>2021-03-28T13:26:06.000Z</time>
      </trkpt>
      <trkpt lat="47.25089" lon="4.93178">
        <ele>583</ele>
        <time>2021-03-28T13:26:17.000Z</time>
      </trkpt>
      <trkpt lat="47.25088" lon="4.93193">
        <ele>586</ele>
        <time>2021-03-28T13:26:26.000Z</time>
      </trkpt>
      <trkpt lat="47.25088" lon="4.93208">
        <ele>587</ele>
        <time>2021-03-28T13:26:33.000Z</time>
      </trkpt>
      <trkpt lat="47.25083" lon="4.93222">
        <ele>583</ele>
        <time>2021-03-28T13:26:42.000Z</time>
      </trkpt>
      <trkpt lat="47.25079" lon="4.93235">
        <ele>580</ele>
        <time>2021-03-28T13:26:51.000Z</time>
      </trkpt>
      <trkpt lat="47.25077" lon="4.93249">
        <ele>576</ele>
        <time>2021-03-28T13:27:03.000Z</time>
      </trkpt>
      <trkpt lat="47.25071" lon="4.93266">
        <ele>575</ele>
        <time>2021-03-28T13:27:15.000Z</time>
      </trkpt>
      <trkpt lat="47.25064" lon="4.9328">
        <ele>577</ele>
        <time>2021-03-28T13:27:24.000Z</time>
      </trkpt>
      <trkpt lat="47.25064" lon="4.93296">
        <ele>577</ele>
        <time>2021-03-28T13:27:33.000Z</time>
      </trkpt>
      <trkpt lat="47.2506" lon="4.9331">
        <ele>576</ele>
        <time>2021-03-28T13:27:40.000Z</time>
      </trkpt>
      <trkpt lat="47.25056" lon="4.93324">
        <ele>575</ele>
        <time>2021-03-28T13:27:49.000Z</time>
      </trkpt>
      <trkpt lat="47.25052" lon="4.93337">
        <ele>573</ele>
        <time>2021-03-28T13:27:55.000Z</time>
      </trkpt>
      <trkpt lat="47.25045" lon="4.93346">
        <ele>573</ele>
        <time>2021-03-28T13:28:05.000Z</time>
      </trkpt>
      <trkpt lat="47.2504" lon="4.9336">
        <ele>574</ele>
        <time>2021-03-28T13:28:14.000Z</time>
      </trkpt>
      <trkpt lat="47.25039" lon="4.93376">
        <ele>574</ele>
        <time>2021-03-28T13:28:23.000Z</time>
      </trkpt>
      <trkpt lat="47.25038" lon="4.93392">
        <ele>576</ele>
        <time>2021-03-28T13:28:32.000Z</time>
      </trkpt>
      <trkpt lat="47.25035" lon="4.93407">
        <ele>573</ele>
        <time>2021-03-28T13:28:42.000Z</time>
      </trkpt>
      <trkpt lat="47.25029" lon="4.93417">
        <ele>569</ele>
        <time>2021-03-28T13:28:51.000Z</time>
      </trkpt>
      <trkpt lat="47.25021" lon="4.93431">
        <ele>569</ele>
        <time>2021-03-28T13:29:00.000Z</time>
      </trkpt>
      <trkpt lat="47.25022" lon="4.93449">
        <ele>568</ele>
        <time>2021-03-28T13:29:11.000Z</time>
      </trkpt>
      <trkpt lat="47.25019" lon="4.93463">
        <ele>565</ele>
        <time>2021-03-28T13:29:20.000Z</time>
      </trkpt>
      <trkpt lat="47.25019" lon="4.93481">
        <ele>563</ele>
        <time>2021-03-28T13:29:38.000Z</time>
      </trkpt>
      <trkpt lat="47.25016" lon="4.93494">
        <ele>558</ele>
        <time>2021-03-28T13:29:44.000Z</time>
      </trkpt>
      <trkpt lat="47.25015" lon="4.93513">
        <ele>556</ele>
        <time>2021-03-28T13:29:53.000Z</time>
      </trkpt>
      <trkpt lat="47.25013" lon="4.9353">
        <ele>552</ele>
        <time>2021-03-28T13:30:02.000Z</time>
      </trkpt>
      <trkpt lat="47.25005" lon="4.93536">
        <ele>553</ele>
        <time>2021-03-28T13:30:44.000Z</time>
      </trkpt>
      <trkpt lat="47.24995" lon="4.93536">
        <ele>545</ele>
        <time>2021-03-28T13:30:58.000Z</time>
      </trkpt>
      <trkpt lat="47.24985" lon="4.93536">
        <ele>546</ele>
        <time>2021-03-28T13:31:04.000Z</time>
      </trkpt>
      <trkpt lat="47.24976" lon="4.93534">
        <ele>547</ele>
        <time>2021-03-28T13:31:30.000Z</time>
      </trkpt>
      <trkpt lat="47.24963" lon="4.9353">
        <ele>540</ele>
        <time>2021-03-28T13:31:39.000Z</time>
      </trkpt>
      <trkpt lat="47.24951" lon="4.93527">
        <ele>539</ele>
        <time>2021-03-28T13:31:45.000Z</time>
      </trkpt>
      <trkpt lat="47.24941" lon="4.93527">
        <ele>539</ele>
        <time>2021-03-28T13:31:50.000Z</time>
      </trkpt>
      <trkpt lat="47.24931" lon="4.93527">
        <ele>538</ele>
        <time>2021-03-28T13:31:55.000Z</time>
      </trkpt>
      <trkpt lat="47.24921" lon="4.93526">
        <ele>539</ele>
        <time>2021-03-28T13:32:00.000Z</time>
      </trkpt>
      <trkpt lat="47.24911" lon="4.93519">
        <ele>539</ele>
        <time>2021-03-28T13:32:08.000Z</time>
      </trkpt>
      <trkpt lat="47.24896" lon="4.93522">
        <ele>538</ele>
        <time>2021-03-28T13:32:36.000Z</time>
      </trkpt>
      <trkpt lat="47.24886" lon="4.9352">
        <ele>541</ele>
        <time>2021-03-28T13:32:43.000Z</time>
      </trkpt>
      <trkpt lat="47.24874" lon="4.93518">
        <ele>548</ele>
        <time>2021-03-28T13:32:51.000Z</time>
      </trkpt>
      <trkpt lat="47.24865" lon="4.93515">
        <ele>545</ele>
        <time>2021-03-28T13:32:56.000Z</time>
      </trkpt>
      <trkpt lat="47.24854" lon="4.93511">
        <ele>542</ele>
        <time>2021-03-28T13:33:03.000Z</time>
      </trkpt>
      <trkpt lat="47.2484" lon="4.93509">
        <ele>542</ele>
        <time>2021-03-28T13:33:13.000Z</time>
      </trkpt>
      <trkpt lat="47.24829" lon="4.9351">
        <ele>544</ele>
        <time>2021-03-28T13:33:17.000Z</time>
      </trkpt>
      <trkpt lat="47.24818" lon="4.93511">
        <ele>541</ele>
        <time>2021-03-28T13:33:24.000Z</time>
      </trkpt>
      <trkpt lat="47.24806" lon="4.93505">
        <ele>531</ele>
        <time>2021-03-28T13:33:32.000Z</time>
      </trkpt>
      <trkpt lat="47.24796" lon="4.93508">
        <ele>540</ele>
        <time>2021-03-28T13:33:38.000Z</time>
      </trkpt>
      <trkpt lat="47.24786" lon="4.93514">
        <ele>544</ele>
        <time>2021-03-28T13:33:44.000Z</time>
      </trkpt>
      <trkpt lat="47.24775" lon="4.93517">
        <ele>547</ele>
        <time>2021-03-28T13:33:55.000Z</time>
      </trkpt>
      <trkpt lat="47.24767" lon="4.9351">
        <ele>547</ele>
        <time>2021-03-28T13:34:02.000Z</time>
      </trkpt>
      <trkpt lat="47.2476" lon="4.93521">
        <ele>535</ele>
        <time>2021-03-28T13:34:10.000Z</time>
      </trkpt>
      <trkpt lat="47.24755" lon="4.93532">
        <ele>545</ele>
        <time>2021-03-28T13:34:14.000Z</time>
      </trkpt>
      <trkpt lat="47.24749" lon="4.93542">
        <ele>547</ele>
        <time>2021-03-28T13:34:22.000Z</time>
      </trkpt>
      <trkpt lat="47.24745" lon="4.93555">
        <ele>550</ele>
        <time>2021-03-28T13:34:29.000Z</time>
      </trkpt>
      <trkpt lat="47.24742" lon="4.93568">
        <ele>550</ele>
        <time>2021-03-28T13:34:38.000Z</time>
      </trkpt>
      <trkpt lat="47.24738" lon="4.93581">
        <ele>519</ele>
        <time>2021-03-28T13:34:53.000Z</time>
      </trkpt>
      <trkpt lat="47.24731" lon="4.93592">
        <ele>545</ele>
        <time>2021-03-28T13:35:00.000Z</time>
      </trkpt>
      <trkpt lat="47.24724" lon="4.93601">
        <ele>549</ele>
        <time>2021-03-28T13:35:22.000Z</time>
      </trkpt>
      <trkpt lat="47.24715" lon="4.93618">
        <ele>544</ele>
        <time>2021-03-28T13:35:30.000Z</time>
      </trkpt>
      <trkpt lat="47.24711" lon="4.93636">
        <ele>544</ele>
        <time>2021-03-28T13:35:36.000Z</time>
      </trkpt>
      <trkpt lat="47.24707" lon="4.9365">
        <ele>544</ele>
        <time>2021-03-28T13:35:44.000Z</time>
      </trkpt>
      <trkpt lat="47.24704" lon="4.93664">
        <ele>543</ele>
        <time>2021-03-28T13:35:51.000Z</time>
      </trkpt>
      <trkpt lat="47.24703" lon="4.93678">
        <ele>542</ele>
        <time>2021-03-28T13:36:02.000Z</time>
      </trkpt>
      <trkpt lat="47.24699" lon="4.93691">
        <ele>539</ele>
        <time>2021-03-28T13:36:11.000Z</time>
      </trkpt>
      <trkpt lat="47.24696" lon="4.93704">
        <ele>541</ele>
        <time>2021-03-28T13:36:19.000Z</time>
      </trkpt>
      <trkpt lat="47.24694" lon="4.93719">
        <ele>542</ele>
        <time>2021-03-28T13:36:26.000Z</time>
      </trkpt>
      <trkpt lat="47.2469" lon="4.93734">
        <ele>539</ele>
        <time>2021-03-28T13:36:35.000Z</time>
      </trkpt>
      <trkpt lat="47.24686" lon="4.93749">
        <ele>540</ele>
        <time>2021-03-28T13:36:47.000Z</time>
      </trkpt>
      <trkpt lat="47.24682" lon="4.93762">
        <ele>544</ele>
        <time>2021-03-28T13:36:58.000Z</time>
      </trkpt>
      <trkpt lat="47.24673" lon="4.9377">
        <ele>538</ele>
        <time>2021-03-28T13:37:06.000Z</time>
      </trkpt>
      <trkpt lat="47.24667" lon="4.93782">
        <ele>536</ele>
        <time>2021-03-28T13:37:19.000Z</time>
      </trkpt>
      <trkpt lat="47.24669" lon="4.93798">
        <ele>537</ele>
        <time>2021-03-28T13:38:49.000Z</time>
      </trkpt>
      <trkpt lat="47.24669" lon="4.93811">
        <ele>542</ele>
        <time>2021-03-28T13:38:59.000Z</time>
      </trkpt>
      <trkpt lat="47.24671" lon="4.93831">
        <ele>542</ele>
        <time>2021-03-28T13:39:07.000Z</time>
      </trkpt>
      <trkpt lat="47.2467" lon="4.93845">
        <ele>540</ele>
        <time>2021-03-28T13:39:15.000Z</time>
      </trkpt>
      <trkpt lat="47.24669" lon="4.93862">
        <ele>542</ele>
        <time>2021-03-28T13:39:26.000Z</time>
      </trkpt>
      <trkpt lat="47.24671" lon="4.93879">
        <ele>543</ele>
        <time>2021-03-28T13:39:33.000Z</time>
      </trkpt>
      <trkpt lat="47.24667" lon="4.93891">
        <ele>541</ele>
        <time>2021-03-28T13:39:44.000Z</time>
      </trkpt>
      <trkpt lat="47.2467" lon="4.93904">
        <ele>540</ele>
        <time>2021-03-28T13:40:07.000Z</time>
      </trkpt>
      <trkpt lat="47.24672" lon="4.9392">
        <ele>539</ele>
        <time>2021-03-28T13:40:11.000Z</time>
      </trkpt>
      <trkpt lat="47.24672" lon="4.93938">
        <ele>543</ele>
        <time>2021-03-28T13:40:17.000Z</time>
      </trkpt>
      <trkpt lat="47.2467" lon="4.93955">
        <ele>543</ele>
        <time>2021-03-28T13:40:24.000Z</time>
      </trkpt>
      <trkpt lat="47.24668" lon="4.93972">
        <ele>539</ele>
        <time>2021-03-28T13:40:35.000Z</time>
      </trkpt>
      <trkpt lat="47.24671" lon="4.93985">
        <ele>540</ele>
        <time>2021-03-28T13:40:43.000Z</time>
      </trkpt>
      <trkpt lat="47.24667" lon="4.94001">
        <ele>541</ele>
        <time>2021-03-28T13:40:51.000Z</time>
      </trkpt>
      <trkpt lat="47.24666" lon="4.94016">
        <ele>540</ele>
        <time>2021-03-28T13:40:57.000Z</time>
      </trkpt>
      <trkpt lat="47.24667" lon="4.9403">
        <ele>541</ele>
        <time>2021-03-28T13:41:06.000Z</time>
      </trkpt>
      <trkpt lat="47.24668" lon="4.94047">
        <ele>541</ele>
        <time>2021-03-28T13:41:17.000Z</time>
      </trkpt>
      <trkpt lat="47.2467" lon="4.9407">
        <ele>542</ele>
        <time>2021-03-28T13:41:23.000Z</time>
      </trkpt>
      <trkpt lat="47.24666" lon="4.94083">
        <ele>541</ele>
        <time>2021-03-28T13:41:34.000Z</time>
      </trkpt>
      <trkpt lat="47.24664" lon="4.94097">
        <ele>537</ele>
        <time>2021-03-28T13:41:45.000Z</time>
      </trkpt>
      <trkpt lat="47.24667" lon="4.9411">
        <ele>539</ele>
        <time>2021-03-28T13:41:49.000Z</time>
      </trkpt>
      <trkpt lat="47.24664" lon="4.94126">
        <ele>540</ele>
        <time>2021-03-28T13:42:00.000Z</time>
      </trkpt>
      <trkpt lat="47.24666" lon="4.94143">
        <ele>539</ele>
        <time>2021-03-28T13:42:11.000Z</time>
      </trkpt>
      <trkpt lat="47.24664" lon="4.94158">
        <ele>536</ele>
        <time>2021-03-28T13:42:22.000Z</time>
      </trkpt>
      <trkpt lat="47.2466" lon="4.94175">
        <ele>538</ele>
        <time>2021-03-28T13:42:31.000Z</time>
      </trkpt>
      <trkpt lat="47.24663" lon="4.9419">
        <ele>538</ele>
        <time>2021-03-28T13:42:41.000Z</time>
      </trkpt>
      <trkpt lat="47.24656" lon="4.94208">
        <ele>541</ele>
        <time>2021-03-28T13:42:49.000Z</time>
      </trkpt>
      <trkpt lat="47.24659" lon="4.94223">
        <ele>543</ele>
        <time>2021-03-28T13:42:56.000Z</time>
      </trkpt>
      <trkpt lat="47.24654" lon="4.94236">
        <ele>541</ele>
        <time>2021-03-28T13:43:04.000Z</time>
      </trkpt>
      <trkpt lat="47.24647" lon="4.94244">
        <ele>540</ele>
        <time>2021-03-28T13:43:12.000Z</time>
      </trkpt>
      <trkpt lat="47.24651" lon="4.9426">
        <ele>544</ele>
        <time>2021-03-28T13:43:18.000Z</time>
      </trkpt>
      <trkpt lat="47.24657" lon="4.94276">
        <ele>542</ele>
        <time>2021-03-28T13:43:27.000Z</time>
      </trkpt>
      <trkpt lat="47.24654" lon="4.94291">
        <ele>541</ele>
        <time>2021-03-28T13:43:39.000Z</time>
      </trkpt>
      <trkpt lat="47.24651" lon="4.9431">
        <ele>541</ele>
        <time>2021-03-28T13:43:51.000Z</time>
      </trkpt>
      <trkpt lat="47.24651" lon="4.94325">
        <ele>542</ele>
        <time>2021-03-28T13:43:57.000Z</time>
      </trkpt>
      <trkpt lat="47.24665" lon="4.94337">
        <ele>545</ele>
        <time>2021-03-28T13:44:06.000Z</time>
      </trkpt>
      <trkpt lat="47.24669" lon="4.94351">
        <ele>541</ele>
        <time>2021-03-28T13:44:12.000Z</time>
      </trkpt>
      <trkpt lat="47.24666" lon="4.94367">
        <ele>542</ele>
        <time>2021-03-28T13:44:16.000Z</time>
      </trkpt>
      <trkpt lat="47.24665" lon="4.94386">
        <ele>550</ele>
        <time>2021-03-28T13:44:23.000Z</time>
      </trkpt>
      <trkpt lat="47.2466" lon="4.94399">
        <ele>543</ele>
        <time>2021-03-28T13:44:37.000Z</time>
      </trkpt>
      <trkpt lat="47.24659" lon="4.94414">
        <ele>541</ele>
        <time>2021-03-28T13:44:46.000Z</time>
      </trkpt>
      <trkpt lat="47.24657" lon="4.94432">
        <ele>538</ele>
        <time>2021-03-28T13:44:55.000Z</time>
      </trkpt>
      <trkpt lat="47.24651" lon="4.94448">
        <ele>544</ele>
        <time>2021-03-28T13:45:04.000Z</time>
      </trkpt>
      <trkpt lat="47.24646" lon="4.94464">
        <ele>545</ele>
        <time>2021-03-28T13:45:10.000Z</time>
      </trkpt>
      <trkpt lat="47.2465" lon="4.94476">
        <ele>543</ele>
        <time>2021-03-28T13:45:17.000Z</time>
      </trkpt>
      <trkpt lat="47.24647" lon="4.94492">
        <ele>540</ele>
        <time>2021-03-28T13:45:27.000Z</time>
      </trkpt>
      <trkpt lat="47.24644" lon="4.94506">
        <ele>541</ele>
        <time>2021-03-28T13:45:33.000Z</time>
      </trkpt>
      <trkpt lat="47.24637" lon="4.9452">
        <ele>541</ele>
        <time>2021-03-28T13:45:42.000Z</time>
      </trkpt>
      <trkpt lat="47.24645" lon="4.94531">
        <ele>543</ele>
        <time>2021-03-28T13:45:51.000Z</time>
      </trkpt>
      <trkpt lat="47.24639" lon="4.94542">
        <ele>542</ele>
        <time>2021-03-28T13:45:59.000Z</time>
      </trkpt>
      <trkpt lat="47.24637" lon="4.94555">
        <ele>535</ele>
        <time>2021-03-28T13:46:08.000Z</time>
      </trkpt>
      <trkpt lat="47.24636" lon="4.94574">
        <ele>538</ele>
        <time>2021-03-28T13:46:17.000Z</time>
      </trkpt>
      <trkpt lat="47.24635" lon="4.9459">
        <ele>536</ele>
        <time>2021-03-28T13:46:26.000Z</time>
      </trkpt>
      <trkpt lat="47.24639" lon="4.94611">
        <ele>535</ele>
        <time>2021-03-28T13:46:35.000Z</time>
      </trkpt>
      <trkpt lat="47.24635" lon="4.94624">
        <ele>535</ele>
        <time>2021-03-28T13:46:46.000Z</time>
      </trkpt>
      <trkpt lat="47.24635" lon="4.94639">
        <ele>532</ele>
        <time>2021-03-28T13:46:55.000Z</time>
      </trkpt>
      <trkpt lat="47.2463" lon="4.94653">
        <ele>531</ele>
        <time>2021-03-28T13:47:04.000Z</time>
      </trkpt>
      <trkpt lat="47.24627" lon="4.94667">
        <ele>533</ele>
        <time>2021-03-28T13:47:11.000Z</time>
      </trkpt>
      <trkpt lat="47.2462" lon="4.94679">
        <ele>534</ele>
        <time>2021-03-28T13:47:17.000Z</time>
      </trkpt>
      <trkpt lat="47.24624" lon="4.94696">
        <ele>532</ele>
        <time>2021-03-28T13:47:24.000Z</time>
      </trkpt>
      <trkpt lat="47.24622" lon="4.94713">
        <ele>534</ele>
        <time>2021-03-28T13:47:39.000Z</time>
      </trkpt>
      <trkpt lat="47.24613" lon="4.94722">
        <ele>532</ele>
        <time>2021-03-28T13:47:49.000Z</time>
      </trkpt>
      <trkpt lat="47.24612" lon="4.94736">
        <ele>533</ele>
        <time>2021-03-28T13:47:58.000Z</time>
      </trkpt>
      <trkpt lat="47.24606" lon="4.94747">
        <ele>533</ele>
        <time>2021-03-28T13:48:09.000Z</time>
      </trkpt>
      <trkpt lat="47.24604" lon="4.94762">
        <ele>530</ele>
        <time>2021-03-28T13:48:18.000Z</time>
      </trkpt>
      <trkpt lat="47.24601" lon="4.94777">
        <ele>529</ele>
        <time>2021-03-28T13:48:26.000Z</time>
      </trkpt>
      <trkpt lat="47.24594" lon="4.94791">
        <ele>532</ele>
        <time>2021-03-28T13:48:35.000Z</time>
      </trkpt>
      <trkpt lat="47.24591" lon="4.94805">
        <ele>530</ele>
        <time>2021-03-28T13:48:44.000Z</time>
      </trkpt>
      <trkpt lat="47.24595" lon="4.94824">
        <ele>531</ele>
        <time>2021-03-28T13:48:53.000Z</time>
      </trkpt>
      <trkpt lat="47.24594" lon="4.94839">
        <ele>529</ele>
        <time>2021-03-28T13:49:02.000Z</time>
      </trkpt>
      <trkpt lat="47.24587" lon="4.94855">
        <ele>526</ele>
        <time>2021-03-28T13:49:14.000Z</time>
      </trkpt>
      <trkpt lat="47.24582" lon="4.94869">
        <ele>526</ele>
        <time>2021-03-28T13:49:22.000Z</time>
      </trkpt>
      <trkpt lat="47.24578" lon="4.94883">
        <ele>523</ele>
        <time>2021-03-28T13:49:31.000Z</time>
      </trkpt>
      <trkpt lat="47.24571" lon="4.94896">
        <ele>523</ele>
        <time>2021-03-28T13:49:43.000Z</time>
      </trkpt>
      <trkpt lat="47.24569" lon="4.94911">
        <ele>524</ele>
        <time>2021-03-28T13:49:53.000Z</time>
      </trkpt>
      <trkpt lat="47.24564" lon="4.94928">
        <ele>521</ele>
        <time>2021-03-28T13:50:05.000Z</time>
      </trkpt>
      <trkpt lat="47.24557" lon="4.94938">
        <ele>516</ele>
        <time>2021-03-28T13:50:15.000Z</time>
      </trkpt>
      <trkpt lat="47.24554" lon="4.94951">
        <ele>515</ele>
        <time>2021-03-28T13:50:24.000Z</time>
      </trkpt>
      <trkpt lat="47.24549" lon="4.94965">
        <ele>514</ele>
        <time>2021-03-28T13:50:33.000Z</time>
      </trkpt>
      <trkpt lat="47.24546" lon="4.94977">
        <ele>515</ele>
        <time>2021-03-28T13:50:42.000Z</time>
      </trkpt>
      <trkpt lat="47.24539" lon="4.94994">
        <ele>517</ele>
        <time>2021-03-28T13:50:51.000Z</time>
      </trkpt>
      <trkpt lat="47.24534" lon="4.95011">
        <ele>519</ele>
        <time>2021-03-28T13:51:00.000Z</time>
      </trkpt>
      <trkpt lat="47.2453" lon="4.95024">
        <ele>518</ele>
        <time>2021-03-28T13:51:09.000Z</time>
      </trkpt>
      <trkpt lat="47.24524" lon="4.95037">
        <ele>515</ele>
        <time>2021-03-28T13:51:22.000Z</time>
      </trkpt>
      <trkpt lat="47.24521" lon="4.95051">
        <ele>511</ele>
        <time>2021-03-28T13:51:34.000Z</time>
      </trkpt>
      <trkpt lat="47.2452" lon="4.95065">
        <ele>512</ele>
        <time>2021-03-28T13:51:43.000Z</time>
      </trkpt>
      <trkpt lat="47.24517" lon="4.95081">
        <ele>508</ele>
        <time>2021-03-28T13:52:12.000Z</time>
      </trkpt>
      <trkpt lat="47.24516" lon="4.95097">
        <ele>512</ele>
        <time>2021-03-28T13:52:19.000Z</time>
      </trkpt>
      <trkpt lat="47.24513" lon="4.95113">
        <ele>516</ele>
        <time>2021-03-28T13:52:28.000Z</time>
      </trkpt>
      <trkpt lat="47.24507" lon="4.95125">
        <ele>516</ele>
        <time>2021-03-28T13:52:34.000Z</time>
      </trkpt>
      <trkpt lat="47.24505" lon="4.95141">
        <ele>516</ele>
        <time>2021-03-28T13:52:43.000Z</time>
      </trkpt>
      <trkpt lat="47.24499" lon="4.95151">
        <ele>516</ele>
        <time>2021-03-28T13:52:49.000Z</time>
      </trkpt>
      <trkpt lat="47.2449" lon="4.9516">
        <ele>519</ele>
        <time>2021-03-28T13:53:00.000Z</time>
      </trkpt>
      <trkpt lat="47.24486" lon="4.95176">
        <ele>518</ele>
        <time>2021-03-28T13:53:11.000Z</time>
      </trkpt>
      <trkpt lat="47.24477" lon="4.9519">
        <ele>523</ele>
        <time>2021-03-28T13:53:20.000Z</time>
      </trkpt>
      <trkpt lat="47.24471" lon="4.95204">
        <ele>517</ele>
        <time>2021-03-28T13:53:29.000Z</time>
      </trkpt>
      <trkpt lat="47.24469" lon="4.95217">
        <ele>514</ele>
        <time>2021-03-28T13:53:37.000Z</time>
      </trkpt>
      <trkpt lat="47.2446" lon="4.95228">
        <ele>514</ele>
        <time>2021-03-28T13:53:43.000Z</time>
      </trkpt>
      <trkpt lat="47.24457" lon="4.95242">
        <ele>514</ele>
        <time>2021-03-28T13:53:52.000Z</time>
      </trkpt>
      <trkpt lat="47.24452" lon="4.95254">
        <ele>515</ele>
        <time>2021-03-28T13:53:58.000Z</time>
      </trkpt>
      <trkpt lat="47.24448" lon="4.9527">
        <ele>508</ele>
        <time>2021-03-28T13:54:10.000Z</time>
      </trkpt>
      <trkpt lat="47.24444" lon="4.95282">
        <ele>505</ele>
        <time>2021-03-28T13:54:21.000Z</time>
      </trkpt>
      <trkpt lat="47.24443" lon="4.95297">
        <ele>503</ele>
        <time>2021-03-28T13:54:32.000Z</time>
      </trkpt>
      <trkpt lat="47.24439" lon="4.95311">
        <ele>503</ele>
        <time>2021-03-28T13:54:41.000Z</time>
      </trkpt>
      <trkpt lat="47.24434" lon="4.95323">
        <ele>501</ele>
        <time>2021-03-28T13:54:48.000Z</time>
      </trkpt>
      <trkpt lat="47.24428" lon="4.95335">
        <ele>500</ele>
        <time>2021-03-28T13:54:58.000Z</time>
      </trkpt>
      <trkpt lat="47.24424" lon="4.9535">
        <ele>501</ele>
        <time>2021-03-28T13:55:07.000Z</time>
      </trkpt>
      <trkpt lat="47.24419" lon="4.95362">
        <ele>500</ele>
        <time>2021-03-28T13:55:17.000Z</time>
      </trkpt>
      <trkpt lat="47.24412" lon="4.95377">
        <ele>497</ele>
        <time>2021-03-28T13:55:28.000Z</time>
      </trkpt>
      <trkpt lat="47.24405" lon="4.9539">
        <ele>494</ele>
        <time>2021-03-28T13:55:40.000Z</time>
      </trkpt>
      <trkpt lat="47.24401" lon="4.95408">
        <ele>496</ele>
        <time>2021-03-28T13:55:49.000Z</time>
      </trkpt>
      <trkpt lat="47.24395" lon="4.95419">
        <ele>489</ele>
        <time>2021-03-28T13:56:01.000Z</time>
      </trkpt>
      <trkpt lat="47.24391" lon="4.95433">
        <ele>491</ele>
        <time>2021-03-28T13:56:10.000Z</time>
      </trkpt>
      <trkpt lat="47.24389" lon="4.95448">
        <ele>491</ele>
        <time>2021-03-28T13:56:21.000Z</time>
      </trkpt>
      <trkpt lat="47.24384" lon="4.9546">
        <ele>492</ele>
        <time>2021-03-28T13:56:30.000Z</time>
      </trkpt>
      <trkpt lat="47.24382" lon="4.95475">
        <ele>494</ele>
        <time>2021-03-28T13:56:42.000Z</time>
      </trkpt>
      <trkpt lat="47.24378" lon="4.95488">
        <ele>490</ele>
        <time>2021-03-28T13:56:55.000Z</time>
      </trkpt>
      <trkpt lat="47.24377" lon="4.95504">
        <ele>488</ele>
        <time>2021-03-28T13:57:07.000Z</time>
      </trkpt>
      <trkpt lat="47.24374" lon="4.95517">
        <ele>486</ele>
        <time>2021-03-28T13:57:16.000Z</time>
      </trkpt>
      <trkpt lat="47.2437" lon="4.95532">
        <ele>486</ele>
        <time>2021-03-28T13:57:25.000Z</time>
      </trkpt>
      <trkpt lat="47.24365" lon="4.95548">
        <ele>487</ele>
        <time>2021-03-28T13:57:36.000Z</time>
      </trkpt>
      <trkpt lat="47.24358" lon="4.95559">
        <ele>487</ele>
        <time>2021-03-28T13:57:44.000Z</time>
      </trkpt>
      <trkpt lat="47.24354" lon="4.95572">
        <ele>487</ele>
        <time>2021-03-28T13:57:55.000Z</time>
      </trkpt>
      <trkpt lat="47.24349" lon="4.95584">
        <ele>486</ele>
        <time>2021-03-28T13:58:04.000Z</time>
      </trkpt>
      <trkpt lat="47.24343" lon="4.95597">
        <ele>488</ele>
        <time>2021-03-28T13:58:13.000Z</time>
      </trkpt>
      <trkpt lat="47.24336" lon="4.95608">
        <ele>488</ele>
        <time>2021-03-28T13:58:22.000Z</time>
      </trkpt>
      <trkpt lat="47.24329" lon="4.95617">
        <ele>489</ele>
        <time>2021-03-28T13:58:40.000Z</time>
      </trkpt>
      <trkpt lat="47.24323" lon="4.95628">
        <ele>489</ele>
        <time>2021-03-28T13:58:48.000Z</time>
      </trkpt>
      <trkpt lat="47.24316" lon="4.9564">
        <ele>488</ele>
        <time>2021-03-28T13:58:58.000Z</time>
      </trkpt>
      <trkpt lat="47.24309" lon="4.95648">
        <ele>487</ele>
        <time>2021-03-28T13:59:09.000Z</time>
      </trkpt>
      <trkpt lat="47.243" lon="4.95656">
        <ele>486</ele>
        <time>2021-03-28T13:59:21.000Z</time>
      </trkpt>
      <trkpt lat="47.24293" lon="4.95663">
        <ele>484</ele>
        <time>2021-03-28T13:59:30.000Z</time>
      </trkpt>
      <trkpt lat="47.2429" lon="4.95677">
        <ele>484</ele>
        <time>2021-03-28T13:59:41.000Z</time>
      </trkpt>
      <trkpt lat="47.24287" lon="4.95693">
        <ele>483</ele>
        <time>2021-03-28T13:59:52.000Z</time>
      </trkpt>
      <trkpt lat="47.24282" lon="4.95704">
        <ele>485</ele>
        <time>2021-03-28T14:00:09.000Z</time>
      </trkpt>
      <trkpt lat="47.24277" lon="4.95717">
        <ele>482</ele>
        <time>2021-03-28T14:00:19.000Z</time>
      </trkpt>
      <trkpt lat="47.24273" lon="4.9573">
        <ele>483</ele>
        <time>2021-03-28T14:00:25.000Z</time>
      </trkpt>
      <trkpt lat="47.24272" lon="4.95743">
        <ele>481</ele>
        <time>2021-03-28T14:00:35.000Z</time>
      </trkpt>
      <trkpt lat="47.24267" lon="4.95759">
        <ele>475</ele>
        <time>2021-03-28T14:00:51.000Z</time>
      </trkpt>
      <trkpt lat="47.24265" lon="4.95773">
        <ele>475</ele>
        <time>2021-03-28T14:01:01.000Z</time>
      </trkpt>
      <trkpt lat="47.24261" lon="4.95789">
        <ele>475</ele>
        <time>2021-03-28T14:01:13.000Z</time>
      </trkpt>
      <trkpt lat="47.24257" lon="4.95801">
        <ele>474</ele>
        <time>2021-03-28T14:01:28.000Z</time>
      </trkpt>
      <trkpt lat="47.24258" lon="4.95814">
        <ele>474</ele>
        <time>2021-03-28T14:01:36.000Z</time>
      </trkpt>
      <trkpt lat="47.2426" lon="4.95831">
        <ele>470</ele>
        <time>2021-03-28T14:01:49.000Z</time>
      </trkpt>
      <trkpt lat="47.24258" lon="4.95844">
        <ele>469</ele>
        <time>2021-03-28T14:02:00.000Z</time>
      </trkpt>
      <trkpt lat="47.2426" lon="4.95858">
        <ele>467</ele>
        <time>2021-03-28T14:02:12.000Z</time>
      </trkpt>
      <trkpt lat="47.24266" lon="4.95872">
        <ele>467</ele>
        <time>2021-03-28T14:02:27.000Z</time>
      </trkpt>
      <trkpt lat="47.24266" lon="4.95888">
        <ele>468</ele>
        <time>2021-03-28T14:02:35.000Z</time>
      </trkpt>
      <trkpt lat="47.24269" lon="4.95901">
        <ele>463</ele>
        <time>2021-03-28T14:02:50.000Z</time>
      </trkpt>
      <trkpt lat="47.24272" lon="4.95914">
        <ele>464</ele>
        <time>2021-03-28T14:02:59.000Z</time>
      </trkpt>
      <trkpt lat="47.24273" lon="4.95929">
        <ele>461</ele>
        <time>2021-03-28T14:03:08.000Z</time>
      </trkpt>
      <trkpt lat="47.24276" lon="4.95943">
        <ele>461</ele>
        <time>2021-03-28T14:03:17.000Z</time>
      </trkpt>
      <trkpt lat="47.24277" lon="4.95962">
        <ele>463</ele>
        <time>2021-03-28T14:03:26.000Z</time>
      </trkpt>
      <trkpt lat="47.2428" lon="4.95977">
        <ele>459</ele>
        <time>2021-03-28T14:03:38.000Z</time>
      </trkpt>
      <trkpt lat="47.2428" lon="4.95991">
        <ele>451</ele>
        <time>2021-03-28T14:03:50.000Z</time>
      </trkpt>
      <trkpt lat="47.24281" lon="4.96006">
        <ele>450</ele>
        <time>2021-03-28T14:04:02.000Z</time>
      </trkpt>
      <trkpt lat="47.24283" lon="4.96019">
        <ele>450</ele>
        <time>2021-03-28T14:04:10.000Z</time>
      </trkpt>
      <trkpt lat="47.2428" lon="4.96033">
        <ele>447</ele>
        <time>2021-03-28T14:04:22.000Z</time>
      </trkpt>
      <trkpt lat="47.24276" lon="4.9605">
        <ele>447</ele>
        <time>2021-03-28T14:04:35.000Z</time>
      </trkpt>
      <trkpt lat="47.24272" lon="4.96062">
        <ele>446</ele>
        <time>2021-03-28T14:04:49.000Z</time>
      </trkpt>
      <trkpt lat="47.24269" lon="4.96079">
        <ele>445</ele>
        <time>2021-03-28T14:05:00.000Z</time>
      </trkpt>
      <trkpt lat="47.24263" lon="4.96094">
        <ele>444</ele>
        <time>2021-03-28T14:05:12.000Z</time>
      </trkpt>
      <trkpt lat="47.24258" lon="4.96109">
        <ele>439</ele>
        <time>2021-03-28T14:05:26.000Z</time>
      </trkpt>
      <trkpt lat="47.24259" lon="4.96125">
        <ele>441</ele>
        <time>2021-03-28T14:05:35.000Z</time>
      </trkpt>
      <trkpt lat="47.24259" lon="4.96141">
        <ele>440</ele>
        <time>2021-03-28T14:05:44.000Z</time>
      </trkpt>
      <trkpt lat="47.24257" lon="4.96157">
        <ele>439</ele>
        <time>2021-03-28T14:05:56.000Z</time>
      </trkpt>
      <trkpt lat="47.24253" lon="4.96171">
        <ele>439</ele>
        <time>2021-03-28T14:06:18.000Z</time>
      </trkpt>
      <trkpt lat="47.24251" lon="4.96185">
        <ele>434</ele>
        <time>2021-03-28T14:06:27.000Z</time>
      </trkpt>
      <trkpt lat="47.24254" lon="4.96199">
        <ele>435</ele>
        <time>2021-03-28T14:06:36.000Z</time>
      </trkpt>
      <trkpt lat="47.24256" lon="4.96216">
        <ele>434</ele>
        <time>2021-03-28T14:06:48.000Z</time>
      </trkpt>
      <trkpt lat="47.24258" lon="4.96231">
        <ele>426</ele>
        <time>2021-03-28T14:07:00.000Z</time>
      </trkpt>
      <trkpt lat="47.24259" lon="4.9625">
        <ele>422</ele>
        <time>2021-03-28T14:07:12.000Z</time>
      </trkpt>
      <trkpt lat="47.24261" lon="4.96267">
        <ele>425</ele>
        <time>2021-03-28T14:07:21.000Z</time>
      </trkpt>
      <trkpt lat="47.24265" lon="4.96282">
        <ele>443</ele>
        <time>2021-03-28T14:07:30.000Z</time>
      </trkpt>
      <trkpt lat="47.2427" lon="4.96296">
        <ele>428</ele>
        <time>2021-03-28T14:07:42.000Z</time>
      </trkpt>
      <trkpt lat="47.24275" lon="4.96307">
        <ele>420</ele>
        <time>2021-03-28T14:07:54.000Z</time>
      </trkpt>
      <trkpt lat="47.24285" lon="4.96318">
        <ele>417</ele>
        <time>2021-03-28T14:08:15.000Z</time>
      </trkpt>
      <trkpt lat="47.24294" lon="4.96325">
        <ele>414</ele>
        <time>2021-03-28T14:08:20.000Z</time>
      </trkpt>
      <trkpt lat="47.24295" lon="4.96339">
        <ele>413</ele>
        <time>2021-03-28T14:08:39.000Z</time>
      </trkpt>
      <trkpt lat="47.24287" lon="4.96346">
        <ele>415</ele>
        <time>2021-03-28T14:08:53.000Z</time>
      </trkpt>
      <trkpt lat="47.24277" lon="4.96346">
        <ele>417</ele>
        <time>2021-03-28T14:09:02.000Z</time>
      </trkpt>
      <trkpt lat="47.24265" lon="4.96353">
        <ele>418</ele>
        <time>2021-03-28T14:09:11.000Z</time>
      </trkpt>
      <trkpt lat="47.24252" lon="4.96354">
        <ele>418</ele>
        <time>2021-03-28T14:09:20.000Z</time>
      </trkpt>
      <trkpt lat="47.24242" lon="4.96353">
        <ele>419</ele>
        <time>2021-03-28T14:09:26.000Z</time>
      </trkpt>
      <trkpt lat="47.24233" lon="4.9635">
        <ele>422</ele>
        <time>2021-03-28T14:09:36.000Z</time>
      </trkpt>
      <trkpt lat="47.24226" lon="4.96341">
        <ele>415</ele>
        <time>2021-03-28T14:09:45.000Z</time>
      </trkpt>
      <trkpt lat="47.24221" lon="4.9633">
        <ele>416</ele>
        <time>2021-03-28T14:09:58.000Z</time>
      </trkpt>
      <trkpt lat="47.2421" lon="4.96333">
        <ele>415</ele>
        <time>2021-03-28T14:10:05.000Z</time>
      </trkpt>
      <trkpt lat="47.242" lon="4.9633">
        <ele>415</ele>
        <time>2021-03-28T14:10:18.000Z</time>
      </trkpt>
      <trkpt lat="47.24188" lon="4.9633">
        <ele>421</ele>
        <time>2021-03-28T14:10:27.000Z</time>
      </trkpt>
      <trkpt lat="47.24178" lon="4.96324">
        <ele>421</ele>
        <time>2021-03-28T14:10:36.000Z</time>
      </trkpt>
      <trkpt lat="47.24169" lon="4.9632">
        <ele>453</ele>
        <time>2021-03-28T14:10:46.000Z</time>
      </trkpt>
      <trkpt lat="47.24161" lon="4.9631">
        <ele>431</ele>
        <time>2021-03-28T14:10:53.000Z</time>
      </trkpt>
      <trkpt lat="47.24152" lon="4.96304">
        <ele>437</ele>
        <time>2021-03-28T14:11:02.000Z</time>
      </trkpt>
      <trkpt lat="47.24142" lon="4.96304">
        <ele>425</ele>
        <time>2021-03-28T14:11:11.000Z</time>
      </trkpt>
      <trkpt lat="47.24131" lon="4.96311">
        <ele>416</ele>
        <time>2021-03-28T14:12:27.000Z</time>
      </trkpt>
      <trkpt lat="47.24121" lon="4.96322">
        <ele>411</ele>
        <time>2021-03-28T14:12:39.000Z</time>
      </trkpt>
      <trkpt lat="47.24116" lon="4.96333">
        <ele>402</ele>
        <time>2021-03-28T14:12:50.000Z</time>
      </trkpt>
      <trkpt lat="47.2411" lon="4.96343">
        <ele>400</ele>
        <time>2021-03-28T14:12:58.000Z</time>
      </trkpt>
      <trkpt lat="47.241" lon="4.96346">
        <ele>398</ele>
        <time>2021-03-28T14:13:07.000Z</time>
      </trkpt>
      <trkpt lat="47.24089" lon="4.96346">
        <ele>436</ele>
        <time>2021-03-28T14:13:15.000Z</time>
      </trkpt>
      <trkpt lat="47.24092" lon="4.96361">
        <ele>394</ele>
        <time>2021-03-28T14:13:28.000Z</time>
      </trkpt>
      <trkpt lat="47.24086" lon="4.96371">
        <ele>383</ele>
        <time>2021-03-28T14:13:51.000Z</time>
      </trkpt>
      <trkpt lat="47.24077" lon="4.96379">
        <ele>384</ele>
        <time>2021-03-28T14:14:12.000Z</time>
      </trkpt>
      <trkpt lat="47.2407" lon="4.96389">
        <ele>381</ele>
        <time>2021-03-28T14:14:18.000Z</time>
      </trkpt>
      <trkpt lat="47.24062" lon="4.96401">
        <ele>376</ele>
        <time>2021-03-28T14:14:27.000Z</time>
      </trkpt>
      <trkpt lat="47.24053" lon="4.96411">
        <ele>379</ele>
        <time>2021-03-28T14:14:33.000Z</time>
      </trkpt>
      <trkpt lat="47.24048" lon="4.96426">
        <ele>381</ele>
        <time>2021-03-28T14:14:38.000Z</time>
      </trkpt>
      <trkpt lat="47.24052" lon="4.96442">
        <ele>378</ele>
        <time>2021-03-28T14:14:50.000Z</time>
      </trkpt>
      <trkpt lat="47.24056" lon="4.96455">
        <ele>379</ele>
        <time>2021-03-28T14:14:56.000Z</time>
      </trkpt>
      <trkpt lat="47.24057" lon="4.96471">
        <ele>384</ele>
        <time>2021-03-28T14:15:11.000Z</time>
      </trkpt>
      <trkpt lat="47.24052" lon="4.96487">
        <ele>376</ele>
        <time>2021-03-28T14:15:25.000Z</time>
      </trkpt>
      <trkpt lat="47.24054" lon="4.96505">
        <ele>374</ele>
        <time>2021-03-28T14:15:47.000Z</time>
      </trkpt>
      <trkpt lat="47.24058" lon="4.96518">
        <ele>373</ele>
        <time>2021-03-28T14:15:56.000Z</time>
      </trkpt>
      <trkpt lat="47.24062" lon="4.96534">
        <ele>365</ele>
        <time>2021-03-28T14:16:16.000Z</time>
      </trkpt>
      <trkpt lat="47.24059" lon="4.96549">
        <ele>362</ele>
        <time>2021-03-28T14:16:34.000Z</time>
      </trkpt>
    </trkseg>
  </trk>
</gpx>